Ship Status Report: callsign 000000

sailwx.info

Track history (hours):
 
Tides and Currents Weather Stations Pressure Air Temp Water Temp Dewpoint Dewpoint Depression Visibility Wind Speed Wind Dir Waves Ship Positions

Callsign 000000 (name unknown)

Last reported at 2014-Nov-28 17:33 UTC. Time now 2014-Nov-28 18:16 UTC.
Position N 32°00' E 120°21'.

Type: Fishing. MMSI: 200007452.

Date/timePositionNaut miles runAvg speedWind from/ knotsBaromVisibWave heightAir tempDewpointWater temp
2014-Nov-28 17:33N 32°00' E 120°21'7910986.2
2014-Nov-28 17:33N 31°05' E 121°28'8329799.9
2014-Nov-28 17:33N 31°56' E 120°12'1674913.5
2014-Nov-28 17:31N 29°53' E 122°22'152691.5
2014-Nov-28 17:18N 32°01' E 120°47'1679.5
2014-Nov-28 17:06N 31°47' E 120°55'3259.3
2014-Nov-28 16:33N 32°00' E 120°21'7910578.7
2014-Nov-28 16:33N 31°05' E 121°28'64328558.8
2014-Nov-28 16:31N 23°04' E 113°30'66222497.0
2014-Nov-28 16:30N 32°01' E 120°47'70944012.3
2014-Nov-28 16:29N 22°06' E 113°33'68955100.7
2014-Nov-28 16:28N 31°56' E 120°12'1711337.7
2014-Nov-28 16:20N 29°42' E 122°14'6232496.7
2014-Nov-28 16:05N 22°42' E 113°41'6531224.5
2014-Nov-28 15:33N 31°05' E 121°28'795388.9
2014-Nov-28 15:32N 32°00' E 120°21'226504.8
2014-Nov-28 15:32N 32°01' E 120°47'307205.4
2014-Nov-28 15:32N 31°56' E 120°12'6473335.0
2014-Nov-28 15:20N 23°03' E 113°21'8552.9
2014-Nov-28 15:19N 23°04' E 113°30'6553129.4
2014-Nov-28 15:07N 31°47' E 120°55'6591179.5
2014-Nov-28 14:33N 23°03' E 113°25'65280949.3
2014-Nov-28 14:33N 32°00' E 120°21'93524.4
2014-Nov-28 14:33N 31°56' E 120°12'642770306.6
2014-Nov-28 14:33N 23°02' E 113°31'64357888.2
2014-Nov-28 14:32N 31°05' E 121°28'661468.0
2014-Nov-28 14:29N 32°01' E 120°47'16111.2
2014-Nov-28 14:21N 31°47' E 120°55'5063.4
2014-Nov-28 13:33N 31°05' E 121°28'7910580.3
2014-Nov-28 13:33N 32°00' E 120°21'3351.3
2014-Nov-28 13:32N 31°58' E 120°18'65367176.0
2014-Nov-28 13:32N 22°55' E 113°30'66356790.4
2014-Nov-28 13:31N 31°47' E 120°55'656590061.7
2014-Nov-28 13:31N 23°04' E 113°29'66326502.0
2014-Nov-28 13:29N 32°01' E 120°47'52930202.8
2014-Nov-28 13:28N 23°40' E 117°37'7 7.7
2014-Nov-28 12:33N 23°44' E 117°43'518124279.4
2014-Nov-28 12:33N 32°02' E 120°26'4398.1
2014-Nov-28 12:33N 32°00' E 120°21'649129758.2
2014-Nov-28 12:32N 23°04' E 113°30'642578240.4
2014-Nov-28 12:32N 31°05' E 121°28'661702.7
2014-Nov-28 12:30N 32°01' E 120°48'16314.7
2014-Nov-28 12:27N 31°47' E 120°55'6683027.9
2014-Nov-28 12:14N 22°54' E 113°22'668977.6
2014-Nov-28 11:33N 32°01' E 120°34'111855.4
2014-Nov-28 11:32N 32°00' E 120°21'8153.9
2014-Nov-28 11:29N 31°57' E 120°14'48439.4
2014-Nov-28 11:23N 31°42' E 121°08'65916027.2
2014-Nov-28 11:20N 23°04' E 113°30'65525927.7
2014-Nov-28 11:19N 31°47' E 120°55'67110594.1
2014-Nov-28 11:15N 22°38' E 113°41'67726508.1
2014-Nov-28 11:14N 31°57' E 120°52'2741.1
2014-Nov-28 10:33N 31°59' E 120°20'292288.6
2014-Nov-28 10:33N 31°53' E 120°54'70614035.9
2014-Nov-28 10:30N 22°06' E 113°33'322654.9
2014-Nov-28 10:29N 22°38' E 113°41'665126089.7
2014-Nov-28 10:29N 32°00' E 120°21'19839.0
2014-Nov-28 10:27N 32°01' E 120°44'671304.2
2014-Nov-28 10:24N 31°05' E 121°28'35211827.3
2014-Nov-28 10:22N 36°53' E 122°26'95027816.9
2014-Nov-28 10:20N 23°04' E 113°30'653834.4
2014-Nov-28 09:33N 32°03' E 120°26'307184173.2
2014-Nov-28 09:33N 36°52' E 122°32'95261188.6
2014-Nov-28 09:32N 23°04' E 113°30'64947669.1
2014-Nov-28 09:32N 32°00' E 120°21'33866.6
2014-Nov-28 09:29N 31°47' E 120°57'226.2
2014-Nov-28 09:26N 31°47' E 120°55'11108.0
2014-Nov-28 09:20N 31°57' E 120°52'6011454.7
2014-Nov-28 09:19N 31°05' E 121°28'0 0.0
2014-Nov-28 08:33N 31°05' E 121°28'794933.0
2014-Nov-28 08:32N 32°00' E 120°21'10748145.0
2014-Nov-28 08:32N 30°59' E 122°04'1038418.5
2014-Nov-28 08:31N 32°04' E 120°31'35939.2
2014-Nov-28 08:29N 31°45' E 121°06'910670.0
2014-Nov-28 08:29N 31°47' E 120°55'1516.2
2014-Nov-28 07:33N 31°41' E 121°12'471946.8
2014-Nov-28 07:31N 32°00' E 120°21'11595.7
2014-Nov-28 07:30N 32°02' E 120°35'735720.0
2014-Nov-28 07:29N 31°05' E 121°28'93699.2
2014-Nov-28 07:21N 31°60' E 120°00'42892.0
2014-Nov-28 07:18N 31°58' E 120°50'12171.2
2014-Nov-28 07:14N 31°47' E 120°55'2131.1
2014-Nov-28 06:33N 31°37' E 121°17'666831.9
2014-Nov-28 06:33N 31°58' E 120°03'16601.0
2014-Nov-28 06:31N 32°00' E 120°21'25427.7
2014-Nov-28 06:28N 31°58' E 120°50'72258554.2
2014-Nov-28 06:28N 31°09' E 121°52'21297.4
2014-Nov-28 06:24N 31°05' E 121°28'622100.3
2014-Nov-28 06:22N 31°58' E 120°51'6681.3
2014-Nov-28 05:33N 31°13' E 121°48'303948.4
2014-Nov-28 05:33N 31°32' E 121°21'181219.7
2014-Nov-28 05:32N 31°21' E 121°37'221572.8
2014-Nov-28 05:31N 31°00' E 121°29'8359955.4
2014-Nov-28 05:31N 32°00' E 120°21'25451.7
2014-Nov-28 05:28N 31°58' E 120°50'2224.5
2014-Nov-28 04:34N 31°58' E 120°24'35801.5
2014-Nov-28 04:34N 32°00' E 120°21'8423343.7
2014-Nov-28 04:33N 31°18' E 121°47'231381.6
2014-Nov-28 04:32N 31°29' E 121°23'404268.7
2014-Nov-28 04:32N 31°58' E 120°50'621380.7
2014-Nov-28 04:29N 31°05' E 121°28'50299.6
2014-Nov-28 04:19N 31°47' E 120°55'5065.9
2014-Nov-28 03:33N 31°05' E 121°28'2623358.8
2014-Nov-28 03:33N 31°27' E 121°44'3621380.1
2014-Nov-28 03:33N 30°59' E 121°19'833626.9
2014-Nov-28 03:32N 31°57' E 120°10'342109.1
2014-Nov-28 03:31N 31°58' E 120°50'258852.2
2014-Nov-28 03:31N 32°00' E 120°21'321557.7
2014-Nov-28 03:29N 31°47' E 120°55'3013289.4
2014-Nov-28 03:29N 31°29' E 121°23'656866.4
2014-Nov-28 03:29N 31°56' E 120°14'42846689.0
2014-Nov-28 03:28N 24°52' E 119°05'8271.1
2014-Nov-28 03:26N 24°51' E 118°56'34915920.3
2014-Nov-28 03:25N 29°53' E 122°13'46419001.9
2014-Nov-28 03:24N 37°36' E 121°22'9629439.8
2014-Nov-28 03:17N 23°04' E 113°30'649878.4
2014-Nov-28 02:33N 32°00' E 120°21'71785.8
2014-Nov-28 02:33N 31°57' E 120°15'304043.5
2014-Nov-28 02:32N 31°58' E 120°50'43736599.5
2014-Nov-28 02:32N 24°51' E 119°05'40115053.6
2014-Nov-28 02:30N 31°12' E 121°29'38440665.0
2014-Nov-28 02:30N 37°36' E 121°22'36624885.3
2014-Nov-28 02:29N 31°29' E 121°23'3319679.9
2014-Nov-28 02:27N 36°56' E 122°28'3548913.7
2014-Nov-28 02:24N 31°05' E 121°28'64330052.5
2014-Nov-28 02:23N 23°04' E 113°29'6567088.4
2014-Nov-28 02:17N 31°47' E 120°55'6914176.2
2014-Nov-28 02:08N 22°17' E 113°36'339598.6
2014-Nov-28 01:34N 24°51' E 119°05'774103136.8
2014-Nov-28 01:33N 37°35' E 121°24'339304697.8
2014-Nov-28 01:33N 31°58' E 120°50'621060.1
2014-Nov-28 01:30N 31°05' E 121°28'501042.8
2014-Nov-28 01:27N 31°47' E 120°55'9522.6
2014-Nov-28 01:26N 31°47' E 121°06'31613366.8
2014-Nov-28 01:24N 36°56' E 122°28'95446387.9
2014-Nov-28 01:23N 23°04' E 113°29'411206.7
2014-Nov-28 01:21N 22°28' E 113°49'1989.6
2014-Nov-28 01:08N 22°13' E 113°36'68358556.0
2014-Nov-28 01:08N 31°57' E 120°15'103180.9
2014-Nov-28 00:33N 30°50' E 121°47'2213150.3
2014-Nov-28 00:33N 31°05' E 121°28'8047911.7
2014-Nov-28 00:33N 31°59' E 120°19'668126504.4
2014-Nov-28 00:33N 22°28' E 113°49'67681060.8
2014-Nov-28 00:32N 31°47' E 120°55'31895394.4
2014-Nov-28 00:32N 36°55' E 122°28'953285963.4
2014-Nov-28 00:32N 23°04' E 113°29'96650388.1
2014-Nov-28 00:31N 37°41' E 121°19'34325754.9
2014-Nov-28 00:30N 32°00' E 120°21'25632.3
2014-Nov-28 00:28N 31°58' E 120°50'438143433.3
2014-Nov-28 00:28N 24°50' E 119°04'4403374.6
2014-Nov-28 00:20N 32°02' E 120°35'531056.9
2014-Nov-28 00:17N 31°29' E 121°23'4663.9
2014-Nov-27 23:33N 30°49' E 121°50'1027665.6
2014-Nov-27 23:33N 32°01' E 120°25'35966.8
2014-Nov-27 23:33N 32°00' E 120°21'64963149.2
2014-Nov-27 23:32N 23°04' E 113°29'64322250.4
2014-Nov-27 23:30N 31°05' E 121°28'251226.7
2014-Nov-27 23:29N 31°29' E 121°23'4011926.3
2014-Nov-27 23:29N 31°58' E 120°51'12110.5
2014-Nov-27 23:22N 31°47' E 120°55'6768328.3
2014-Nov-27 23:17N 22°28' E 113°49'6445753.4
2014-Nov-27 23:11N 31°06' E 120°58'39120686.6
2014-Nov-27 23:10N 24°48' E 119°03'84212169.0
2014-Nov-27 23:05N 38°41' E 121°31'474886.6
2014-Nov-27 22:33N 30°47' E 121°52'38966612.2
2014-Nov-27 22:33N 24°48' E 119°03'430119036.6
2014-Nov-27 22:33N 31°47' E 120°55'2510053.4
2014-Nov-27 22:33N 32°02' E 120°32'93225.8
2014-Nov-27 22:32N 32°00' E 120°21'619595.1
2014-Nov-27 22:32N 31°29' E 121°23'676187233.3
2014-Nov-27 22:32N 22°28' E 113°49'66011154.4
2014-Nov-27 22:28N 31°05' E 121°28'6211707.3
2014-Nov-27 22:28N 31°58' E 120°51'40715581.6
2014-Nov-27 22:26N 38°44' E 121°27'54123479.9
2014-Nov-27 22:25N 29°45' E 122°22'62318082.6
2014-Nov-27 22:23N 23°04' E 113°29'41154.7
2014-Nov-27 22:07N 22°27' E 113°46'6621177.4
2014-Nov-27 21:33N 30°44' E 121°55'928679.0
2014-Nov-27 21:33N 31°58' E 120°51'262879.1
2014-Nov-27 21:32N 32°00' E 120°21'649106205.5
2014-Nov-27 21:32N 23°04' E 113°29'65612968.7
2014-Nov-27 21:29N 31°47' E 120°55'308205.8
2014-Nov-27 21:29N 31°29' E 121°23'231907.3
2014-Nov-27 21:28N 31°46' E 121°04'251044.2
2014-Nov-27 21:27N 32°00' E 120°40'4388089.2
2014-Nov-27 21:23N 24°50' E 119°03'3962938.0
2014-Nov-27 21:15N 31°05' E 121°28'3448.8
2014-Nov-27 20:33N 30°44' E 121°59'9556704.2
2014-Nov-27 20:33N 31°58' E 120°51'6218531.9
2014-Nov-27 20:33N 31°05' E 121°28'798670.2
2014-Nov-27 20:32N 32°00' E 120°21'6144135.1
2014-Nov-27 20:32N 31°29' E 121°23'658197366.9
2014-Nov-27 20:32N 23°04' E 113°29'660131933.2
2014-Nov-27 20:32N 31°42' E 121°10'301097.3
2014-Nov-27 20:30N 32°02' E 120°44'44137792.4
2014-Nov-27 20:29N 24°50' E 119°03'42845292.6
2014-Nov-27 20:29N 31°47' E 120°55'1213.0
2014-Nov-27 19:33N 31°58' E 120°51'9515615.0
2014-Nov-27 19:33N 30°46' E 122°04'563647.6
2014-Nov-27 19:32N 31°29' E 121°23'61220686.8
2014-Nov-27 19:32N 32°00' E 120°21'792532.0
2014-Nov-27 19:30N 31°05' E 121°28'3995990.3
2014-Nov-27 19:26N 24°51' E 118°51'3125624.9
2014-Nov-27 19:23N 23°04' E 113°29'656295059.6
2014-Nov-27 19:23N 31°47' E 120°55'4284625.0
2014-Nov-27 19:17N 24°50' E 119°03'438594.5
2014-Nov-27 18:33N 31°58' E 120°51'124343.1
2014-Nov-27 18:33N 31°47' E 120°55'5045114.9
2014-Nov-27 18:33N 31°05' E 121°28'252598.4
2014-Nov-27 18:32N 31°29' E 121°23'4188444.0
2014-Nov-27 18:29N 24°50' E 119°03'3249252.4
2014-Nov-27 18:27N 22°27' E 113°46'32173.2
2014-Nov-27 18:16N 22°54' E 113°28'1074.3
2014-Nov-27 18:08N 23°04' E 113°29'6491078.7
2014-Nov-27 17:32N 32°00' E 120°21'792087.1
2014-Nov-27 17:30N 31°05' E 121°28'8616228.9
2014-Nov-27 17:29N 29°53' E 122°22'351420810.1
2014-Nov-27 17:29N 24°51' E 119°03'35017029.9
2014-Nov-27 17:28N 29°53' E 122°22'1093666.5
2014-Nov-27 17:26N 31°29' E 121°23'10918645.8
2014-Nov-27 17:26N 29°51' E 122°17'1083.5
2014-Nov-27 17:19N 29°42' E 122°12'6293917.7
2014-Nov-27 17:09N 22°27' E 113°46'67816156.8
2014-Nov-27 17:07N 31°47' E 120°55'0 0.0
2014-Nov-27 16:33N 31°47' E 120°55'131436.6
2014-Nov-27 16:32N 31°59' E 120°50'6312601.9
2014-Nov-27 16:32N 31°05' E 121°28'643165294.1
2014-Nov-27 16:32N 23°04' E 113°29'649259617.4
2014-Nov-27 16:32N 32°00' E 120°21'43510518.5
2014-Nov-27 16:29N 24°51' E 119°03'41740611.0
2014-Nov-27 16:29N 31°29' E 121°23'1071727.5
2014-Nov-27 16:25N 29°54' E 122°21'3 9.0
2014-Nov-27 16:08N 29°52' E 122°22'1622642.5
2014-Nov-27 16:04N 32°02' E 120°29'2752.6
2014-Nov-27 15:33N 31°47' E 120°55'5036084.7
2014-Nov-27 15:33N 31°05' E 121°28'241916.2
2014-Nov-27 15:32N 31°29' E 121°23'4178122.1
2014-Nov-27 15:29N 24°51' E 119°03'43568139.9
2014-Nov-27 15:29N 32°00' E 120°21'1651466.0
2014-Nov-27 15:22N 29°51' E 122°22'62717108.3
2014-Nov-27 15:20N 23°04' E 113°29'31916170.1
2014-Nov-27 15:19N 24°47' E 118°59'432561.9
2014-Nov-27 14:33N 31°47' E 120°55'35534526.1
2014-Nov-27 14:32N 37°41' E 121°19'39654827.3
2014-Nov-27 14:32N 31°05' E 121°28'7957183.9
2014-Nov-27 14:32N 32°00' E 120°21'611781.5
2014-Nov-27 14:29N 31°29' E 121°23'417136596.9
2014-Nov-27 14:29N 24°51' E 119°03'3236568.7
2014-Nov-27 14:26N 23°00' E 113°31'6605068.8
2014-Nov-27 14:18N 31°24' E 121°31'67823690.3
2014-Nov-27 14:17N 22°27' E 113°47'662913.3
2014-Nov-27 13:33N 31°05' E 121°28'39182709.6
2014-Nov-27 13:33N 37°36' E 121°26'36641222.4
2014-Nov-27 13:32N 31°29' E 121°23'66523703.8
2014-Nov-27 13:31N 22°54' E 113°31'37720259.2
2014-Nov-27 13:30N 25°45' E 119°39'648841.6
2014-Nov-27 13:29N 24°50' E 119°03'43535625.1
2014-Nov-27 13:29N 32°00' E 120°21'32960.0
2014-Nov-27 13:27N 31°47' E 120°55'3032.9
2014-Nov-27 12:33N 31°29' E 121°23'81699.1
2014-Nov-27 12:32N 31°23' E 121°29'182062.6
2014-Nov-27 12:32N 31°05' E 121°28'7318775.6
2014-Nov-27 12:31N 32°02' E 120°35'23539.3
2014-Nov-27 12:29N 31°47' E 120°55'324121.0
2014-Nov-27 12:28N 32°00' E 120°21'4355190.5
2014-Nov-27 12:23N 24°50' E 119°03'4312535.8
2014-Nov-27 12:13N 31°48' E 121°06'913.5
2014-Nov-27 11:33N 31°47' E 120°55'301909.8
2014-Nov-27 11:33N 31°29' E 121°23'612540.7
2014-Nov-27 11:31N 32°00' E 120°21'43514380.8
2014-Nov-27 11:29N 24°50' E 119°03'41124257.6
2014-Nov-27 11:28N 31°21' E 121°27'161180.0
2014-Nov-27 11:27N 31°05' E 121°28'0 0.0
2014-Nov-27 10:33N 31°05' E 121°28'255892.0
2014-Nov-27 10:33N 31°29' E 121°23'612185.1
2014-Nov-27 10:31N 32°00' E 120°21'32114662.0
2014-Nov-27 10:31N 31°47' E 120°55'37358.6
2014-Nov-27 10:25N 31°21' E 121°27'41117409.1
2014-Nov-27 10:23N 24°50' E 119°03'3331244.5
2014-Nov-27 10:07N 22°54' E 113°22'3 5.4
2014-Nov-27 09:33N 22°55' E 113°26'658338285.9
2014-Nov-27 09:33N 31°59' E 120°21'121212.8
2014-Nov-27 09:33N 32°02' E 120°35'537937.6
2014-Nov-27 09:32N 31°29' E 121°23'256803.4
2014-Nov-27 09:32N 31°05' E 121°28'39664758.2
2014-Nov-27 09:32N 24°50' E 119°03'439175683.7
2014-Nov-27 09:31N 32°00' E 120°47'511455.8
2014-Nov-27 09:29N 31°21' E 121°27'37891.6
2014-Nov-27 09:27N 31°47' E 120°55'4336231.5
2014-Nov-27 09:23N 24°46' E 118°60'8493226.2
2014-Nov-27 09:07N 38°46' E 121°26'406730.4
2014-Nov-27 08:34N 32°01' E 120°47'1527870.3
2014-Nov-27 08:33N 32°04' E 120°29'666140998.5
2014-Nov-27 08:33N 22°55' E 113°25'6542355167.2
2014-Nov-27 08:33N 31°08' E 121°27'660263946.1
2014-Nov-27 08:33N 22°28' E 113°52'37661483.8
2014-Nov-27 08:33N 26°03' E 119°30'7769736.3
2014-Nov-27 08:33N 24°50' E 119°03'41865484.8
2014-Nov-27 08:32N 31°29' E 121°23'6124265.1
2014-Nov-27 08:32N 31°59' E 120°21'65681402.8
2014-Nov-27 08:32N 22°52' E 113°32'664140523.2
2014-Nov-27 08:31N 31°47' E 120°55'37514.2
2014-Nov-27 08:27N 31°21' E 121°27'66818794.2
2014-Nov-27 08:25N 22°45' E 113°31'8135.3
2014-Nov-27 08:21N 22°52' E 113°34'6483277.9
2014-Nov-27 08:10N 31°57' E 120°10'64923127.1
2014-Nov-27 08:08N 22°53' E 113°31'97213161.3
2014-Nov-27 08:03N 36°59' E 122°45'3 6.9
2014-Nov-27 07:33N 36°57' E 122°42'34996595.6
2014-Nov-27 07:33N 31°13' E 121°30'92226.2
2014-Nov-27 07:33N 31°21' E 121°27'37133771.3
2014-Nov-27 07:33N 31°47' E 120°55'35785723.5
2014-Nov-27 07:33N 25°58' E 119°25'34749933.4
2014-Nov-27 07:32N 31°29' E 121°23'619505.2
2014-Nov-27 07:32N 31°59' E 120°21'22222.4
2014-Nov-27 07:26N 32°01' E 120°47'440105681.2
2014-Nov-27 07:26N 24°50' E 119°04'3351703.4
2014-Nov-27 07:14N 22°45' E 113°24'103349.3
2014-Nov-27 07:14N 22°53' E 113°31'9631430.9
2014-Nov-27 06:33N 36°53' E 122°35'31823813.6
2014-Nov-27 06:32N 31°47' E 120°55'3021385.2
2014-Nov-27 06:32N 31°29' E 121°23'614968.9
2014-Nov-27 06:32N 31°59' E 120°21'682456.1
2014-Nov-27 06:30N 31°21' E 121°27'521493.0
2014-Nov-27 06:28N 32°01' E 120°47'1729840.7
2014-Nov-27 06:28N 32°04' E 120°28'6735794.9
2014-Nov-27 06:21N 22°48' E 113°21'11282.3
2014-Nov-27 06:19N 22°53' E 113°31'666864.7
2014-Nov-27 05:32N 31°29' E 121°23'445498.1
2014-Nov-27 05:32N 32°01' E 120°47'548899.6
2014-Nov-27 05:32N 31°21' E 121°31'7050525.6
2014-Nov-27 05:31N 31°59' E 120°21'31220446.4
2014-Nov-27 05:31N 36°53' E 122°28'33557491.7
2014-Nov-27 05:30N 31°21' E 121°27'37509.2
2014-Nov-27 05:26N 31°47' E 120°55'66433212.8
2014-Nov-27 05:25N 22°54' E 113°28'1698.8
2014-Nov-27 05:15N 23°07' E 113°38'64911174.5
2014-Nov-27 05:12N 32°04' E 120°28'812.8
2014-Nov-27 04:33N 31°59' E 120°21'8734.0
2014-Nov-27 04:33N 32°04' E 120°28'661559.9
2014-Nov-27 04:30N 31°25' E 121°30'519216.2
2014-Nov-27 04:30N 32°01' E 120°47'43792638.0
2014-Nov-27 04:30N 24°52' E 119°07'414248694.9
2014-Nov-27 04:29N 31°29' E 121°23'433130043.6
2014-Nov-27 04:29N 38°43' E 121°36'41730655.3
2014-Nov-27 04:28N 31°47' E 120°55'6642268.0
2014-Nov-27 04:11N 22°51' E 113°34'6625307.0
2014-Nov-27 04:03N 31°21' E 121°27'68134.1
2014-Nov-27 03:33N 31°59' E 120°21'228946.3
2014-Nov-27 03:33N 32°01' E 120°47'444981.2
2014-Nov-27 03:33N 31°29' E 121°23'42829063.0
2014-Nov-27 03:32N 24°42' E 118°56'43823881.5
2014-Nov-27 03:31N 31°47' E 120°55'4266500.3
2014-Nov-27 03:27N 24°51' E 119°08'4092999.7
2014-Nov-27 03:18N 31°21' E 121°27'66409.6
2014-Nov-27 03:09N 32°04' E 120°28'402679.9
2014-Nov-27 02:33N 38°43' E 121°31'40873522.9
2014-Nov-27 02:33N 31°59' E 120°21'222609.0
2014-Nov-27 02:32N 32°01' E 120°47'169562.0
2014-Nov-27 02:32N 31°47' E 120°55'656157463.0
2014-Nov-27 02:32N 23°03' E 113°31'65998849.7
2014-Nov-27 02:32N 31°29' E 121°25'8450.1
2014-Nov-27 02:31N 31°21' E 121°27'21402.7
2014-Nov-27 02:27N 31°00' E 121°26'3962671.2
2014-Nov-27 02:18N 24°43' E 119°08'329438.2
2014-Nov-27 01:33N 23°04' E 113°25'65049764.7
2014-Nov-27 01:33N 31°59' E 120°21'623887.3
2014-Nov-27 01:32N 31°29' E 121°25'66759989.1
2014-Nov-27 01:31N 22°51' E 113°34'32913776.0
2014-Nov-27 01:30N 24°52' E 119°08'42558869.2
2014-Nov-27 01:29N 31°47' E 120°55'1619117.4
2014-Nov-27 01:29N 32°01' E 120°47'391883.0
2014-Nov-27 01:28N 31°58' E 120°02'82785.8
2014-Nov-27 01:22N 31°21' E 121°27'66532.3
2014-Nov-27 01:14N 32°04' E 120°28'6645012.4
2014-Nov-27 01:06N 22°51' E 113°34'6561199.4
2014-Nov-27 00:33N 31°59' E 120°21'323258.4
2014-Nov-27 00:33N 31°47' E 120°55'422776.1
2014-Nov-27 00:32N 31°57' E 120°08'7123187.3
2014-Nov-27 00:32N 31°29' E 121°25'66749006.1
2014-Nov-27 00:31N 22°54' E 113°28'662132486.5
2014-Nov-27 00:31N 31°21' E 121°27'22279.6
2014-Nov-27 00:26N 30°60' E 121°23'69500.3
2014-Nov-27 00:18N 32°01' E 120°47'2230.4
2014-Nov-26 23:33N 31°59' E 120°21'321440.9
2014-Nov-26 23:32N 31°47' E 120°55'301136.1
2014-Nov-26 23:30N 31°29' E 121°25'602747.6
2014-Nov-26 23:29N 32°04' E 120°28'66434159.3
2014-Nov-26 23:28N 22°51' E 113°34'65320792.0
2014-Nov-26 23:26N 31°57' E 120°16'27150.3
2014-Nov-26 23:15N 32°01' E 120°47'4564.1
2014-Nov-26 22:33N 31°29' E 121°25'6110542.1
2014-Nov-26 22:33N 31°59' E 120°21'65728503.3
2014-Nov-26 22:32N 22°55' E 113°25'66515255.4
2014-Nov-26 22:29N 32°04' E 120°28'61472.5
2014-Nov-26 22:29N 32°01' E 120°22'31132.9
2014-Nov-26 22:15N 31°47' E 120°55'16329.3
2014-Nov-26 22:12N 32°01' E 120°47'1725.8
2014-Nov-26 21:33N 32°04' E 120°28'81108.3
2014-Nov-26 21:33N 31°59' E 120°21'3116179.0
2014-Nov-26 21:33N 31°47' E 120°55'30794.6
2014-Nov-26 21:31N 31°30' E 121°25'59883.6
2014-Nov-26 21:27N 32°04' E 120°28'17377.5
2014-Nov-26 21:24N 32°01' E 120°47'68319658.6
2014-Nov-26 21:22N 22°27' E 113°53'683845.3
2014-Nov-26 20:33N 32°01' E 120°47'10463.7
2014-Nov-26 20:32N 32°01' E 120°35'124036.0
2014-Nov-26 20:32N 31°59' E 120°21'613156.4
2014-Nov-26 20:31N 31°30' E 121°25'30111.1
2014-Nov-26 20:14N 31°47' E 120°55'3145.1
2014-Nov-26 19:32N 31°59' E 120°21'66025545.9
2014-Nov-26 19:31N 22°43' E 113°40'669200828.5
2014-Nov-26 19:31N 31°30' E 121°25'4510049.9
2014-Nov-26 19:30N 32°01' E 120°47'158823.0
2014-Nov-26 19:19N 29°42' E 122°13'142101943.0
2014-Nov-26 19:19N 31°47' E 120°55'17186.5
2014-Nov-26 19:13N 32°01' E 120°45'169247.1
2014-Nov-26 18:32N 29°35' E 122°25'179107350.9
2014-Nov-26 18:32N 31°59' E 120°21'612482.7
2014-Nov-26 18:31N 31°30' E 121°25'301650.0
2014-Nov-26 18:30N 31°47' E 120°55'4733788.7
2014-Nov-26 18:30N 31°26' E 121°45'67630402.6
2014-Nov-26 18:28N 22°49' E 113°36'6724052.1
2014-Nov-26 18:18N 32°01' E 120°48'1701884.0
2014-Nov-26 18:13N 29°33' E 122°25'154235.1
2014-Nov-26 17:33N 31°47' E 120°55'153785.2
2014-Nov-26 17:33N 31°60' E 120°48'6533676.6
2014-Nov-26 17:33N 31°18' E 121°47'66963403.4
2014-Nov-26 17:33N 22°54' E 113°34'669120462.2
2014-Nov-26 17:32N 32°01' E 120°48'2320373.1
2014-Nov-26 17:32N 31°59' E 120°21'1757505.3
2014-Nov-26 17:31N 29°37' E 122°21'12314716.4
2014-Nov-26 17:30N 31°30' E 121°25'6611528.1
2014-Nov-26 17:04N 22°56' E 113°36'5 9.2
2014-Nov-26 16:34N 22°58' E 113°32'66668476.7
2014-Nov-26 16:33N 31°60' E 120°48'11114.9
2014-Nov-26 16:33N 32°01' E 120°47'158568548.0
2014-Nov-26 16:33N 29°42' E 122°14'14239333.8
2014-Nov-26 16:33N 31°47' E 120°56'322216.5
2014-Nov-26 16:32N 31°59' E 120°21'8734715.7
2014-Nov-26 16:32N 31°14' E 121°48'9422629.0
2014-Nov-26 16:31N 29°42' E 122°13'11512983.4
2014-Nov-26 16:31N 31°30' E 121°25'66616079.4
2014-Nov-26 16:28N 22°52' E 113°34'30158.5
2014-Nov-26 16:17N 22°27' E 113°53'4156.0
2014-Nov-26 15:34N 23°02' E 113°31'664298602.1
2014-Nov-26 15:33N 32°01' E 120°47'7915782.4
2014-Nov-26 15:33N 31°08' E 121°56'705443.2
2014-Nov-26 15:32N 31°52' E 120°53'91173.2
2014-Nov-26 15:32N 31°60' E 120°48'235493.3
2014-Nov-26 15:32N 31°59' E 120°21'615145.9
2014-Nov-26 15:31N 31°29' E 121°25'4546.3
2014-Nov-26 14:33N 32°01' E 120°47'1293.2
2014-Nov-26 14:33N 31°60' E 120°48'35869.6
2014-Nov-26 14:33N 31°58' E 120°51'664477828.5
2014-Nov-26 14:33N 23°04' E 113°26'64936488.4
2014-Nov-26 14:31N 31°59' E 120°21'627143.1
2014-Nov-26 14:31N 31°29' E 121°25'7011787.8
2014-Nov-26 14:07N 22°09' E 113°33'7071240.2
2014-Nov-26 13:33N 31°60' E 120°48'668114493.4
2014-Nov-26 13:33N 23°03' E 113°20'66980223.3
2014-Nov-26 13:32N 32°01' E 120°47'2790.5
2014-Nov-26 13:32N 32°00' E 120°46'211450.2
2014-Nov-26 13:31N 31°59' E 120°21'6210070.8
2014-Nov-26 13:31N 31°29' E 121°25'6772908.8
2014-Nov-26 13:17N 22°29' E 113°47'683935.9
2014-Nov-26 12:33N 32°01' E 120°47'67223729.0
2014-Nov-26 12:32N 23°03' E 113°13'66758569.3
2014-Nov-26 12:31N 31°60' E 120°39'4910376.6
2014-Nov-26 12:31N 31°29' E 121°25'629237.1
2014-Nov-26 12:30N 31°59' E 120°21'23108.2
2014-Nov-26 12:17N 31°60' E 120°48'1115.0
2014-Nov-26 11:33N 32°01' E 120°35'12381.4
2014-Nov-26 11:31N 31°59' E 120°21'222989.5
2014-Nov-26 11:31N 32°01' E 120°47'4532288.5
2014-Nov-26 11:31N 31°29' E 121°25'44705.9
2014-Nov-26 11:27N 31°60' E 120°48'67515092.1
2014-Nov-26 11:24N 23°01' E 113°10'541260.9
2014-Nov-26 11:22N 22°10' E 113°32'701874.1
2014-Nov-26 10:33N 32°03' E 120°32'66652123.0
2014-Nov-26 10:33N 22°55' E 113°27'65622720.1
2014-Nov-26 10:31N 31°59' E 120°21'6211657.8
2014-Nov-26 10:31N 31°29' E 121°25'451508.7
2014-Nov-26 10:29N 32°01' E 120°47'138.6
2014-Nov-26 10:27N 31°60' E 120°48'176999.0
2014-Nov-26 10:27N 32°04' E 120°28'792233.8
2014-Nov-26 10:25N 30°58' E 121°18'3 3.3
2014-Nov-26 09:33N 30°58' E 121°15'772849.4
2014-Nov-26 09:32N 32°04' E 120°30'9601.4
2014-Nov-26 09:31N 31°59' E 120°21'6122108.0
2014-Nov-26 09:31N 31°30' E 121°25'67912223.3
2014-Nov-26 09:27N 22°27' E 113°46'66246731.3
2014-Nov-26 09:27N 31°60' E 119°59'2591.5
2014-Nov-26 09:10N 32°04' E 120°28'17518.8
2014-Nov-26 09:09N 32°01' E 120°47'1485061.4
2014-Nov-26 09:07N 29°55' E 122°18'160287.2
2014-Nov-26 08:33N 32°04' E 120°27'373819.9
2014-Nov-26 08:33N 31°47' E 121°06'523398.0
2014-Nov-26 08:32N 31°57' E 120°06'13339.0
2014-Nov-26 08:30N 31°59' E 120°21'69260794.4
2014-Nov-26 08:29N 22°10' E 113°31'70135538.6
2014-Nov-26 08:28N 31°30' E 121°25'6597934.2
2014-Nov-26 08:23N 23°03' E 113°30'651788.3
2014-Nov-26 07:33N 32°01' E 120°24'121832.0
2014-Nov-26 07:33N 31°56' E 120°11'682017.4
2014-Nov-26 07:31N 31°30' E 121°25'6115783.5
2014-Nov-26 07:31N 31°59' E 120°21'23169.2
2014-Nov-26 07:23N 32°00' E 120°48'66244131.2
2014-Nov-26 07:22N 23°04' E 113°30'639797.5
2014-Nov-26 06:34N 31°58' E 120°06'135788.6
2014-Nov-26 06:33N 31°59' E 120°21'62485.3
2014-Nov-26 06:33N 31°56' E 120°15'651648.1
2014-Nov-26 06:31N 31°30' E 121°25'7034226.8
2014-Nov-26 06:21N 22°21' E 113°11'47246.8
2014-Nov-26 06:10N 23°04' E 113°30'6471070.2
2014-Nov-26 05:33N 31°59' E 120°21'21256.8
2014-Nov-26 05:33N 31°58' E 120°18'6485.7
2014-Nov-26 05:32N 31°57' E 120°12'190.7
2014-Nov-26 05:32N 31°56' E 120°12'675343.6
2014-Nov-26 05:31N 31°30' E 121°25'66479690.7
2014-Nov-26 05:30N 23°02' E 113°23'746.0
2014-Nov-26 05:22N 23°04' E 113°30'644802.3
2014-Nov-26 04:33N 31°57' E 120°17'650334079.7
2014-Nov-26 04:33N 23°02' E 113°22'653587428.0
2014-Nov-26 04:33N 31°59' E 120°21'13190.4
2014-Nov-26 04:33N 31°58' E 120°22'64893242.4
2014-Nov-26 04:33N 23°04' E 113°29'65922164.8
2014-Nov-26 04:31N 31°29' E 121°25'66918965.0
2014-Nov-26 04:29N 22°54' E 113°24'17231.3
2014-Nov-26 04:25N 22°44' E 113°10'66411118.1
2014-Nov-26 04:21N 31°57' E 120°04'6384536.4
2014-Nov-26 04:13N 23°04' E 113°30'648990.4
2014-Nov-26 03:33N 31°58' E 120°24'6571183091.0
2014-Nov-26 03:33N 22°55' E 113°27'658169152.0
2014-Nov-26 03:33N 32°00' E 120°22'21382.9
2014-Nov-26 03:33N 31°59' E 120°21'655589840.4
2014-Nov-26 03:33N 22°54' E 113°31'1018822.4
2014-Nov-26 03:33N 23°04' E 113°29'502909.7
2014-Nov-26 03:32N 22°14' E 113°36'69528115.5
2014-Nov-26 03:30N 31°29' E 121°25'6596911.4
2014-Nov-26 03:25N 23°04' E 113°30'1649.8
2014-Nov-26 03:06N 22°54' E 113°16'1527.0
2014-Nov-26 02:33N 23°00' E 113°31'4735.9
2014-Nov-26 02:33N 23°04' E 113°29'653470003.6
2014-Nov-26 02:33N 32°02' E 120°26'4290.9
2014-Nov-26 02:32N 31°58' E 120°24'594441.5
2014-Nov-26 02:31N 31°29' E 121°25'69317087.9
2014-Nov-26 02:29N 22°17' E 113°35'699125819.4
2014-Nov-26 02:28N 32°01' E 120°47'6622119.9
2014-Nov-26 02:10N 23°04' E 113°30'141.6
2014-Nov-26 02:09N 23°04' E 113°29'13561.1
2014-Nov-26 02:07N 23°03' E 113°15'6571161.7
2014-Nov-26 01:33N 31°58' E 120°24'82791.6
2014-Nov-26 01:33N 32°02' E 120°32'656589983.4
2014-Nov-26 01:33N 23°04' E 113°29'013.3
2014-Nov-26 01:33N 23°04' E 113°29'0166.5
2014-Nov-26 01:33N 23°04' E 113°29'65924450.7
2014-Nov-26 01:31N 31°29' E 121°25'622433.6
2014-Nov-26 01:30N 31°59' E 120°21'3143571.5
2014-Nov-26 01:24N 26°46' E 119°43'4052062.1
2014-Nov-26 01:13N 23°04' E 113°30'39642.6
2014-Nov-26 01:09N 22°28' E 113°47'6791140.1
2014-Nov-26 00:33N 32°00' E 120°37'6572365807.9
2014-Nov-26 00:33N 23°04' E 113°29'040.2
2014-Nov-26 00:33N 23°04' E 113°29'0120.5
2014-Nov-26 00:33N 23°04' E 113°30'648259286.5
2014-Nov-26 00:33N 31°58' E 120°24'2586.1
2014-Nov-26 00:32N 31°59' E 120°21'622916.0
2014-Nov-26 00:31N 31°29' E 121°25'67419102.8
2014-Nov-26 00:29N 22°30' E 113°51'65915207.0
2014-Nov-26 00:26N 32°03' E 119°57'6404410.6
2014-Nov-26 00:18N 23°04' E 113°29'0 0.5
2014-Nov-25 23:33N 23°04' E 113°29'64880493.2
2014-Nov-25 23:33N 31°58' E 120°24'2308.8
2014-Nov-25 23:32N 31°59' E 120°21'409368499.8
2014-Nov-25 23:32N 38°44' E 121°30'4051456538.2
2014-Nov-25 23:32N 32°01' E 120°47'452937.0
2014-Nov-25 23:31N 31°29' E 121°25'65910400.3
2014-Nov-25 23:27N 23°04' E 113°29'0 5.5
2014-Nov-25 23:22N 23°04' E 113°29'0 0.2
2014-Nov-25 23:21N 23°04' E 113°29'66116529.3
2014-Nov-25 23:18N 32°01' E 120°44'370493.1
2014-Nov-25 22:33N 25°58' E 119°24'366101408.2
2014-Nov-25 22:33N 23°04' E 113°29'64835912.9
2014-Nov-25 22:32N 31°58' E 120°24'21462.5
2014-Nov-25 22:32N 31°59' E 120°21'625035.9
2014-Nov-25 22:31N 31°29' E 121°25'6599963.7
2014-Nov-25 22:27N 23°04' E 113°29'113.5
2014-Nov-25 22:24N 23°04' E 113°30'081.1
2014-Nov-25 22:24N 23°04' E 113°29'0 0.1
2014-Nov-25 21:33N 23°04' E 113°29'64839564.8
2014-Nov-25 21:32N 31°58' E 120°24'36381730.9
2014-Nov-25 21:32N 25°58' E 119°25'363145351.7
2014-Nov-25 21:32N 31°59' E 120°21'628863.6
2014-Nov-25 21:31N 31°29' E 121°25'6599758.8
2014-Nov-25 21:27N 23°04' E 113°29'0 8.5
2014-Nov-25 21:24N 23°04' E 113°29'6636183.0
2014-Nov-25 21:17N 32°02' E 120°47'431517.1
2014-Nov-25 21:16N 32°03' E 119°57'63910856.6
2014-Nov-25 21:12N 23°04' E 113°30'647996.6
2014-Nov-25 20:33N 31°59' E 120°21'647776634.5
2014-Nov-25 20:33N 23°04' E 113°30'055.1
2014-Nov-25 20:33N 23°04' E 113°29'65927900.1
2014-Nov-25 20:31N 31°29' E 121°25'6589117.6
2014-Nov-25 20:27N 23°04' E 113°30'6577465.2
2014-Nov-25 20:22N 31°47' E 120°58'35811407.0
2014-Nov-25 20:20N 25°58' E 119°25'3681329.0
2014-Nov-25 20:03N 23°04' E 113°29'6481297.3
2014-Nov-25 19:33N 31°58' E 120°24'648333347.6
2014-Nov-25 19:33N 23°04' E 113°30'647388326.0
2014-Nov-25 19:33N 31°59' E 120°21'402651.7
2014-Nov-25 19:32N 31°45' E 121°05'35875763.8
2014-Nov-25 19:32N 25°58' E 119°25'34748060.3
2014-Nov-25 19:32N 31°29' E 121°25'6655453.8
2014-Nov-25 19:24N 22°53' E 113°34'1221975.3
2014-Nov-25 19:24N 23°04' E 113°30'067.1
2014-Nov-25 19:24N 23°04' E 113°29'172.6
2014-Nov-25 19:23N 23°04' E 113°29'647770.7
2014-Nov-25 18:33N 31°59' E 120°21'647332982.4
2014-Nov-25 18:33N 23°04' E 113°29'648466871.4
2014-Nov-25 18:33N 31°58' E 120°24'36325151.3
2014-Nov-25 18:32N 25°58' E 119°25'368330913.5
2014-Nov-25 18:32N 23°04' E 113°30'659124769.7
2014-Nov-25 18:32N 31°29' E 121°25'152937.0
2014-Nov-25 18:31N 31°40' E 121°13'665113947.7
2014-Nov-25 18:31N 23°02' E 113°24'690.7
2014-Nov-25 18:27N 23°04' E 113°30'6632891.8
2014-Nov-25 18:13N 32°01' E 120°47'2029.8
2014-Nov-25 17:33N 31°58' E 120°24'648583358.3
2014-Nov-25 17:33N 23°04' E 113°30'6591186776.5
2014-Nov-25 17:33N 31°35' E 121°19'5415088.9
2014-Nov-25 17:33N 31°59' E 120°21'36321809.0
2014-Nov-25 17:32N 25°58' E 119°25'37011384.7
2014-Nov-25 17:30N 32°01' E 120°47'451988.3
2014-Nov-25 17:29N 31°29' E 121°25'6598263.5
2014-Nov-25 17:24N 23°04' E 113°29'0 2.7
2014-Nov-25 17:15N 23°04' E 113°30'648933.8
2014-Nov-25 16:33N 31°58' E 120°24'64864843.2
2014-Nov-25 16:33N 23°04' E 113°29'065.0
2014-Nov-25 16:33N 23°04' E 113°30'64730657.1
2014-Nov-25 16:31N 31°59' E 120°21'619214.4
2014-Nov-25 16:31N 31°30' E 121°25'3484248.8
2014-Nov-25 16:26N 25°58' E 119°25'34714362.6
2014-Nov-25 16:25N 31°29' E 121°25'65898772.0
2014-Nov-25 16:24N 23°04' E 113°30'64113259.2
2014-Nov-25 16:21N 31°56' E 120°12'30138.6
2014-Nov-25 16:08N 32°02' E 120°47'2237.5
2014-Nov-25 15:33N 31°59' E 120°21'6472330841.0
2014-Nov-25 15:33N 23°04' E 113°29'0617.8
2014-Nov-25 15:33N 23°04' E 113°30'659107856.1
2014-Nov-25 15:33N 31°26' E 121°30'657745.8
2014-Nov-25 15:32N 31°58' E 120°24'5914214.8
2014-Nov-25 15:32N 31°29' E 121°25'698862.4
2014-Nov-25 15:31N 31°56' E 120°10'6409173.1
2014-Nov-25 15:27N 23°04' E 113°30'6632067.4
2014-Nov-25 15:08N 32°02' E 120°47'6631140.7
2014-Nov-25 14:33N 23°04' E 113°30'0645.9
2014-Nov-25 14:33N 23°04' E 113°29'647211893.0
2014-Nov-25 14:33N 31°59' E 120°21'6927433.0
2014-Nov-25 14:33N 31°25' E 121°32'81292823.3
2014-Nov-25 14:33N 31°57' E 120°04'171706.5
2014-Nov-25 14:32N 31°58' E 120°24'5917766.7
2014-Nov-25 14:32N 31°29' E 121°25'45396.9
2014-Nov-25 14:25N 32°02' E 120°47'66350760.2
2014-Nov-25 14:24N 23°04' E 113°30'6522863.5
2014-Nov-25 14:11N 31°20' E 121°25'84135.4
2014-Nov-25 13:34N 31°60' E 119°59'865535.2
2014-Nov-25 13:33N 31°25' E 121°32'6614037.9
2014-Nov-25 13:32N 31°58' E 120°24'6552358534.9
2014-Nov-25 13:32N 22°55' E 113°30'65433643.6
2014-Nov-25 13:31N 31°59' E 120°21'6812265.4
2014-Nov-25 13:31N 31°22' E 121°28'82679.1
2014-Nov-25 13:31N 31°29' E 121°25'6594061.1
2014-Nov-25 13:21N 23°04' E 113°29'0 3.6
2014-Nov-25 13:15N 23°04' E 113°30'66348688.8
2014-Nov-25 13:14N 32°02' E 120°47'153223.8
2014-Nov-25 12:33N 29°52' E 122°22'62766423.2
2014-Nov-25 12:33N 23°04' E 113°29'647145673.3
2014-Nov-25 12:33N 31°59' E 120°21'2573.0
2014-Nov-25 12:32N 31°58' E 120°24'592030.5
2014-Nov-25 12:31N 31°29' E 121°25'7127.8
2014-Nov-25 12:27N 31°25' E 121°32'522329.5
2014-Nov-25 12:26N 32°02' E 120°47'66323621.3
2014-Nov-25 12:24N 23°04' E 113°30'720.9
2014-Nov-25 12:05N 22°58' E 113°32'6521242.8
2014-Nov-25 11:34N 31°58' E 120°24'2151.5
2014-Nov-25 11:33N 31°59' E 120°21'6215836.4
2014-Nov-25 11:32N 31°29' E 121°25'6597798.5
2014-Nov-25 11:27N 23°04' E 113°30'0 6.3
2014-Nov-25 11:24N 23°04' E 113°29'65061533.2
2014-Nov-25 11:23N 31°13' E 121°30'7386.8
2014-Nov-25 10:33N 31°58' E 120°24'6621695.0
2014-Nov-25 10:33N 31°25' E 121°32'66499559.9
2014-Nov-25 10:33N 23°02' E 113°24'65122979.5
2014-Nov-25 10:31N 31°59' E 120°21'622131.9
2014-Nov-25 10:29N 31°29' E 121°25'5963.9
2014-Nov-25 09:34N 31°58' E 120°24'664870.1
2014-Nov-25 09:33N 31°25' E 121°32'698521.9
2014-Nov-25 09:32N 31°59' E 120°21'62110865.3
2014-Nov-25 09:32N 31°29' E 121°25'6594772.0
2014-Nov-25 09:24N 23°04' E 113°29'6152870.8
2014-Nov-25 09:11N 29°43' E 122°12'1821819.8
2014-Nov-25 09:05N 32°04' E 119°57'2444.8
2014-Nov-25 08:33N 31°58' E 120°24'64875301.2
2014-Nov-25 08:33N 23°04' E 113°29'65962407.7
2014-Nov-25 08:32N 31°29' E 121°25'6215817.7
2014-Nov-25 08:32N 31°59' E 120°21'694968.8
2014-Nov-25 08:31N 31°24' E 121°31'6971.5
2014-Nov-25 07:33N 31°59' E 120°21'22872.4
2014-Nov-25 07:33N 31°58' E 120°24'6578580.0
2014-Nov-25 07:33N 31°21' E 121°27'8129.3
2014-Nov-25 07:29N 31°29' E 121°25'82286.5
2014-Nov-25 07:12N 32°03' E 119°57'640328914.6
2014-Nov-25 07:12N 23°04' E 113°29'6481010.1
2014-Nov-25 06:33N 31°58' E 120°24'2539.4
2014-Nov-25 06:33N 31°59' E 120°21'6881266.2
2014-Nov-25 06:33N 31°21' E 121°27'7466920.4
2014-Nov-25 06:33N 31°57' E 120°11'695484.0
2014-Nov-25 06:32N 31°29' E 121°25'66829687.3
2014-Nov-25 06:31N 23°03' E 113°14'6468046.8
2014-Nov-25 06:26N 31°58' E 120°02'63817268.9
2014-Nov-25 06:24N 23°04' E 113°29'3682889.2
2014-Nov-25 06:16N 25°58' E 119°26'7748841.7
2014-Nov-25 06:11N 38°44' E 121°31'443704.2
2014-Nov-25 05:33N 31°21' E 121°27'6612377887.9
2014-Nov-25 05:33N 23°02' E 113°21'653180826.8
2014-Nov-25 05:33N 31°59' E 120°21'1283.3
2014-Nov-25 05:33N 31°58' E 120°22'647332996.5
2014-Nov-25 05:33N 23°04' E 113°29'65981782.2
2014-Nov-25 05:32N 31°29' E 121°25'6755249.4
2014-Nov-25 05:25N 22°27' E 113°53'3701087.9
2014-Nov-25 05:04N 25°58' E 119°26'341663.2
2014-Nov-25 04:33N 31°21' E 121°27'655294597.8
2014-Nov-25 04:33N 23°04' E 113°28'65944759.3
2014-Nov-25 04:32N 31°29' E 121°25'613877.7
2014-Nov-25 04:31N 31°59' E 120°21'8057255.7
2014-Nov-25 04:31N 30°59' E 121°23'795924.4
2014-Nov-25 04:31N 31°58' E 120°22'668240601.2
2014-Nov-25 04:30N 22°26' E 113°53'37010251.1
2014-Nov-25 04:28N 25°58' E 119°26'36140633.0
2014-Nov-25 04:28N 31°57' E 120°10'6409853.4
2014-Nov-25 04:24N 23°04' E 113°29'11104.1
2014-Nov-25 04:18N 22°55' E 113°36'652885.9
2014-Nov-25 03:33N 31°58' E 120°22'651106603.6
2014-Nov-25 03:33N 22°57' E 113°32'651781739.0
2014-Nov-25 03:33N 31°59' E 120°21'6881262.3
2014-Nov-25 03:33N 31°21' E 121°27'81116.1
2014-Nov-25 03:32N 31°29' E 121°25'6616961.9
2014-Nov-25 03:32N 31°57' E 120°14'6424587.2
2014-Nov-25 03:24N 23°04' E 113°29'36814107.6
2014-Nov-25 03:22N 25°58' E 119°26'3474905.9
2014-Nov-25 03:18N 31°30' E 121°22'8214072.2
2014-Nov-25 03:18N 32°05' E 119°55'25823.6
2014-Nov-25 03:16N 32°02' E 120°25'5577.8
2014-Nov-25 02:33N 31°33' E 121°19'565905.1
2014-Nov-25 02:33N 31°59' E 120°21'3962.1
2014-Nov-25 02:33N 31°58' E 120°18'312011.8
2014-Nov-25 02:33N 31°58' E 120°22'61219383.8
2014-Nov-25 02:33N 31°29' E 121°25'85006.5
2014-Nov-25 02:33N 31°21' E 121°27'56397.4
2014-Nov-25 02:24N 31°60' E 120°39'66624470.1
2014-Nov-25 02:22N 22°49' E 113°36'370121234.3
2014-Nov-25 02:22N 25°58' E 119°26'4014387.1
2014-Nov-25 02:17N 22°30' E 113°10'7004190.7
2014-Nov-25 02:07N 31°60' E 120°47'1222.3
2014-Nov-25 01:34N 32°01' E 120°32'4221473.2
2014-Nov-25 01:33N 31°39' E 121°13'4814502.2
2014-Nov-25 01:33N 31°58' E 120°21'615927.8
2014-Nov-25 01:33N 31°29' E 121°25'8517.2
2014-Nov-25 01:32N 31°21' E 121°27'6812193.5
2014-Nov-25 01:31N 31°59' E 120°21'65910271.9
2014-Nov-25 01:27N 22°44' E 113°40'23384.1
2014-Nov-25 01:24N 23°04' E 113°29'36813394.2
2014-Nov-25 01:22N 25°58' E 119°26'40148112.4
2014-Nov-25 01:22N 22°30' E 113°10'3521772.3
2014-Nov-25 01:10N 24°39' E 119°07'421693.5
2014-Nov-25 00:33N 31°21' E 121°27'296548.2
2014-Nov-25 00:33N 31°44' E 121°06'43587044.0
2014-Nov-25 00:33N 24°41' E 119°08'426102121.0
2014-Nov-25 00:33N 31°29' E 121°25'3484686.6
2014-Nov-25 00:28N 25°58' E 119°26'3682049.4
2014-Nov-25 00:17N 23°04' E 113°29'10286084.5
2014-Nov-25 00:07N 38°44' E 121°33'10271816.6
2014-Nov-24 23:33N 23°04' E 113°30'657591045.0
2014-Nov-24 23:33N 31°47' E 120°58'292860.9
2014-Nov-24 23:33N 31°29' E 121°25'67326917.6
2014-Nov-24 23:31N 22°34' E 113°47'1049198748.7
2014-Nov-24 23:31N 38°44' E 121°31'443531217.6
2014-Nov-24 23:31N 31°21' E 121°27'2014758.7
2014-Nov-24 23:31N 31°08' E 121°10'35089930.4
2014-Nov-24 23:30N 36°51' E 122°29'6724847.6
2014-Nov-24 23:22N 25°58' E 119°26'368452.1
2014-Nov-24 22:33N 23°04' E 113°30'654235515.7
2014-Nov-24 22:33N 31°21' E 121°27'34039503.5
2014-Nov-24 22:33N 25°58' E 119°27'67525066.3
2014-Nov-24 22:31N 36°56' E 122°28'33015054.6
2014-Nov-24 22:30N 31°29' E 121°25'36220.9
2014-Nov-24 22:20N 31°53' E 120°53'4356.2
2014-Nov-24 21:33N 31°21' E 121°27'654261684.1
2014-Nov-24 21:33N 23°04' E 113°30'65969725.2
2014-Nov-24 21:33N 31°29' E 121°25'55639.4
2014-Nov-24 21:28N 32°01' E 120°32'1541.4
2014-Nov-24 21:06N 31°60' E 120°49'5091.0
2014-Nov-24 20:33N 31°21' E 121°27'8147.8
2014-Nov-24 20:30N 31°29' E 121°25'6587183.4
2014-Nov-24 20:24N 23°04' E 113°30'6543574.6
2014-Nov-24 20:13N 32°01' E 120°32'6190.0
2014-Nov-24 19:32N 31°21' E 121°27'8200.0
2014-Nov-24 19:30N 31°29' E 121°25'67830499.8
2014-Nov-24 19:29N 22°29' E 113°46'68325076.7
2014-Nov-24 19:27N 31°60' E 120°46'6612723.4
2014-Nov-24 19:12N 23°04' E 113°30'6541012.1
2014-Nov-24 18:34N 31°21' E 121°27'654181165.9
2014-Nov-24 18:33N 23°04' E 113°30'65894822.3
2014-Nov-24 18:33N 31°29' E 121°25'204064.0
2014-Nov-24 18:33N 31°44' E 121°07'6804278.9
2014-Nov-24 18:23N 22°29' E 113°46'3946.4
2014-Nov-24 17:33N 23°04' E 113°30'659107757.0
2014-Nov-24 17:33N 31°29' E 121°25'8283.9
2014-Nov-24 17:31N 31°21' E 121°27'6721522.6
2014-Nov-24 17:05N 22°24' E 113°54'6771283.1
2014-Nov-24 16:33N 31°29' E 121°25'82333.9
2014-Nov-24 16:33N 31°21' E 121°27'6683158.8
2014-Nov-24 16:20N 22°32' E 113°51'38211.6
2014-Nov-24 16:09N 23°04' E 113°30'0 0.0
2014-Nov-24 15:33N 23°04' E 113°30'659148168.2
2014-Nov-24 15:33N 31°29' E 121°25'828961.1
2014-Nov-24 15:33N 31°21' E 121°27'668114470.4
2014-Nov-24 15:33N 22°32' E 113°51'375771.9
2014-Nov-24 15:04N 26°04' E 119°31'334662.6
2014-Nov-24 14:33N 31°22' E 121°28'4795.5
2014-Nov-24 14:33N 31°26' E 121°30'6697790.7
2014-Nov-24 14:28N 22°55' E 113°25'10104.1
2014-Nov-24 14:22N 23°04' E 113°30'657805.0
2014-Nov-24 13:33N 31°23' E 121°30'217.6
2014-Nov-24 13:26N 31°22' E 121°28'65524545.3
2014-Nov-24 13:24N 23°04' E 113°30'655768.6
2014-Nov-24 12:33N 31°18' E 121°34'6460.3
2014-Nov-24 12:32N 31°22' E 121°28'8 8.0
2014-Nov-24 11:33N 31°14' E 121°30'1901.1
2014-Nov-24 11:33N 31°15' E 121°30'7279.3
2014-Nov-24 11:32N 31°22' E 121°28'6605190.3
2014-Nov-24 11:24N 22°53' E 113°34'3211624.3
2014-Nov-24 11:24N 22°30' E 113°10'39205.4
2014-Nov-24 11:13N 23°04' E 113°30'5076.0
2014-Nov-24 10:33N 22°15' E 113°36'690248465.2
2014-Nov-24 10:33N 31°22' E 121°28'656472122.2
2014-Nov-24 10:33N 23°02' E 113°31'64686078.0
2014-Nov-24 10:33N 31°08' E 121°28'34232435.5
2014-Nov-24 10:32N 36°47' E 122°30'9586595.1
2014-Nov-24 10:23N 22°54' E 113°22'1265.4
2014-Nov-24 10:12N 23°04' E 113°30'3734732.1
2014-Nov-24 10:08N 25°45' E 119°39'332583.9
2014-Nov-24 09:34N 31°03' E 121°29'6506551.3
2014-Nov-24 09:28N 22°55' E 113°28'66315600.7
2014-Nov-24 09:25N 31°22' E 121°28'65558905.3
2014-Nov-24 09:24N 23°04' E 113°30'655757.1
2014-Nov-24 08:32N 31°22' E 121°28'19816.2
2014-Nov-24 08:31N 31°03' E 121°28'21208.1
2014-Nov-24 08:25N 30°50' E 121°48'64410725.2
2014-Nov-24 08:21N 23°04' E 113°30'1178.6
2014-Nov-24 08:13N 23°03' E 113°18'5247103.6
2014-Nov-24 08:13N 22°14' E 113°35'99030211.4
2014-Nov-24 08:11N 36°48' E 122°29'6 8.9
2014-Nov-24 07:32N 36°54' E 122°28'35447234.1
2014-Nov-24 07:31N 31°03' E 121°28'191365.5
2014-Nov-24 07:30N 31°22' E 121°28'6554429.0
2014-Nov-24 07:21N 23°04' E 113°30'336.6
2014-Nov-24 07:17N 23°05' E 113°27'381361.4
2014-Nov-24 07:15N 22°30' E 113°10'6515103.2
2014-Nov-24 07:07N 29°42' E 122°12'6217985.6
2014-Nov-24 07:03N 22°54' E 113°30'6631276.8
2014-Nov-24 06:32N 31°22' E 121°28'662794476.2
2014-Nov-24 06:32N 22°52' E 113°33'649116759.5
2014-Nov-24 06:31N 31°03' E 121°28'6422549.4
2014-Nov-24 06:16N 23°04' E 113°29'65914288.7
2014-Nov-24 06:13N 31°46' E 121°02'69724598.2
2014-Nov-24 06:12N 22°30' E 113°10'6519369.6
2014-Nov-24 06:08N 29°42' E 122°12'107179.6
2014-Nov-24 05:32N 31°22' E 121°28'65560447.3
2014-Nov-24 05:31N 23°04' E 113°29'391345.7
2014-Nov-24 05:29N 22°30' E 113°10'67936492.1
2014-Nov-24 05:28N 31°03' E 121°28'912477.1
2014-Nov-24 05:26N 29°41' E 122°14'131416.7
2014-Nov-24 05:07N 31°41' E 121°11'2441.2
2014-Nov-24 04:33N 31°23' E 121°31'37879999.8
2014-Nov-24 04:33N 37°41' E 121°53'39820779.8
2014-Nov-24 04:31N 31°03' E 121°28'922399.5
2014-Nov-24 04:29N 29°43' E 122°21'62747055.9
2014-Nov-24 04:28N 23°02' E 113°23'62329.3
2014-Nov-24 04:28N 23°04' E 113°29'391109.0
2014-Nov-24 04:26N 22°30' E 113°10'6988206.7
2014-Nov-24 04:21N 31°36' E 121°17'1619.3
2014-Nov-24 03:33N 31°25' E 121°30'43934360.9
2014-Nov-24 03:32N 38°44' E 121°33'46163842.2
2014-Nov-24 03:31N 31°03' E 121°28'641209885.3
2014-Nov-24 03:31N 23°04' E 113°30'113.2
2014-Nov-24 03:28N 23°04' E 113°29'12438.6
2014-Nov-24 03:27N 22°54' E 113°35'27209.7
2014-Nov-24 03:19N 22°31' E 113°51'6237402.4
2014-Nov-24 03:14N 29°43' E 122°12'624921.1
2014-Nov-24 02:33N 22°27' E 113°54'67473570.2
2014-Nov-24 02:32N 31°27' E 121°28'43741415.7
2014-Nov-24 02:32N 38°44' E 121°30'46175451.2
2014-Nov-24 02:31N 31°03' E 121°28'2712323.8
2014-Nov-24 02:31N 31°30' E 121°22'33011209.9
2014-Nov-24 02:30N 36°55' E 122°28'95339449.5
2014-Nov-24 02:28N 23°04' E 113°29'66314547.4
2014-Nov-24 02:25N 32°01' E 120°47'6626463.4
2014-Nov-24 02:19N 23°04' E 113°30'1037.4
2014-Nov-24 02:03N 23°03' E 113°19'6651356.3
2014-Nov-24 01:33N 31°30' E 121°23'674404329.2
2014-Nov-24 01:33N 22°28' E 113°54'65621273.2
2014-Nov-24 01:32N 31°03' E 121°28'64292394.4
2014-Nov-24 01:31N 23°04' E 113°29'102727179.3
2014-Nov-24 01:29N 38°46' E 121°25'12129081.9
2014-Nov-24 01:29N 36°55' E 122°28'9536106.1
2014-Nov-24 01:19N 23°04' E 113°30'6573130.6
2014-Nov-24 01:07N 31°30' E 121°22'221455.2
2014-Nov-24 01:06N 31°10' E 121°09'2647.4
2014-Nov-24 00:33N 31°35' E 121°17'675405080.4
2014-Nov-24 00:33N 22°28' E 113°54'65626533.3
2014-Nov-24 00:32N 31°03' E 121°28'641109941.5
2014-Nov-24 00:31N 23°04' E 113°30'95335023.0
2014-Nov-24 00:30N 36°56' E 122°28'33084855.7
2014-Nov-24 00:29N 31°30' E 121°22'1 1.1
2014-Nov-23 23:33N 31°30' E 121°23'32623934.5
2014-Nov-23 23:33N 36°52' E 122°28'95040236.4
2014-Nov-23 23:31N 23°04' E 113°30'641461754.1
2014-Nov-23 23:31N 31°03' E 121°28'401372.7
2014-Nov-23 23:29N 31°41' E 121°11'67815838.0
2014-Nov-23 23:27N 22°27' E 113°52'54707.2
2014-Nov-23 23:27N 22°29' E 113°47'68437600.5
2014-Nov-23 22:33N 33°28' W 117°42'61211469070.7
2014-Nov-23 22:32N 31°30' E 121°23'212844.6
2014-Nov-23 22:32N 31°44' E 121°06'65948433.9
2014-Nov-23 22:31N 23°04' E 113°30'6411154369.6
2014-Nov-23 22:31N 31°03' E 121°28'64931989.6
2014-Nov-23 22:30N 22°52' E 113°33'0 0.9
2014-Nov-23 22:15N 22°51' E 113°33'68409779.6
2014-Nov-23 21:33N 33°28' W 117°42'68391367816.5
2014-Nov-23 21:32N 22°27' E 113°52'65731984.6
2014-Nov-23 21:31N 31°03' E 121°28'64931137.0
2014-Nov-23 21:30N 22°52' E 113°33'66643601.0
2014-Nov-23 21:29N 31°30' E 121°23'6585781.2
2014-Nov-23 21:22N 23°04' E 113°30'134713.3
2014-Nov-23 21:22N 22°51' E 113°33'66751078.3
2014-Nov-23 21:21N 31°45' E 121°03'6807944.8
2014-Nov-23 21:16N 22°28' E 113°46'655910.8
2014-Nov-23 20:33N 31°10' E 121°09'6432314490.1
2014-Nov-23 20:33N 22°52' E 113°33'64922894.7
2014-Nov-23 20:31N 31°03' E 121°28'281256.3
2014-Nov-23 20:30N 31°30' E 121°23'6667203.0
2014-Nov-23 20:24N 22°51' E 113°33'66719679.5
2014-Nov-23 20:22N 31°45' E 121°03'471975.7
2014-Nov-23 20:21N 31°56' E 120°09'4583459.6
2014-Nov-23 20:13N 24°26' E 118°32'459675.2
2014-Nov-23 19:32N 31°57' E 120°06'885777.0
2014-Nov-23 19:31N 31°03' E 121°28'641329822.1
2014-Nov-23 19:31N 23°04' E 113°30'393829.9
2014-Nov-23 19:31N 22°28' E 113°46'272592.5
2014-Nov-23 19:30N 22°52' E 113°33'0 4.5
2014-Nov-23 19:27N 22°51' E 113°33'66740692.6
2014-Nov-23 19:26N 31°45' E 121°03'41912568.8
2014-Nov-23 19:24N 38°44' E 121°27'4545483.4
2014-Nov-23 19:19N 31°10' E 121°09'64944921.1
2014-Nov-23 19:18N 22°32' E 113°51'649868.7
2014-Nov-23 18:33N 31°10' E 121°09'45418370.8
2014-Nov-23 18:32N 38°44' E 121°29'46148818.5
2014-Nov-23 18:31N 31°03' E 121°28'641256528.3
2014-Nov-23 18:31N 23°04' E 113°30'65913100.7
2014-Nov-23 18:28N 31°45' E 121°03'23884.9
2014-Nov-23 18:27N 31°30' E 121°23'32631700.0
2014-Nov-23 18:26N 36°50' E 122°37'3196561.3
2014-Nov-23 18:23N 31°59' E 120°00'6559313.7
2014-Nov-23 18:19N 22°32' E 113°51'263344.1
2014-Nov-23 17:33N 24°20' E 118°13'784352839.7
2014-Nov-23 17:33N 36°52' E 122°32'34826119.6
2014-Nov-23 17:32N 31°10' E 121°09'9514815.8
2014-Nov-23 17:32N 29°56' E 122°17'7916801.1
2014-Nov-23 17:31N 31°03' E 121°28'641177596.5
2014-Nov-23 17:31N 23°04' E 113°30'659118561.3
2014-Nov-23 17:31N 31°45' E 121°03'235143.3
2014-Nov-23 17:31N 31°30' E 121°23'812314.5
2014-Nov-23 17:29N 32°03' E 119°56'88260.7
2014-Nov-23 17:08N 31°21' E 121°27'351821.2
2014-Nov-23 17:07N 30°50' E 121°46'433765.2
2014-Nov-23 16:33N 24°24' E 118°06'4381575373.4
2014-Nov-23 16:33N 31°10' E 121°09'3710161.1
2014-Nov-23 16:33N 30°51' E 121°46'64330870.8
2014-Nov-23 16:32N 23°04' E 113°29'642144342.2
2014-Nov-23 16:31N 31°03' E 121°28'64916563.8
2014-Nov-23 16:29N 22°51' E 113°33'66722434.7
2014-Nov-23 16:27N 31°45' E 121°03'4207910.7
2014-Nov-23 16:24N 38°44' E 121°38'473555.0
2014-Nov-23 15:33N 30°51' E 121°46'650390029.5
2014-Nov-23 15:33N 22°52' E 113°33'26178212.0
2014-Nov-23 15:33N 24°25' E 117°59'43922927.4
2014-Nov-23 15:32N 31°03' E 121°28'642288699.3
2014-Nov-23 15:31N 23°04' E 113°29'658296293.1
2014-Nov-23 15:31N 31°24' E 121°31'231535.0
2014-Nov-23 15:30N 31°10' E 121°09'5176040.5
2014-Nov-23 15:25N 22°37' E 120°06'502576.7
2014-Nov-23 14:33N 30°51' E 121°46'19823.2
2014-Nov-23 14:32N 31°03' E 121°28'642104982.3
2014-Nov-23 14:31N 23°04' E 113°29'65824664.3
2014-Nov-23 14:30N 31°46' E 120°59'55141322.3
2014-Nov-23 14:29N 22°37' E 120°14'37014016.6
2014-Nov-23 14:27N 22°52' E 113°33'64311874.5
2014-Nov-23 14:24N 31°10' E 121°09'23261.6
2014-Nov-23 14:19N 31°24' E 121°31'6647945.8
2014-Nov-23 14:14N 23°02' E 113°22'6644302.3
2014-Nov-23 14:04N 31°30' E 121°23'4483.6
2014-Nov-23 13:33N 30°51' E 121°46'646258577.9
2014-Nov-23 13:33N 23°03' E 113°25'8664.9
2014-Nov-23 13:32N 22°56' E 113°30'64789586.8
2014-Nov-23 13:32N 31°03' E 121°28'28833.1
2014-Nov-23 13:30N 31°30' E 121°23'23376.2
2014-Nov-23 13:26N 31°10' E 121°09'239229.0
2014-Nov-23 13:26N 31°24' E 121°31'6582110.9
2014-Nov-23 13:07N 23°04' E 113°29'1 1.0
2014-Nov-23 12:33N 23°04' E 113°29'12046.8
2014-Nov-23 12:33N 23°03' E 113°30'659215595.4
2014-Nov-23 12:33N 31°24' E 121°31'366481.7
2014-Nov-23 12:33N 30°51' E 121°46'374129.0
2014-Nov-23 12:32N 31°10' E 121°09'181529.8
2014-Nov-23 12:32N 31°03' E 121°28'285833.1
2014-Nov-23 12:31N 31°30' E 121°23'6592577.1
2014-Nov-23 12:16N 23°04' E 113°29'659921.8
2014-Nov-23 11:33N 31°30' E 121°23'447213.2
2014-Nov-23 11:33N 30°50' E 121°45'648291712.1
2014-Nov-23 11:33N 23°02' E 113°22'664199242.6
2014-Nov-23 11:33N 31°27' E 121°27'241899.0
2014-Nov-23 11:32N 31°03' E 121°28'18190.1
2014-Nov-23 11:26N 31°10' E 121°09'69493.2
2014-Nov-23 11:18N 31°57' E 120°09'32321.7
2014-Nov-23 11:12N 32°00' E 120°47'6628633.1
2014-Nov-23 11:07N 23°04' E 113°29'6431139.9
2014-Nov-23 10:33N 31°57' E 120°15'10215263.2
2014-Nov-23 10:33N 30°50' E 121°45'442034.5
2014-Nov-23 10:32N 31°30' E 121°23'467179.4
2014-Nov-23 10:31N 32°00' E 120°42'6915582.0
2014-Nov-23 10:31N 31°03' E 121°28'21287.3
2014-Nov-23 10:26N 31°09' E 121°52'67478216.8
2014-Nov-23 10:26N 22°30' E 113°51'67438489.2
2014-Nov-23 10:25N 31°32' E 121°21'65831596.6
2014-Nov-23 10:24N 23°04' E 113°29'102730314.5
2014-Nov-23 10:22N 38°44' E 121°33'434540.7
2014-Nov-23 09:33N 31°30' E 121°23'2279870.8
2014-Nov-23 09:33N 31°18' E 121°45'7114256.9
2014-Nov-23 09:33N 31°60' E 120°37'9017142.9
2014-Nov-23 09:33N 30°50' E 121°45'9935661.4
2014-Nov-23 09:33N 31°60' E 120°22'672605041.9
2014-Nov-23 09:33N 22°27' E 113°46'66156638.5
2014-Nov-23 09:32N 31°03' E 121°28'4424984.3
2014-Nov-23 09:27N 24°25' E 117°52'4686037.4
2014-Nov-23 09:22N 31°37' E 121°15'6595419.1
2014-Nov-23 09:15N 23°04' E 113°29'63814726.7
2014-Nov-23 09:12N 31°58' E 120°03'95147.5
2014-Nov-23 08:33N 31°23' E 121°47'7343936.7
2014-Nov-23 08:33N 32°01' E 120°33'936233.2
2014-Nov-23 08:32N 30°50' E 121°45'192561.6
2014-Nov-23 08:32N 31°03' E 121°28'761058.8
2014-Nov-23 08:28N 32°02' E 120°32'679610733.4
2014-Nov-23 08:28N 22°27' E 113°47'66472448.8
2014-Nov-23 08:27N 31°57' E 120°10'652702.7
2014-Nov-23 08:26N 31°17' E 121°09'67824656.3
2014-Nov-23 08:24N 22°30' E 113°10'397300.9
2014-Nov-23 08:24N 23°04' E 113°29'2544940.6
2014-Nov-23 08:21N 24°25' E 117°52'477605.9
2014-Nov-23 07:33N 32°01' E 120°31'124160.9
2014-Nov-23 07:33N 31°58' E 120°18'684492127.8
2014-Nov-23 07:33N 22°30' E 113°10'680143988.8
2014-Nov-23 07:33N 30°50' E 121°45'3691327444.9
2014-Nov-23 07:33N 36°56' E 122°38'35828646.0
2014-Nov-23 07:32N 31°03' E 121°28'64214346.0
2014-Nov-23 07:29N 23°04' E 113°29'65710016.7
2014-Nov-23 07:25N 31°22' E 121°30'6779087.9
2014-Nov-23 07:21N 22°27' E 113°47'25439802.3
2014-Nov-23 07:21N 24°25' E 117°52'2511171.5
2014-Nov-23 07:08N 22°55' E 113°36'98322824.4
2014-Nov-23 07:05N 37°38' E 121°55'345655.2
2014-Nov-23 06:34N 32°01' E 120°25'58151.5
2014-Nov-23 06:33N 32°01' E 120°31'30726349.0
2014-Nov-23 06:33N 36°53' E 122°29'3641311753.4
2014-Nov-23 06:33N 30°50' E 121°45'434372.9
2014-Nov-23 06:32N 31°17' E 121°06'2310513.8
2014-Nov-23 06:32N 31°03' E 121°28'647122638.3
2014-Nov-23 06:32N 23°02' E 113°22'151495.9
2014-Nov-23 06:31N 22°55' E 113°36'318818.5
2014-Nov-23 06:08N 24°37' E 119°05'3197665.5
2014-Nov-23 06:05N 22°27' E 113°47'6781269.3
2014-Nov-23 05:33N 32°01' E 120°31'448806846.6
2014-Nov-23 05:33N 24°39' E 119°06'695411.1
2014-Nov-23 05:33N 24°25' E 117°52'437224819.1
2014-Nov-23 05:32N 30°50' E 121°45'193824.6
2014-Nov-23 05:32N 31°03' E 121°28'661158580.1
2014-Nov-23 05:32N 22°27' E 113°47'67950930.8
2014-Nov-23 05:31N 32°01' E 120°34'3068231.3
2014-Nov-23 05:29N 36°53' E 122°26'3443078.1
2014-Nov-23 05:22N 31°17' E 121°02'1041106.9
2014-Nov-23 05:16N 29°55' E 122°17'891750.6
2014-Nov-23 05:13N 31°14' E 121°30'653102284.2
2014-Nov-23 05:13N 22°55' E 113°36'657985.1
2014-Nov-23 04:33N 32°02' E 120°26'47653574.2
2014-Nov-23 04:33N 24°25' E 117°52'44275718.8
2014-Nov-23 04:32N 31°03' E 121°28'3546334.2
2014-Nov-23 04:29N 36°53' E 122°26'31536625.9
2014-Nov-23 04:28N 31°45' E 121°05'657268.2
2014-Nov-23 04:28N 30°50' E 121°45'671297.0
2014-Nov-23 04:25N 29°50' E 122°19'62814964.9
2014-Nov-23 04:22N 22°55' E 113°33'665299310.7
2014-Nov-23 04:22N 32°00' E 120°42'64251.4
2014-Nov-23 04:07N 31°09' E 121°28'6471162.7
2014-Nov-23 03:33N 23°00' E 113°32'64980593.3
2014-Nov-23 03:33N 31°59' E 120°21'47289437.3
2014-Nov-23 03:32N 24°25' E 117°52'446229208.8
2014-Nov-23 03:32N 31°08' E 121°28'51883.5
2014-Nov-23 03:32N 31°03' E 121°28'29961.2
2014-Nov-23 03:30N 31°27' E 121°47'68656154.7
2014-Nov-23 03:30N 22°54' E 113°15'96620704.6
2014-Nov-23 03:27N 36°54' E 122°26'36510431.4
2014-Nov-23 03:25N 30°50' E 121°45'3673690.4
2014-Nov-23 03:19N 36°56' E 122°28'31995816.3
2014-Nov-23 03:19N 31°44' E 121°06'1241344.6
2014-Nov-23 03:13N 29°56' E 122°17'88133.1
2014-Nov-23 02:33N 31°20' E 121°48'33438824.3
2014-Nov-23 02:33N 36°52' E 122°33'318127157.6
2014-Nov-23 02:33N 31°56' E 120°14'16052365.8
2014-Nov-23 02:33N 29°56' E 122°17'7916806.5
2014-Nov-23 02:32N 31°03' E 121°28'484027.4
2014-Nov-23 02:32N 31°46' E 121°03'665304.0
2014-Nov-23 02:31N 30°50' E 121°45'65484110.6
2014-Nov-23 02:30N 22°54' E 113°22'10344.5
2014-Nov-23 02:29N 23°03' E 113°18'45873.2
2014-Nov-23 02:25N 22°28' E 113°48'67311109.4
2014-Nov-23 02:22N 31°17' E 121°34'6957747.2
2014-Nov-23 02:16N 22°19' E 113°20'50336.6
2014-Nov-23 02:08N 23°06' E 113°37'6551149.5
2014-Nov-23 01:33N 31°16' E 121°46'183040.2
2014-Nov-23 01:33N 31°07' E 121°28'141238.8
2014-Nov-23 01:32N 31°20' E 121°33'1821117.3
2014-Nov-23 01:32N 31°03' E 121°28'64919640.9
2014-Nov-23 01:30N 22°54' E 113°30'65053183.7
2014-Nov-23 01:30N 30°50' E 121°45'6432371.5
2014-Nov-23 01:13N 23°02' E 113°31'49408.5
2014-Nov-23 01:06N 22°13' E 113°35'6971282.3
2014-Nov-23 00:33N 31°10' E 121°52'668218763.5
2014-Nov-23 00:33N 22°53' E 113°30'650123199.1
2014-Nov-23 00:33N 30°50' E 121°46'201811.7
2014-Nov-23 00:32N 31°03' E 121°28'67752952.7
2014-Nov-23 00:32N 22°14' E 113°36'67935969.9
2014-Nov-23 00:30N 31°07' E 121°28'6453383.2
2014-Nov-23 00:19N 23°02' E 113°31'911.4
2014-Nov-22 23:33N 22°53' E 113°30'647258779.8
2014-Nov-22 23:33N 32°01' E 119°58'9322428.3
2014-Nov-22 23:33N 31°07' E 121°28'4481.0
2014-Nov-22 23:32N 31°03' E 121°28'263746.8
2014-Nov-22 23:32N 31°06' E 121°59'212138.7
2014-Nov-22 23:31N 30°46' E 121°53'6449830.7
2014-Nov-22 23:27N 23°02' E 113°31'44884.3
2014-Nov-22 23:24N 22°17' E 113°35'678798.8
2014-Nov-22 22:33N 30°44' E 121°60'12675407.5
2014-Nov-22 22:33N 31°58' E 120°02'9023059.7
2014-Nov-22 22:33N 31°07' E 121°28'372.4
2014-Nov-22 22:31N 31°04' E 121°28'6435523.6
2014-Nov-22 22:24N 23°02' E 113°31'6594804.0
2014-Nov-22 22:16N 31°60' E 120°41'103146.1
2014-Nov-22 21:33N 30°46' E 122°05'1068478.7
2014-Nov-22 21:33N 31°60' E 120°36'657181867.5
2014-Nov-22 21:32N 23°02' E 113°31'644193087.3
2014-Nov-22 21:32N 31°06' E 121°28'1113.3
2014-Nov-22 21:31N 31°07' E 121°28'853144.1
2014-Nov-22 21:30N 31°57' E 120°07'3711063.9
2014-Nov-22 21:09N 38°00' E 121°38'413697.6
2014-Nov-22 20:33N 31°07' E 121°28'7215286.5
2014-Nov-22 20:33N 32°01' E 120°31'729316.1
2014-Nov-22 20:33N 31°07' E 121°28'8022219.1
2014-Nov-22 20:32N 31°56' E 120°13'6 6.0
2014-Nov-22 19:33N 31°59' E 120°20'7538717.2
2014-Nov-22 19:33N 31°11' E 121°28'4583.4
2014-Nov-22 19:33N 31°07' E 121°28'7332918.7
2014-Nov-22 19:33N 32°01' E 120°30'4 3.8
2014-Nov-22 18:33N 32°02' E 120°26'76136510.3
2014-Nov-22 18:33N 31°07' E 121°28'72398.8
2014-Nov-22 18:33N 31°14' E 121°29'692946.1
2014-Nov-22 18:32N 32°01' E 120°30'4053585.3
2014-Nov-22 18:25N 38°44' E 121°27'4642007.1
2014-Nov-22 18:11N 31°01' E 122°07'3454.3
2014-Nov-22 17:34N 31°07' E 121°28'457822547.2
2014-Nov-22 17:33N 38°44' E 121°30'4061461288.1
2014-Nov-22 17:33N 32°01' E 120°33'2172.2
2014-Nov-22 17:33N 32°01' E 120°30'693672.2
2014-Nov-22 17:32N 31°18' E 121°34'291031.6
2014-Nov-22 17:30N 31°03' E 122°03'6801757.1
2014-Nov-22 17:07N 22°48' E 113°20'6791222.7
2014-Nov-22 16:33N 31°06' E 121°57'9323925.7
2014-Nov-22 16:33N 32°02' E 120°30'7413946.1
2014-Nov-22 16:33N 31°07' E 121°28'14188.6
2014-Nov-22 16:28N 31°21' E 121°31'4435955.2
2014-Nov-22 16:24N 38°44' E 121°35'10489599.1
2014-Nov-22 16:17N 22°45' E 113°24'662894.8
2014-Nov-22 15:33N 31°07' E 121°28'7614435.2
2014-Nov-22 15:33N 32°00' E 120°24'703439.3
2014-Nov-22 15:32N 31°21' E 121°31'67210744.3
2014-Nov-22 15:28N 22°44' E 113°30'6713232.1
2014-Nov-22 15:15N 30°50' E 122°08'116163.4
2014-Nov-22 14:33N 31°57' E 120°17'786710.2
2014-Nov-22 14:32N 31°07' E 121°28'142519.3
2014-Nov-22 14:32N 31°21' E 121°31'1414.4
2014-Nov-22 13:33N 31°07' E 121°28'14520.2
2014-Nov-22 13:32N 31°21' E 121°31'462.8
2014-Nov-22 13:28N 31°24' E 121°31'66516744.1
2014-Nov-22 13:26N 23°03' E 113°19'18715.2
2014-Nov-22 13:24N 22°57' E 113°37'48242.8
2014-Nov-22 13:13N 22°10' E 113°27'6881040.1
2014-Nov-22 12:33N 31°07' E 121°28'64640103.0
2014-Nov-22 12:32N 23°04' E 113°26'658169210.0
2014-Nov-22 12:32N 31°21' E 121°31'462.2
2014-Nov-22 12:28N 31°24' E 121°31'658717.9
2014-Nov-22 11:33N 23°04' E 113°30'644579560.8
2014-Nov-22 11:33N 31°07' E 121°28'142084.8
2014-Nov-22 11:33N 31°21' E 121°30'44541.8
2014-Nov-22 11:33N 31°25' E 121°30'79826.3
2014-Nov-22 11:27N 31°58' E 120°05'66076592.1
2014-Nov-22 11:26N 22°27' E 113°53'6813001.6
2014-Nov-22 11:13N 31°58' E 120°51'6621003.5
2014-Nov-22 10:33N 23°04' E 113°30'65778850.3
2014-Nov-22 10:33N 31°23' E 121°30'5315796.1
2014-Nov-22 10:33N 32°00' E 120°47'21017.5
2014-Nov-22 10:32N 32°00' E 120°49'423971.7
2014-Nov-22 10:32N 31°30' E 121°23'232183.7
2014-Nov-22 10:31N 31°07' E 121°28'832227.3
2014-Nov-22 10:29N 31°57' E 120°10'4136114.6
2014-Nov-22 10:25N 38°44' E 121°32'106915038.1
2014-Nov-22 10:21N 22°17' E 113°36'45358.3
2014-Nov-22 10:13N 23°02' E 113°31'6601000.2
2014-Nov-22 09:33N 31°24' E 121°32'72260935.1
2014-Nov-22 09:33N 31°57' E 120°16'64345410.4
2014-Nov-22 09:33N 23°04' E 113°30'644178330.0
2014-Nov-22 09:32N 31°07' E 121°28'2952518.9
2014-Nov-22 09:32N 31°35' E 121°18'42938636.4
2014-Nov-22 09:32N 38°44' E 121°29'102890266.3
2014-Nov-22 09:31N 23°02' E 113°31'6649054.3
2014-Nov-22 09:27N 31°58' E 120°51'1237.3
2014-Nov-22 09:06N 31°60' E 120°37'3 5.1
2014-Nov-22 08:33N 32°01' E 120°33'3823086.5
2014-Nov-22 08:33N 31°40' E 121°12'46166568.1
2014-Nov-22 08:33N 31°60' E 120°22'63113482.1
2014-Nov-22 08:33N 31°28' E 121°27'65922155.5
2014-Nov-22 08:32N 23°04' E 113°30'337.1
2014-Nov-22 08:27N 23°02' E 113°31'6456656.1
2014-Nov-22 08:22N 31°07' E 121°28'68633821.6
2014-Nov-22 08:20N 22°10' E 113°31'6848855.3
2014-Nov-22 08:16N 31°58' E 120°02'638900.7
2014-Nov-22 07:33N 23°04' E 113°30'65949416.6
2014-Nov-22 07:32N 31°43' E 121°06'201500.9
2014-Nov-22 07:32N 31°30' E 121°24'66417982.5
2014-Nov-22 07:29N 23°03' E 113°21'650585146.2
2014-Nov-22 07:29N 31°07' E 121°28'645692.2
2014-Nov-22 06:33N 23°02' E 113°31'3186.2
2014-Nov-22 06:33N 23°04' E 113°29'65946485.5
2014-Nov-22 06:32N 31°30' E 121°24'6736440.9
2014-Nov-22 06:25N 22°38' E 113°41'67336169.5
2014-Nov-22 06:24N 31°09' E 121°53'67912041.8
2014-Nov-22 06:21N 22°27' E 113°47'1360.5
2014-Nov-22 06:08N 22°14' E 113°42'65211177.6
2014-Nov-22 06:04N 29°49' E 122°22'6261222.2
2014-Nov-22 05:33N 23°02' E 113°31'662476319.7
2014-Nov-22 05:33N 31°14' E 121°47'66199076.4
2014-Nov-22 05:33N 23°04' E 113°29'289216.0
2014-Nov-22 05:33N 22°38' E 113°41'6732421192.0
2014-Nov-22 05:33N 31°30' E 121°23'48756549.8
2014-Nov-22 05:32N 39°04' E 117°48'1029148232.9
2014-Nov-22 05:32N 22°16' E 113°48'10659213.7
2014-Nov-22 05:25N 38°43' E 121°30'10352953.5
2014-Nov-22 05:04N 22°53' E 113°31'6721318.8
2014-Nov-22 04:33N 31°19' E 121°48'214621.8
2014-Nov-22 04:33N 31°07' E 121°28'235616.6
2014-Nov-22 04:33N 31°30' E 121°23'66732029.5
2014-Nov-22 04:31N 22°55' E 113°27'661158536.0
2014-Nov-22 04:31N 32°01' E 120°25'651123415.2
2014-Nov-22 04:31N 23°04' E 113°29'3141.5
2014-Nov-22 04:30N 23°02' E 113°31'65656188.7
2014-Nov-22 04:29N 31°22' E 121°27'4969308.0
2014-Nov-22 04:26N 39°04' E 117°47'102311612.6
2014-Nov-22 04:21N 22°30' E 113°10'68636857.4
2014-Nov-22 04:19N 31°57' E 120°24'671127132.3
2014-Nov-22 04:19N 22°27' E 113°47'669873.4
2014-Nov-22 03:33N 31°57' E 120°18'445800582.7
2014-Nov-22 03:33N 39°05' E 117°46'985197071.1
2014-Nov-22 03:33N 23°04' E 113°29'658263351.8
2014-Nov-22 03:33N 31°30' E 121°23'2238943.7
2014-Nov-22 03:33N 31°25' E 121°48'783991.7
2014-Nov-22 03:32N 31°57' E 120°24'64921045.9
2014-Nov-22 03:30N 23°02' E 113°31'65621070.3
2014-Nov-22 03:28N 31°21' E 121°27'69222451.5
2014-Nov-22 03:26N 22°30' E 113°10'692791.1
2014-Nov-22 02:33N 31°21' E 121°27'654147258.7
2014-Nov-22 02:33N 23°04' E 113°29'65884648.8
2014-Nov-22 02:33N 31°30' E 121°23'22666.4
2014-Nov-22 02:31N 31°45' E 121°03'697228099.7
2014-Nov-22 02:31N 22°30' E 113°10'686102909.1
2014-Nov-22 02:30N 31°57' E 120°24'67711835.0
2014-Nov-22 02:27N 22°19' E 113°48'464985.7
2014-Nov-22 02:26N 23°02' E 113°31'3 3.0
2014-Nov-22 01:33N 23°04' E 113°29'65494245.6
2014-Nov-22 01:32N 31°21' E 121°27'93358.5
2014-Nov-22 01:32N 31°30' E 121°23'6793314.7
2014-Nov-22 01:20N 22°27' E 113°47'12331.2
2014-Nov-22 01:18N 22°16' E 113°43'33574.1
2014-Nov-22 01:14N 22°30' E 113°10'701100936.1
2014-Nov-22 01:14N 32°01' E 120°47'353.2
2014-Nov-22 01:11N 31°59' E 120°50'6199.0
2014-Nov-22 00:33N 31°07' E 121°28'141781.6
2014-Nov-22 00:33N 31°21' E 121°27'916802.7
2014-Nov-22 00:33N 31°30' E 121°23'67826812.5
2014-Nov-22 00:31N 22°28' E 113°47'391576.3
2014-Nov-22 00:30N 23°04' E 113°29'645386900.8
2014-Nov-22 00:30N 31°58' E 120°17'684615634.6
2014-Nov-22 00:30N 22°12' E 113°40'32797.1
2014-Nov-22 00:27N 22°30' E 113°10'696776.8
2014-Nov-21 23:33N 31°32' E 121°21'658148148.0
2014-Nov-21 23:33N 23°04' E 113°29'66329453.6
2014-Nov-21 23:32N 32°01' E 120°47'7018671.5
2014-Nov-21 23:27N 22°30' E 113°10'6928307.0
2014-Nov-21 23:22N 31°21' E 121°27'1417.6
2014-Nov-21 22:33N 31°07' E 121°28'64474812.0
2014-Nov-21 22:32N 23°04' E 113°29'65965920.5
2014-Nov-21 22:32N 31°35' E 121°18'16259.4
2014-Nov-21 22:28N 31°22' E 121°28'66992.6
2014-Nov-21 22:24N 32°02' E 120°26'653774.1
2014-Nov-21 21:33N 23°04' E 113°29'659197844.2
2014-Nov-21 21:33N 31°39' E 121°14'373509.6
2014-Nov-21 21:33N 31°60' E 120°38'682707.0
2014-Nov-21 21:31N 31°07' E 121°28'644667.6
2014-Nov-21 20:33N 23°04' E 113°29'644289894.4
2014-Nov-21 20:33N 31°07' E 121°28'387635.4
2014-Nov-21 20:33N 31°42' E 121°09'373712.9
2014-Nov-21 20:32N 32°01' E 120°32'66943018.2
2014-Nov-21 20:31N 22°45' E 113°33'28106.0
2014-Nov-21 20:15N 22°24' E 113°54'680977.1
2014-Nov-21 19:33N 31°44' E 121°05'6591187009.8
2014-Nov-21 19:33N 23°04' E 113°29'65423558.3
2014-Nov-21 19:32N 32°01' E 120°31'735709.9
2014-Nov-21 19:31N 31°07' E 121°28'4573303.4
2014-Nov-21 19:23N 38°44' E 121°30'10271241.5
2014-Nov-21 18:33N 23°04' E 113°29'659790840.7
2014-Nov-21 18:33N 31°45' E 121°03'321501.1
2014-Nov-21 18:32N 32°01' E 120°31'1603916.8
2014-Nov-21 18:29N 29°50' E 122°18'63078172.6
2014-Nov-21 18:29N 22°47' E 113°38'1494.6
2014-Nov-21 18:20N 22°35' E 113°46'6745931.3
2014-Nov-21 18:13N 31°40' E 121°12'3 4.9
2014-Nov-21 17:33N 31°42' E 121°09'659197739.0
2014-Nov-21 17:33N 23°04' E 113°29'659124868.7
2014-Nov-21 17:33N 31°45' E 121°03'66537383.2
2014-Nov-21 17:32N 22°54' E 113°35'660132085.3
2014-Nov-21 17:32N 32°01' E 120°31'40669645.6
2014-Nov-21 17:31N 38°44' E 121°35'10281064.6
2014-Nov-21 16:33N 23°04' E 113°29'659169473.1
2014-Nov-21 16:33N 31°45' E 121°03'419188699.5
2014-Nov-21 16:33N 38°44' E 121°34'42028018.7
2014-Nov-21 16:32N 31°44' E 121°05'344895.5
2014-Nov-21 16:32N 32°01' E 120°31'1603916.6
2014-Nov-21 16:29N 29°50' E 122°18'624670.1
2014-Nov-21 15:33N 23°04' E 113°29'659215686.6
2014-Nov-21 15:33N 31°45' E 121°03'67517992.3
2014-Nov-21 15:31N 22°44' E 113°30'67117621.8
2014-Nov-21 15:29N 32°01' E 120°31'654710.2
2014-Nov-21 14:33N 23°04' E 113°29'659395425.4
2014-Nov-21 14:33N 31°45' E 121°04'419100652.5
2014-Nov-21 14:33N 38°44' E 121°31'40617813.8
2014-Nov-21 14:32N 32°01' E 120°31'73661.5
2014-Nov-21 14:25N 31°07' E 121°28'6443118.5
2014-Nov-21 14:13N 23°03' E 113°30'1 1.6
2014-Nov-21 13:33N 23°04' E 113°29'65938273.1
2014-Nov-21 13:32N 31°46' E 121°03'322801.2
2014-Nov-21 13:32N 32°01' E 120°31'674606379.9
2014-Nov-21 13:31N 22°47' E 113°19'38844.8
2014-Nov-21 13:29N 22°26' E 113°53'66010293.3
2014-Nov-21 13:25N 31°07' E 121°28'4571283.7
2014-Nov-21 13:04N 38°44' E 121°28'10302042.2
2014-Nov-21 12:33N 23°02' E 113°24'1030195121.9
2014-Nov-21 12:33N 38°44' E 121°29'418188191.3
2014-Nov-21 12:33N 31°47' E 120°57'473162.2
2014-Nov-21 12:32N 31°07' E 121°28'652138145.7
2014-Nov-21 12:32N 22°54' E 113°28'100035636.6
2014-Nov-21 12:30N 37°55' E 121°50'36015075.1
2014-Nov-21 12:29N 32°01' E 120°31'6514462.6
2014-Nov-21 12:20N 23°04' E 113°36'651842.4
2014-Nov-21 11:33N 32°01' E 120°30'2240124.8
2014-Nov-21 11:33N 31°51' E 120°54'66022013.0
2014-Nov-21 11:32N 22°58' E 113°34'64662849.8
2014-Nov-21 11:31N 31°07' E 121°28'7014867.2
2014-Nov-21 11:31N 31°52' E 120°25'1562653.6
2014-Nov-21 11:27N 29°50' E 122°18'6549976.8
2014-Nov-21 11:23N 22°14' E 113°36'107250761.1
2014-Nov-21 11:22N 38°44' E 121°33'408504.3
2014-Nov-21 10:34N 32°00' E 120°24'5480.1
2014-Nov-21 10:33N 32°02' E 120°29'203128.2
2014-Nov-21 10:33N 31°56' E 120°52'698125572.8
2014-Nov-21 10:32N 22°16' E 113°36'12737.5
2014-Nov-21 10:31N 22°16' E 113°49'1067174602.7
2014-Nov-21 10:31N 38°45' E 121°36'10306968.0
2014-Nov-21 10:22N 23°03' E 113°30'99131026.5
2014-Nov-21 10:20N 37°58' E 121°45'3692320.9
2014-Nov-21 10:11N 31°58' E 120°01'6761090.4
2014-Nov-21 09:33N 22°13' E 113°42'687824140.8
2014-Nov-21 09:33N 31°59' E 120°22'42814.1
2014-Nov-21 09:33N 31°57' E 120°18'263499.2
2014-Nov-21 09:33N 31°60' E 120°49'18308.8
2014-Nov-21 09:29N 32°04' E 120°28'65517734.8
2014-Nov-21 09:27N 23°04' E 113°30'102617925.3
2014-Nov-21 09:24N 38°43' E 121°30'4055656.4
2014-Nov-21 09:19N 32°00' E 120°33'307216.6
2014-Nov-21 09:19N 32°01' E 119°58'67528949.1
2014-Nov-21 09:18N 22°18' E 113°35'681925.2
2014-Nov-21 08:33N 31°57' E 120°17'12980.3
2014-Nov-21 08:33N 32°04' E 120°28'635658.0
2014-Nov-21 08:32N 31°06' E 120°56'581043.9
2014-Nov-21 08:29N 32°00' E 120°33'65522452.8
2014-Nov-21 08:27N 23°04' E 113°30'12303.3
2014-Nov-21 08:25N 23°03' E 113°16'556581.2
2014-Nov-21 08:24N 22°11' E 113°33'10755180.5
2014-Nov-21 08:12N 38°43' E 121°33'45614275.7
2014-Nov-21 08:10N 31°07' E 121°28'80133.4
2014-Nov-21 07:34N 31°56' E 120°13'8012562.3
2014-Nov-21 07:33N 31°07' E 121°28'6512343117.4
2014-Nov-21 07:33N 23°03' E 113°19'263105109.4
2014-Nov-21 07:33N 24°25' E 117°52'47714803.9
2014-Nov-21 07:31N 32°00' E 120°33'69320294.6
2014-Nov-21 07:29N 22°30' E 113°10'391149.2
2014-Nov-21 07:27N 23°04' E 113°30'62623240.5
2014-Nov-21 07:25N 31°04' E 121°01'83353.8
2014-Nov-21 07:11N 32°06' E 119°56'27471.1
2014-Nov-21 07:08N 32°04' E 120°28'0 0.7
2014-Nov-21 06:33N 32°04' E 120°28'287746.0
2014-Nov-21 06:33N 32°03' E 119°55'33916.7
2014-Nov-21 06:31N 32°00' E 120°33'3644020.3
2014-Nov-21 06:26N 38°01' E 121°37'9905739.9
2014-Nov-21 06:15N 23°04' E 113°30'6444673.8
2014-Nov-21 06:07N 31°07' E 121°28'64716071.3
2014-Nov-21 06:04N 22°55' E 113°36'6471195.7
2014-Nov-21 05:32N 31°07' E 121°28'784507.3
2014-Nov-21 05:31N 32°02' E 120°24'690155326.6
2014-Nov-21 05:31N 22°30' E 113°10'69317579.1
2014-Nov-21 05:28N 32°00' E 120°33'65529106.9
2014-Nov-21 05:27N 23°04' E 113°30'66210643.8
2014-Nov-21 05:23N 31°60' E 120°49'661319.3
2014-Nov-21 05:20N 30°58' E 121°15'953672.0
2014-Nov-21 05:19N 32°03' E 119°55'6603085.2
2014-Nov-21 05:06N 22°27' E 113°53'6441193.3
2014-Nov-21 04:33N 30°57' E 121°13'6291.9
2014-Nov-21 04:32N 30°59' E 121°20'11594.5
2014-Nov-21 04:31N 31°07' E 121°28'719794.7
2014-Nov-21 04:31N 32°00' E 120°33'13554.7
2014-Nov-21 04:29N 31°60' E 120°49'70121021.0
2014-Nov-21 04:27N 22°30' E 113°10'102922316.3
2014-Nov-21 04:25N 37°58' E 121°44'36215879.7
2014-Nov-21 04:23N 32°02' E 120°24'47712707.9
2014-Nov-21 04:21N 24°25' E 117°52'2531727.6
2014-Nov-21 04:12N 23°04' E 113°30'631978.1
2014-Nov-21 03:33N 30°58' E 121°18'71241.1
2014-Nov-21 03:33N 31°00' E 121°26'685947.2
2014-Nov-21 03:32N 31°60' E 120°49'638049.5
2014-Nov-21 03:32N 31°07' E 121°28'713441.2
2014-Nov-21 03:31N 32°00' E 120°33'6555850.3
2014-Nov-21 03:24N 23°04' E 113°30'3915450.3
2014-Nov-21 03:24N 22°30' E 113°10'3415284.1
2014-Nov-21 03:24N 23°02' E 113°21'668343775.3
2014-Nov-21 03:24N 32°01' E 120°47'6678635.3
2014-Nov-21 03:19N 22°55' E 113°36'64334566.9
2014-Nov-21 03:18N 32°03' E 119°55'25114.3
2014-Nov-21 03:05N 32°02' E 120°24'66341143.3
2014-Nov-21 03:04N 22°48' E 113°35'631151320.6
2014-Nov-21 03:04N 29°51' E 122°17'535962156.0
2014-Nov-21 03:04N 38°44' E 121°33'406810.2
2014-Nov-21 02:34N 32°00' E 120°33'7489090.1
2014-Nov-21 02:33N 30°59' E 121°23'8057559.0
2014-Nov-21 02:33N 32°01' E 120°23'204896.0
2014-Nov-21 02:33N 32°01' E 120°47'63226751.2
2014-Nov-21 02:33N 31°25' E 121°48'66989244.3
2014-Nov-21 02:33N 23°05' E 113°27'64552754.3
2014-Nov-21 02:32N 31°07' E 121°28'650390223.5
2014-Nov-21 02:32N 23°03' E 113°20'3216.2
2014-Nov-21 02:31N 23°02' E 113°24'431881.4
2014-Nov-21 02:30N 22°29' E 113°53'68076506.8
2014-Nov-21 02:29N 31°60' E 120°48'4065575.4
2014-Nov-21 02:25N 38°44' E 121°32'1066255729.2
2014-Nov-21 02:24N 22°30' E 113°10'261069.6
2014-Nov-21 02:23N 22°17' E 113°35'103210987.1
2014-Nov-21 02:17N 37°56' E 121°50'361493.6
2014-Nov-21 01:33N 32°00' E 120°33'7466795.2
2014-Nov-21 01:33N 30°59' E 121°23'916323.5
2014-Nov-21 01:33N 31°07' E 121°28'207057.9
2014-Nov-21 01:33N 31°19' E 121°47'664477780.9
2014-Nov-21 01:33N 23°04' E 113°29'64555251.4
2014-Nov-21 01:32N 31°57' E 120°18'256093.8
2014-Nov-21 01:32N 32°01' E 120°47'1824.9
2014-Nov-21 01:32N 31°60' E 120°48'67024346.0
2014-Nov-21 01:30N 23°04' E 113°16'20957.9
2014-Nov-21 01:29N 22°54' E 113°35'103446524.1
2014-Nov-21 01:28N 38°44' E 121°29'106521536.3
2014-Nov-21 01:25N 22°30' E 113°10'3869257.0
2014-Nov-21 01:25N 23°04' E 113°29'47412.5
2014-Nov-21 01:18N 22°17' E 113°35'47936.0
2014-Nov-21 01:15N 23°04' E 113°30'11203.2
2014-Nov-21 01:12N 22°55' E 113°36'2515052.8
2014-Nov-21 01:09N 24°25' E 117°52'477808.5
2014-Nov-21 00:33N 32°00' E 120°33'7426718.1
2014-Nov-21 00:33N 30°59' E 121°23'2623717.7
2014-Nov-21 00:33N 31°13' E 121°49'45971777.4
2014-Nov-21 00:33N 24°25' E 117°52'25130142.7
2014-Nov-21 00:32N 22°55' E 113°36'666199911.2
2014-Nov-21 00:32N 31°60' E 120°48'684273441.5
2014-Nov-21 00:32N 22°24' E 113°54'68474637.4
2014-Nov-21 00:31N 32°01' E 120°47'64851.6
2014-Nov-21 00:27N 31°07' E 121°28'822899.2
2014-Nov-21 00:25N 31°56' E 120°10'19275.3
2014-Nov-21 00:21N 32°00' E 120°32'69295877.7
2014-Nov-21 00:21N 22°30' E 113°10'26404.2
2014-Nov-21 00:17N 22°17' E 113°35'47721.1
2014-Nov-21 00:13N 23°04' E 113°29'157.9
2014-Nov-21 00:12N 23°03' E 113°30'6368450.9
2014-Nov-21 00:07N 30°60' E 121°24'6361145360.4
2014-Nov-21 00:07N 23°04' E 113°29'6351133.9
2014-Nov-20 23:33N 30°59' E 121°23'6935434.5
2014-Nov-20 23:33N 32°00' E 120°46'105311.7
2014-Nov-20 23:33N 32°00' E 120°33'124706.9
2014-Nov-20 23:33N 32°01' E 120°47'66746169.0
2014-Nov-20 23:32N 22°55' E 113°36'665478573.7
2014-Nov-20 23:32N 31°07' E 121°57'257458.6
2014-Nov-20 23:32N 31°07' E 121°28'64445470.9
2014-Nov-20 23:31N 23°04' E 113°29'65419296.3
2014-Nov-20 23:29N 32°02' E 120°29'65430977.0
2014-Nov-20 23:28N 23°04' E 113°29'41264.7
2014-Nov-20 23:18N 22°26' E 113°47'403390.1
2014-Nov-20 23:18N 23°03' E 113°30'635862.2
2014-Nov-20 22:33N 30°59' E 121°23'7121176.4
2014-Nov-20 22:33N 31°60' E 120°40'73733.5
2014-Nov-20 22:33N 32°01' E 120°31'98118068.8
2014-Nov-20 22:33N 31°03' E 122°05'66620147.7
2014-Nov-20 22:31N 22°55' E 113°36'667400131.1
2014-Nov-20 22:31N 32°01' E 120°47'643722.0
2014-Nov-20 22:30N 31°07' E 121°28'678221788.6
2014-Nov-20 22:30N 22°17' E 113°35'471643.9
2014-Nov-20 22:28N 23°04' E 113°29'9819629.9
2014-Nov-20 22:28N 23°04' E 115°16'60015880.7
2014-Nov-20 22:26N 31°59' E 120°22'791460.5
2014-Nov-20 22:22N 31°05' E 121°28'6137.6
2014-Nov-20 22:20N 30°59' E 121°24'65629882.2
2014-Nov-20 22:18N 22°26' E 113°47'655877.1
2014-Nov-20 21:34N 30°59' E 121°23'69247557.3
2014-Nov-20 21:34N 32°01' E 120°47'138028.9
2014-Nov-20 21:33N 32°01' E 120°31'3920.0
2014-Nov-20 21:33N 32°01' E 120°35'65720032.2
2014-Nov-20 21:31N 23°04' E 113°29'471820.5
2014-Nov-20 21:30N 22°17' E 113°35'67610354.5
2014-Nov-20 21:26N 31°05' E 121°28'64658110.7
2014-Nov-20 21:25N 22°55' E 113°36'1170.4
2014-Nov-20 21:16N 23°04' E 113°29'635899.8
2014-Nov-20 20:33N 30°59' E 121°23'692720.2
2014-Nov-20 20:32N 32°01' E 120°47'645244.2
2014-Nov-20 20:31N 31°07' E 121°28'644772957.9
2014-Nov-20 20:31N 23°04' E 113°29'64216882.1
2014-Nov-20 20:29N 31°05' E 121°28'676162220.3
2014-Nov-20 20:29N 22°17' E 113°35'4821761.3
2014-Nov-20 20:28N 23°03' E 113°18'66133051.2
2014-Nov-20 20:27N 32°01' E 120°31'341.4
2014-Nov-20 20:23N 32°04' E 120°31'676152019.2
2014-Nov-20 20:22N 22°48' E 113°19'65715670.8
2014-Nov-20 20:20N 32°03' E 119°55'6392375.0
2014-Nov-20 20:04N 23°04' E 113°29'6351259.4
2014-Nov-20 19:33N 30°59' E 121°23'8460203.0
2014-Nov-20 19:33N 29°51' E 122°18'152109386.3
2014-Nov-20 19:33N 32°01' E 120°47'6411541.8
2014-Nov-20 19:33N 31°07' E 121°28'64419487.3
2014-Nov-20 19:31N 23°04' E 113°29'65435695.4
2014-Nov-20 19:30N 32°01' E 120°31'65421222.4
2014-Nov-20 19:28N 23°04' E 113°29'65624605.6
2014-Nov-20 19:26N 32°04' E 120°30'783633.9
2014-Nov-20 19:25N 31°05' E 121°28'6422775.6
2014-Nov-20 19:11N 23°04' E 113°30'463695.0
2014-Nov-20 19:11N 22°17' E 113°35'291203.7
2014-Nov-20 19:09N 22°45' E 113°24'6811147.6
2014-Nov-20 18:33N 32°01' E 120°47'6935390.7
2014-Nov-20 18:33N 30°59' E 121°23'7627187.8
2014-Nov-20 18:33N 32°01' E 120°31'4930.9
2014-Nov-20 18:33N 32°04' E 120°30'65621475.6
2014-Nov-20 18:31N 23°04' E 113°29'471793.6
2014-Nov-20 18:30N 22°17' E 113°35'27240.7
2014-Nov-20 18:23N 22°44' E 113°28'1393.0
2014-Nov-20 18:14N 22°55' E 113°36'646154952.3
2014-Nov-20 18:14N 31°05' E 121°28'443113880.3
2014-Nov-20 18:14N 24°25' E 117°52'2532198.5
2014-Nov-20 18:07N 23°03' E 113°30'131.5
2014-Nov-20 18:04N 23°04' E 113°29'6351244.3
2014-Nov-20 17:33N 30°59' E 121°23'767552.2
2014-Nov-20 17:33N 32°01' E 120°31'4567.5
2014-Nov-20 17:32N 32°04' E 120°30'152184.7
2014-Nov-20 17:32N 32°01' E 120°47'48291240.9
2014-Nov-20 17:32N 24°24' E 117°56'2714976.6
2014-Nov-20 17:28N 22°17' E 113°35'476244.2
2014-Nov-20 17:28N 23°04' E 113°29'194647.6
2014-Nov-20 17:28N 22°45' E 113°33'65745489.9
2014-Nov-20 17:27N 31°07' E 121°28'6497537.8
2014-Nov-20 17:22N 22°54' E 113°35'1046.4
2014-Nov-20 17:08N 23°03' E 113°30'6361096.9
2014-Nov-20 16:33N 30°59' E 121°23'8015068.3
2014-Nov-20 16:33N 32°04' E 120°29'42882.9
2014-Nov-20 16:33N 32°01' E 120°31'131605.8
2014-Nov-20 16:33N 32°01' E 120°47'47935173.0
2014-Nov-20 16:32N 24°25' E 118°02'26221945.7
2014-Nov-20 16:31N 23°04' E 113°29'471738.3
2014-Nov-20 16:29N 22°17' E 113°35'46864.1
2014-Nov-20 16:26N 23°03' E 113°30'1 5.6
2014-Nov-20 16:11N 23°04' E 113°29'1 0.9
2014-Nov-20 15:33N 23°04' E 113°30'6352286248.5
2014-Nov-20 15:33N 30°59' E 121°23'8012013.5
2014-Nov-20 15:33N 32°02' E 120°25'64227.9
2014-Nov-20 15:33N 32°01' E 120°31'47590066.6
2014-Nov-20 15:33N 24°23' E 118°08'443132787.3
2014-Nov-20 15:32N 31°09' E 121°27'647232816.8
2014-Nov-20 15:32N 23°00' E 113°31'31109.1
2014-Nov-20 15:32N 23°03' E 113°30'236.0
2014-Nov-20 15:29N 23°03' E 113°32'63614953.4
2014-Nov-20 15:27N 30°59' E 121°24'6709030.9
2014-Nov-20 15:22N 22°17' E 113°35'69915631.7
2014-Nov-20 15:20N 32°01' E 120°47'2329.3
2014-Nov-20 14:33N 31°59' E 120°21'8057353.0
2014-Nov-20 14:33N 30°59' E 121°23'1554212.1
2014-Nov-20 14:33N 31°13' E 121°30'698326.2
2014-Nov-20 14:33N 32°01' E 120°31'480144120.5
2014-Nov-20 14:33N 24°17' E 118°10'446133821.1
2014-Nov-20 14:32N 31°07' E 121°28'64924073.6
2014-Nov-20 14:31N 22°55' E 113°33'3179.8
2014-Nov-20 14:30N 22°53' E 113°31'6718358.7
2014-Nov-20 14:25N 32°01' E 120°47'66291729.8
2014-Nov-20 14:25N 23°04' E 113°30'471257.1
2014-Nov-20 14:22N 22°17' E 113°35'46335.7
2014-Nov-20 14:14N 23°03' E 113°30'663979.9
2014-Nov-20 13:33N 32°01' E 120°47'6911790.3
2014-Nov-20 13:33N 30°59' E 121°23'7513585.9
2014-Nov-20 13:33N 32°01' E 120°31'141967.9
2014-Nov-20 13:32N 31°56' E 120°16'794371.0
2014-Nov-20 13:31N 31°07' E 121°28'65212829.4
2014-Nov-20 13:28N 23°03' E 113°17'12192.0
2014-Nov-20 13:24N 23°04' E 113°30'262235827.8
2014-Nov-20 13:24N 24°13' E 118°06'2622657.1
2014-Nov-20 13:18N 23°03' E 113°30'461260.7
2014-Nov-20 13:16N 22°17' E 113°35'38221.2
2014-Nov-20 13:06N 22°54' E 113°22'6471199.5
2014-Nov-20 12:34N 30°59' E 121°23'8425193.1
2014-Nov-20 12:33N 31°56' E 120°10'64372333.0
2014-Nov-20 12:33N 23°03' E 113°25'658592087.5
2014-Nov-20 12:33N 32°01' E 120°31'722403.1
2014-Nov-20 12:31N 31°07' E 121°28'644110476.1
2014-Nov-20 12:31N 23°03' E 113°30'4319478.6
2014-Nov-20 12:30N 22°26' E 113°53'19524.0
2014-Nov-20 12:28N 22°17' E 113°35'6997649.4
2014-Nov-20 12:23N 32°01' E 120°47'68417704.3
2014-Nov-20 12:20N 22°25' E 113°53'6748986.7
2014-Nov-20 12:16N 31°21' E 121°32'4722779.2
2014-Nov-20 12:06N 24°08' E 118°00'449833.0
2014-Nov-20 11:33N 30°59' E 121°23'8928976.4
2014-Nov-20 11:33N 31°57' E 120°04'63885048.1
2014-Nov-20 11:33N 23°04' E 113°29'644231898.3
2014-Nov-20 11:33N 31°07' E 121°28'72129773.2
2014-Nov-20 11:33N 32°01' E 120°31'639421.1
2014-Nov-20 11:32N 31°22' E 121°30'6779442.7
2014-Nov-20 11:28N 22°26' E 113°47'40707.7
2014-Nov-20 11:24N 23°03' E 113°30'40236.6
2014-Nov-20 11:14N 22°29' E 113°52'3169184.8
2014-Nov-20 11:12N 24°44' E 119°04'3359509.2
2014-Nov-20 11:10N 22°17' E 113°35'6691092.8
2014-Nov-20 10:34N 30°59' E 121°23'9315968.2
2014-Nov-20 10:33N 31°59' E 119°59'637104295.3
2014-Nov-20 10:33N 23°04' E 113°29'65473616.9
2014-Nov-20 10:32N 32°01' E 120°31'7219965.1
2014-Nov-20 10:32N 31°07' E 121°28'660237456.0
2014-Nov-20 10:32N 22°27' E 113°53'20417.0
2014-Nov-20 10:29N 22°17' E 113°35'9507.5
2014-Nov-20 10:28N 22°17' E 113°44'6888546.9
2014-Nov-20 10:23N 31°27' E 121°28'6586303.3
2014-Nov-20 10:17N 23°04' E 113°30'1 5.6
2014-Nov-20 10:06N 23°03' E 113°30'6361160.3
2014-Nov-20 09:34N 30°59' E 121°23'63595265.8
2014-Nov-20 09:33N 23°04' E 113°30'39139644.8
2014-Nov-20 09:33N 22°29' E 113°47'67552862.7
2014-Nov-20 09:32N 32°01' E 120°31'696357800.3
2014-Nov-20 09:32N 22°11' E 113°38'68119312.1
2014-Nov-20 09:30N 32°03' E 119°56'5015477.4
2014-Nov-20 09:25N 23°55' E 117°48'2432002.6
2014-Nov-20 09:17N 23°03' E 113°30'46374.2
2014-Nov-20 09:10N 22°17' E 113°35'133711406.6
2014-Nov-20 09:03N 00°01' E 114°12'19043881.4
2014-Nov-20 08:34N 30°59' E 121°23'677348119.7
2014-Nov-20 08:33N 22°10' E 113°31'5410830.1
2014-Nov-20 08:33N 23°04' E 113°30'65439919.3
2014-Nov-20 08:32N 32°01' E 120°31'727421.4
2014-Nov-20 08:32N 31°07' E 121°28'9911084.8
2014-Nov-20 08:31N 32°06' E 119°55'6417231.4
2014-Nov-20 08:26N 23°03' E 113°30'46733.5
2014-Nov-20 08:22N 22°17' E 113°35'69917355.8
2014-Nov-20 08:20N 32°01' E 120°47'6623097.3
2014-Nov-20 08:07N 23°04' E 113°30'6351146.0
2014-Nov-20 07:33N 30°59' E 121°23'728690.9
2014-Nov-20 07:33N 31°52' E 120°25'7015802.3
2014-Nov-20 07:33N 31°07' E 121°28'644144888.5
2014-Nov-20 07:32N 23°04' E 113°30'654117762.7
2014-Nov-20 07:32N 32°01' E 120°31'516168988.9
2014-Nov-20 07:32N 23°47' E 117°39'23341913.4
2014-Nov-20 07:32N 23°03' E 113°30'13466.6
2014-Nov-20 07:30N 23°04' E 113°16'13746.9
2014-Nov-20 07:29N 23°04' E 113°30'39543.4
2014-Nov-20 07:25N 22°30' E 113°10'26551.9
2014-Nov-20 07:22N 22°17' E 113°35'69946605.9
2014-Nov-20 07:21N 32°01' E 120°47'86566.7
2014-Nov-20 07:12N 31°03' E 122°03'3554.1
2014-Nov-20 06:33N 30°59' E 121°23'91166.6
2014-Nov-20 06:33N 31°07' E 121°28'644231816.9
2014-Nov-20 06:33N 23°04' E 113°30'65444438.4
2014-Nov-20 06:32N 32°01' E 120°31'522187952.6
2014-Nov-20 06:32N 23°42' E 117°36'2294764.7
2014-Nov-20 06:29N 23°04' E 113°30'4712030.9
2014-Nov-20 06:29N 22°17' E 113°35'46891.7
2014-Nov-20 06:26N 23°03' E 113°30'38176.2
2014-Nov-20 06:13N 22°30' E 113°10'69826435.5
2014-Nov-20 06:11N 31°09' E 121°52'531152.3
2014-Nov-20 06:08N 31°44' E 121°06'4781.4
2014-Nov-20 05:33N 30°60' E 121°25'637114571.2
2014-Nov-20 05:33N 23°04' E 113°30'95159030.1
2014-Nov-20 05:32N 36°54' E 122°26'30858329.0
2014-Nov-20 05:32N 32°01' E 120°31'801242.5
2014-Nov-20 05:28N 31°14' E 121°47'66116070.4
2014-Nov-20 05:25N 23°03' E 113°30'111.6
2014-Nov-20 05:19N 23°04' E 113°29'64417702.1
2014-Nov-20 05:17N 31°07' E 121°28'6825301.4
2014-Nov-20 05:09N 22°30' E 113°10'70112369.3
2014-Nov-20 05:06N 32°01' E 120°47'69127.7
2014-Nov-20 04:33N 31°02' E 121°29'2340542.6
2014-Nov-20 04:33N 31°18' E 121°47'772812.2
2014-Nov-20 04:32N 32°01' E 120°31'65457462.7
2014-Nov-20 04:31N 23°04' E 113°29'129.7
2014-Nov-20 04:30N 23°04' E 113°30'38684.8
2014-Nov-20 04:27N 22°31' E 113°10'37921.7
2014-Nov-20 04:24N 23°03' E 113°30'6442691.5
2014-Nov-20 04:10N 31°07' E 121°28'651167437.7
2014-Nov-20 04:10N 22°51' E 113°34'41441.7
2014-Nov-20 04:04N 22°10' E 113°31'7091384.2
2014-Nov-20 03:33N 31°24' E 121°47'233210.5
2014-Nov-20 03:33N 31°08' E 121°27'648333233.0
2014-Nov-20 03:33N 22°55' E 113°36'64739498.2
2014-Nov-20 03:32N 31°07' E 121°28'644331167.0
2014-Nov-20 03:32N 23°04' E 113°30'654785079.1
2014-Nov-20 03:32N 32°01' E 120°31'30858304.2
2014-Nov-20 03:31N 36°54' E 122°26'9606778.2
2014-Nov-20 03:23N 22°54' E 113°28'9118.6
2014-Nov-20 03:18N 23°03' E 113°30'6633469.8
2014-Nov-20 03:07N 32°01' E 120°47'66314547.6
2014-Nov-20 03:04N 23°04' E 113°29'6471268.4
2014-Nov-20 02:34N 31°11' E 121°28'24868.4
2014-Nov-20 02:32N 31°28' E 121°47'7218506.8
2014-Nov-20 02:32N 32°01' E 120°31'654181179.2
2014-Nov-20 02:31N 23°04' E 113°30'644144892.5
2014-Nov-20 02:31N 31°07' E 121°28'644210829.6
2014-Nov-20 02:31N 23°04' E 113°29'951263369.0
2014-Nov-20 02:31N 36°54' E 122°26'952131756.0
2014-Nov-20 02:30N 23°03' E 113°30'38343.4
2014-Nov-20 02:24N 22°30' E 113°10'27438.4
2014-Nov-20 02:20N 22°09' E 113°28'1078129372.8
2014-Nov-20 02:20N 38°44' E 121°30'40414850.0
2014-Nov-20 02:18N 32°01' E 120°47'66818366.9
2014-Nov-20 02:16N 23°02' E 113°21'660935.9
2014-Nov-20 01:33N 32°01' E 120°31'6817455.7
2014-Nov-20 01:33N 31°15' E 121°30'68975124.9
2014-Nov-20 01:33N 22°30' E 113°10'385730.9
2014-Nov-20 01:32N 23°05' E 113°27'102690069.8
2014-Nov-20 01:32N 38°44' E 121°29'405486570.5
2014-Nov-20 01:31N 32°01' E 120°31'691177760.8
2014-Nov-20 01:31N 22°17' E 113°35'4114769.2
2014-Nov-20 01:31N 22°58' E 113°30'63039.9
2014-Nov-20 01:31N 23°04' E 113°29'951244559.7
2014-Nov-20 01:31N 36°54' E 122°26'35074095.7
2014-Nov-20 01:30N 31°07' E 121°28'641877.5
2014-Nov-20 01:28N 32°01' E 120°47'706158841.0
2014-Nov-20 01:28N 22°11' E 113°32'706774.9
2014-Nov-20 00:33N 32°01' E 120°47'672604394.7
2014-Nov-20 00:33N 22°55' E 113°27'667141230.2
2014-Nov-20 00:33N 31°46' E 121°00'295762.4
2014-Nov-20 00:33N 32°01' E 120°31'724825.9
2014-Nov-20 00:32N 31°07' E 121°28'727639.7
2014-Nov-20 00:31N 32°01' E 120°31'30828405.3
2014-Nov-20 00:31N 36°54' E 122°26'30626225.1
2014-Nov-20 00:30N 32°04' E 120°27'65526784.3
2014-Nov-20 00:29N 23°04' E 113°29'3877.2
2014-Nov-20 00:28N 23°01' E 113°31'3607.3
2014-Nov-20 00:28N 23°04' E 113°29'501001.3
2014-Nov-20 00:25N 22°14' E 113°36'973.3
2014-Nov-20 00:18N 22°09' E 113°29'271016.2
2014-Nov-20 00:16N 22°30' E 113°10'27451.3
2014-Nov-20 00:13N 22°11' E 113°32'7061083.8
2014-Nov-19 23:34N 32°01' E 120°47'30564492.6
2014-Nov-19 23:33N 36°54' E 122°27'961123575.0
2014-Nov-19 23:33N 22°54' E 113°28'665342200.8
2014-Nov-19 23:33N 31°59' E 120°38'141273.8
2014-Nov-19 23:32N 31°60' E 120°22'7014881.2
2014-Nov-19 23:32N 31°21' E 121°31'141084.6
2014-Nov-19 23:31N 31°07' E 121°28'724340.5
2014-Nov-19 23:30N 32°01' E 120°31'65528051.3
2014-Nov-19 23:29N 23°04' E 113°29'024.5
2014-Nov-19 23:28N 23°04' E 113°29'657157755.1
2014-Nov-19 23:28N 31°50' E 120°54'69516152.7
2014-Nov-19 23:25N 22°30' E 113°10'282046.2
2014-Nov-19 23:24N 22°10' E 113°32'157.4
2014-Nov-19 23:24N 22°11' E 113°32'699838.0
2014-Nov-19 22:33N 31°24' E 121°31'5321041.9
2014-Nov-19 22:33N 32°01' E 120°47'7764.5
2014-Nov-19 22:33N 31°55' E 120°52'1762484.0
2014-Nov-19 22:33N 32°01' E 120°33'65522038.4
2014-Nov-19 22:31N 23°04' E 113°29'546058.7
2014-Nov-19 22:30N 22°10' E 113°32'69937552.7
2014-Nov-19 22:29N 32°01' E 120°31'7228966.1
2014-Nov-19 22:29N 31°07' E 121°28'64461024.1
2014-Nov-19 22:29N 23°04' E 113°29'1881256.7
2014-Nov-19 22:20N 23°18' E 116°53'550494927.0
2014-Nov-19 22:20N 31°57' E 120°17'68217178.0
2014-Nov-19 22:17N 22°30' E 113°10'67911375.2
2014-Nov-19 22:14N 31°56' E 120°13'553825.4
2014-Nov-19 21:33N 23°13' E 116°50'562144557.7
2014-Nov-19 21:33N 32°02' E 120°26'62112435.1
2014-Nov-19 21:33N 31°27' E 121°28'4843435.8
2014-Nov-19 21:33N 32°01' E 120°47'64230718.0
2014-Nov-19 21:33N 31°07' E 121°28'64418853.4
2014-Nov-19 21:31N 23°04' E 113°29'0 8.1
2014-Nov-19 21:29N 23°04' E 113°29'62425249.1
2014-Nov-19 21:27N 29°50' E 122°19'66149538.2
2014-Nov-19 21:26N 22°30' E 113°10'110248365.0
2014-Nov-19 21:25N 39°57' E 119°50'4815412.6
2014-Nov-19 21:20N 31°56' E 120°07'68432389.0
2014-Nov-19 21:18N 22°10' E 113°32'51218.9
2014-Nov-19 21:04N 23°01' E 113°31'6591284.6
2014-Nov-19 20:34N 31°31' E 121°22'249664.0
2014-Nov-19 20:33N 31°07' E 121°28'6413571.6
2014-Nov-19 20:33N 32°01' E 120°47'47416897.9
2014-Nov-19 20:31N 39°53' E 119°48'1059146662.9
2014-Nov-19 20:31N 23°04' E 113°29'64858360.8
2014-Nov-19 20:30N 31°59' E 120°22'64822232.9
2014-Nov-19 20:29N 23°04' E 113°29'6385438.9
2014-Nov-19 20:22N 31°58' E 120°03'67613297.2
2014-Nov-19 20:18N 22°30' E 113°10'289116.5
2014-Nov-19 20:18N 22°10' E 113°32'51335.7
2014-Nov-19 20:09N 23°01' E 113°31'6641117.8
2014-Nov-19 19:34N 32°01' E 120°47'70126284.5
2014-Nov-19 19:32N 22°30' E 113°10'382825.5
2014-Nov-19 19:31N 23°04' E 113°29'645122203.9
2014-Nov-19 19:31N 31°57' E 120°18'782295.1
2014-Nov-19 19:29N 31°07' E 121°28'644193237.7
2014-Nov-19 19:29N 23°04' E 113°29'6595468.0
2014-Nov-19 19:21N 31°36' E 121°17'5 5.8
2014-Nov-19 18:33N 31°39' E 121°13'3113744.6
2014-Nov-19 18:33N 32°01' E 120°47'2184.5
2014-Nov-19 18:33N 32°02' E 120°49'66423675.5
2014-Nov-19 18:31N 23°04' E 113°29'64216279.5
2014-Nov-19 18:29N 31°56' E 120°15'7947531.8
2014-Nov-19 18:28N 31°07' E 121°28'682490902.5
2014-Nov-19 18:28N 22°30' E 113°10'388043.3
2014-Nov-19 18:28N 22°16' E 113°49'511184.6
2014-Nov-19 18:26N 23°04' E 113°29'542508.4
2014-Nov-19 18:24N 22°10' E 113°32'68422189.1
2014-Nov-19 18:22N 32°03' E 119°55'677826.4
2014-Nov-19 17:33N 22°30' E 113°10'381003.1
2014-Nov-19 17:31N 23°04' E 113°29'531931.2
2014-Nov-19 17:29N 22°13' E 113°42'69915070.6
2014-Nov-19 17:27N 32°01' E 120°47'6423091.7
2014-Nov-19 17:26N 31°07' E 121°28'64446376.7
2014-Nov-19 17:26N 23°04' E 113°29'542508.9
2014-Nov-19 17:24N 22°10' E 113°32'6857851.9
2014-Nov-19 17:19N 31°56' E 120°11'661866.8
2014-Nov-19 16:33N 22°26' E 113°53'63929501.2
2014-Nov-19 16:32N 29°46' E 122°29'62946201.7
2014-Nov-19 16:31N 23°04' E 113°29'543728.8
2014-Nov-19 16:30N 22°10' E 113°32'541875.1
2014-Nov-19 16:29N 23°04' E 113°29'66310746.9
2014-Nov-19 16:25N 32°01' E 120°47'70111845.9
2014-Nov-19 16:21N 22°30' E 113°10'3845.8
2014-Nov-19 15:31N 23°04' E 113°29'383737.4
2014-Nov-19 15:30N 22°30' E 113°10'38476.5
2014-Nov-19 15:26N 23°04' E 113°29'94710895.7
2014-Nov-19 15:20N 36°50' E 122°25'346437.9
2014-Nov-19 14:33N 31°07' E 121°28'18935.8
2014-Nov-19 14:32N 31°25' E 121°31'65912228.9
2014-Nov-19 14:29N 23°04' E 113°29'6639899.7
2014-Nov-19 14:25N 32°01' E 120°47'70131151.1
2014-Nov-19 14:23N 22°30' E 113°10'38591.0
2014-Nov-19 14:19N 23°04' E 113°29'6536889.2
2014-Nov-19 14:14N 32°02' E 120°26'6977274.4
2014-Nov-19 14:08N 22°10' E 113°32'7111243.8
2014-Nov-19 13:34N 31°28' E 121°47'7831362.5
2014-Nov-19 13:33N 31°59' E 120°22'21773.6
2014-Nov-19 13:32N 32°01' E 120°47'66317672.5
2014-Nov-19 13:29N 23°04' E 113°29'0 1.6
2014-Nov-19 13:19N 23°04' E 113°29'64412335.1
2014-Nov-19 13:16N 31°07' E 121°28'6855043.3
2014-Nov-19 13:08N 22°10' E 113°32'7071209.9
2014-Nov-19 12:33N 31°21' E 121°48'70794291.1
2014-Nov-19 12:32N 22°09' E 113°32'68579599.4
2014-Nov-19 12:32N 31°07' E 121°28'64412466.8
2014-Nov-19 12:29N 23°04' E 113°29'10881.8
2014-Nov-19 12:28N 22°57' E 113°37'6654776.6
2014-Nov-19 12:20N 32°01' E 120°47'6634385.5
2014-Nov-19 12:11N 23°04' E 113°29'6621062.7
2014-Nov-19 11:33N 31°17' E 121°46'70142065.4
2014-Nov-19 11:32N 22°11' E 113°32'535930.0
2014-Nov-19 11:32N 23°04' E 113°29'66319085.8
2014-Nov-19 11:30N 32°01' E 120°47'643250.7
2014-Nov-19 11:28N 31°07' E 121°28'64457955.1
2014-Nov-19 11:28N 23°04' E 113°30'654720.1
2014-Nov-19 10:33N 32°01' E 120°31'85153105.9
2014-Nov-19 10:33N 31°10' E 121°52'66124274.5
2014-Nov-19 10:32N 23°04' E 113°29'644231902.1
2014-Nov-19 10:31N 31°07' E 121°28'6534629.1
2014-Nov-19 10:23N 22°47' E 113°36'36146.3
2014-Nov-19 10:08N 22°11' E 113°32'7011199.1
2014-Nov-19 09:33N 31°07' E 121°58'66224319.5
2014-Nov-19 09:32N 23°04' E 113°29'64438651.9
2014-Nov-19 09:31N 31°07' E 121°28'7210391.9
2014-Nov-19 09:30N 32°01' E 120°31'65414814.0
2014-Nov-19 09:28N 23°04' E 113°30'54227.1
2014-Nov-19 09:13N 22°11' E 113°34'7051058.4
2014-Nov-19 08:33N 32°01' E 120°47'5613348.8
2014-Nov-19 08:33N 31°21' E 121°32'14914.4
2014-Nov-19 08:32N 31°07' E 121°28'7237168.9
2014-Nov-19 08:32N 32°01' E 120°31'65471380.8
2014-Nov-19 08:32N 23°04' E 113°29'5416259.8
2014-Nov-19 08:31N 22°10' E 113°31'371114.8
2014-Nov-19 08:29N 22°18' E 114°09'35672.4
2014-Nov-19 08:26N 22°11' E 113°32'53293.8
2014-Nov-19 08:16N 23°04' E 113°30'652929.7
2014-Nov-19 07:34N 31°15' E 121°31'6701206009.9
2014-Nov-19 07:33N 22°28' E 113°47'221042.8
2014-Nov-19 07:32N 22°11' E 113°32'535124.9
2014-Nov-19 07:32N 23°04' E 113°29'64334036.7
2014-Nov-19 07:30N 30°51' E 121°46'65131239.6
2014-Nov-19 07:29N 23°04' E 113°17'65254568.6
2014-Nov-19 07:29N 31°07' E 121°28'66592113.9
2014-Nov-19 07:28N 22°26' E 113°45'404695.3
2014-Nov-19 07:28N 23°04' E 113°30'638208945.1
2014-Nov-19 07:27N 32°03' E 119°55'6403601.1
2014-Nov-19 07:17N 23°01' E 113°31'645893.7
2014-Nov-19 06:33N 30°50' E 121°49'284313.7
2014-Nov-19 06:33N 31°11' E 121°28'64727711.0
2014-Nov-19 06:32N 23°04' E 113°29'64455214.0
2014-Nov-19 06:31N 31°07' E 121°28'724565.0
2014-Nov-19 06:30N 31°55' E 120°25'4115685.7
2014-Nov-19 06:26N 38°43' E 121°30'106218930.0
2014-Nov-19 06:22N 22°20' E 113°41'9317.6
2014-Nov-19 06:21N 22°28' E 113°47'6628963.8
2014-Nov-19 06:16N 32°03' E 119°55'63871824.3
2014-Nov-19 06:16N 23°04' E 113°30'315.6
2014-Nov-19 06:05N 23°01' E 113°31'4688.5
2014-Nov-19 05:33N 22°16' E 113°39'675221060.8
2014-Nov-19 05:33N 30°48' E 121°51'125149880.5
2014-Nov-19 05:33N 32°03' E 119°55'407209130.2
2014-Nov-19 05:33N 38°42' E 121°31'409735471.1
2014-Nov-19 05:33N 31°58' E 120°23'6487064.6
2014-Nov-19 05:28N 23°04' E 113°30'6399199.6
2014-Nov-19 05:23N 31°57' E 120°06'663149178.1
2014-Nov-19 05:23N 22°27' E 113°47'414751.4
2014-Nov-19 05:23N 23°04' E 113°29'331.0
2014-Nov-19 05:17N 23°01' E 113°31'10278697.0
2014-Nov-19 05:09N 38°42' E 121°29'478791.6
2014-Nov-19 04:33N 30°45' E 121°54'11313529.2
2014-Nov-19 04:33N 31°57' E 120°12'433103829.5
2014-Nov-19 04:33N 38°55' E 117°55'43316576.2
2014-Nov-19 04:31N 32°01' E 120°31'696131918.0
2014-Nov-19 04:31N 22°10' E 113°37'1072428898.6
2014-Nov-19 04:30N 38°42' E 121°30'10541897187.4
2014-Nov-19 04:30N 22°27' E 113°47'68527414.2
2014-Nov-19 04:29N 32°01' E 120°47'6634252.4
2014-Nov-19 04:20N 23°04' E 113°29'43399.4
2014-Nov-19 04:13N 22°27' E 113°53'434685.8
2014-Nov-19 04:13N 23°04' E 113°30'331.0
2014-Nov-19 04:07N 23°01' E 113°31'6641185.9
2014-Nov-19 03:33N 32°01' E 120°47'708364164.7
2014-Nov-19 03:33N 22°09' E 113°30'5549597.3
2014-Nov-19 03:33N 23°05' E 113°28'636381307.6
2014-Nov-19 03:33N 30°59' E 121°22'37134043.0
2014-Nov-19 03:33N 30°57' E 122°06'153266.8
2014-Nov-19 03:33N 30°44' E 121°58'1072918.6
2014-Nov-19 03:31N 32°01' E 120°31'678174257.2
2014-Nov-19 03:30N 22°27' E 113°47'36448.6
2014-Nov-19 03:26N 23°00' E 113°32'15621.8
2014-Nov-19 03:24N 23°04' E 113°16'1255.0
2014-Nov-19 03:11N 23°04' E 113°29'6631068.9
2014-Nov-19 02:33N 32°01' E 120°47'10045030.9
2014-Nov-19 02:33N 30°45' E 122°03'7159.4
2014-Nov-19 02:31N 30°51' E 122°08'1091076.1
2014-Nov-19 02:25N 32°01' E 120°32'661139875.8
2014-Nov-19 02:24N 23°03' E 113°19'9337.2
2014-Nov-19 02:23N 23°04' E 113°29'6658340.1
2014-Nov-19 02:18N 32°02' E 120°50'61934.4
2014-Nov-19 02:14N 31°10' E 121°28'4059.3
2014-Nov-19 01:33N 30°49' E 122°08'109393063.6
2014-Nov-19 01:33N 32°01' E 120°32'65522023.0
2014-Nov-19 01:32N 23°04' E 113°29'66528160.2
2014-Nov-19 01:30N 32°02' E 120°50'68663360.3
2014-Nov-19 01:30N 22°24' E 113°54'6684781.4
2014-Nov-19 01:21N 31°13' E 121°30'4486044.9
2014-Nov-19 01:17N 38°42' E 121°29'107635856.9
2014-Nov-19 01:15N 22°09' E 113°28'68915023.4
2014-Nov-19 01:12N 31°08' E 121°27'4544788.4
2014-Nov-19 01:06N 38°42' E 121°30'40612933.2
2014-Nov-19 01:05N 32°03' E 119°55'4485.6
2014-Nov-19 00:33N 32°01' E 120°47'9738754.2
2014-Nov-19 00:33N 30°55' E 122°10'698167573.8
2014-Nov-19 00:33N 22°11' E 113°34'532235.8
2014-Nov-19 00:32N 23°04' E 113°29'66541993.0
2014-Nov-19 00:31N 32°02' E 120°50'3 2.7
2014-Nov-18 23:33N 32°01' E 120°47'93335330.7
2014-Nov-18 23:33N 30°59' E 122°09'9282781.0
2014-Nov-18 23:33N 32°02' E 120°50'70666895.9
2014-Nov-18 23:33N 22°12' E 113°34'43560.3
2014-Nov-18 23:28N 22°54' E 113°22'12127.5
2014-Nov-18 23:23N 23°04' E 113°29'6576495.4
2014-Nov-18 23:17N 31°21' E 121°33'2433.1
2014-Nov-18 22:33N 31°17' E 121°05'4733549.7
2014-Nov-18 22:33N 32°01' E 120°47'672241993.3
2014-Nov-18 22:33N 22°55' E 113°26'432679.3
2014-Nov-18 22:32N 22°12' E 113°34'700503835.1
2014-Nov-18 22:32N 31°02' E 122°05'66388389.7
2014-Nov-18 22:32N 23°04' E 113°29'65630280.7
2014-Nov-18 22:30N 31°22' E 121°30'102603.8
2014-Nov-18 22:20N 29°49' E 122°20'163208.7
2014-Nov-18 21:33N 31°58' E 120°23'690207014.4
2014-Nov-18 21:33N 22°12' E 113°34'4225265.8
2014-Nov-18 21:33N 22°54' E 113°30'304495.9
2014-Nov-18 21:33N 22°29' E 113°49'67597158.4
2014-Nov-18 21:32N 31°24' E 121°31'535747.8
2014-Nov-18 21:32N 32°01' E 120°47'239.5
2014-Nov-18 21:29N 31°60' E 120°49'821041.2
2014-Nov-18 21:24N 31°05' E 122°00'6766071.8
2014-Nov-18 21:18N 22°27' E 113°53'2330.8
2014-Nov-18 20:33N 22°12' E 113°34'686617847.2
2014-Nov-18 20:33N 31°57' E 120°17'653130500.5
2014-Nov-18 20:33N 22°52' E 113°33'66657096.0
2014-Nov-18 20:32N 31°27' E 121°28'659148240.0
2014-Nov-18 20:32N 23°04' E 113°29'6165328.7
2014-Nov-18 20:25N 29°41' E 122°15'1875253.0
2014-Nov-18 20:23N 32°03' E 119°55'4454.2
2014-Nov-18 19:33N 32°01' E 120°47'70497498.5
2014-Nov-18 19:33N 22°12' E 113°34'68216146.2
2014-Nov-18 19:30N 32°03' E 119°55'827785.5
2014-Nov-18 19:30N 31°30' E 121°23'6736732.1
2014-Nov-18 19:24N 22°33' E 113°48'6246929.9
2014-Nov-18 19:18N 29°42' E 122°12'6154767.9
2014-Nov-18 19:11N 23°04' E 113°29'12155.3
2014-Nov-18 19:06N 22°54' E 113°22'4461.6
2014-Nov-18 18:23N 22°12' E 113°34'534508.7
2014-Nov-18 18:23N 23°04' E 113°29'61813652.0
2014-Nov-18 18:20N 29°36' E 122°22'1400.7
2014-Nov-18 18:20N 29°36' E 122°22'54815300.0
2014-Nov-18 18:18N 38°43' E 121°35'4044187.9
2014-Nov-18 18:12N 32°01' E 120°47'67911204.8
2014-Nov-18 18:08N 22°54' E 113°15'463080.6
2014-Nov-18 18:07N 22°11' E 113°32'  
Track history (hours):
 
Tides and Currents Weather Stations Pressure Air Temp Water Temp Dewpoint Dewpoint Depression Visibility Wind Speed Wind Dir Waves Ship Positions

Callsign 000000 (name unknown)

Last reported at 2014-Nov-28 17:33 UTC. Time now 2014-Nov-28 18:16 UTC.
Position N 32°00' E 120°21'.

Type: Fishing. MMSI: 200007452.

Date/timePositionNaut miles runAvg speedWind from/ knotsBaromVisibWave heightAir tempDewpointWater temp
2014-Nov-28 17:33N 32°00' E 120°21'7910986.2
2014-Nov-28 17:33N 31°05' E 121°28'8329799.9
2014-Nov-28 17:33N 31°56' E 120°12'1674913.5
2014-Nov-28 17:31N 29°53' E 122°22'152691.5
2014-Nov-28 17:18N 32°01' E 120°47'1679.5
2014-Nov-28 17:06N 31°47' E 120°55'3259.3
2014-Nov-28 16:33N 32°00' E 120°21'7910578.7
2014-Nov-28 16:33N 31°05' E 121°28'64328558.8
2014-Nov-28 16:31N 23°04' E 113°30'66222497.0
2014-Nov-28 16:30N 32°01' E 120°47'70944012.3
2014-Nov-28 16:29N 22°06' E 113°33'68955100.7
2014-Nov-28 16:28N 31°56' E 120°12'1711337.7
2014-Nov-28 16:20N 29°42' E 122°14'6232496.7
2014-Nov-28 16:05N 22°42' E 113°41'6531224.5
2014-Nov-28 15:33N 31°05' E 121°28'795388.9
2014-Nov-28 15:32N 32°00' E 120°21'226504.8
2014-Nov-28 15:32N 32°01' E 120°47'307205.4
2014-Nov-28 15:32N 31°56' E 120°12'6473335.0
2014-Nov-28 15:20N 23°03' E 113°21'8552.9
2014-Nov-28 15:19N 23°04' E 113°30'6553129.4
2014-Nov-28 15:07N 31°47' E 120°55'6591179.5
2014-Nov-28 14:33N 23°03' E 113°25'65280949.3
2014-Nov-28 14:33N 32°00' E 120°21'93524.4
2014-Nov-28 14:33N 31°56' E 120°12'642770306.6
2014-Nov-28 14:33N 23°02' E 113°31'64357888.2
2014-Nov-28 14:32N 31°05' E 121°28'661468.0
2014-Nov-28 14:29N 32°01' E 120°47'16111.2
2014-Nov-28 14:21N 31°47' E 120°55'5063.4
2014-Nov-28 13:33N 31°05' E 121°28'7910580.3
2014-Nov-28 13:33N 32°00' E 120°21'3351.3
2014-Nov-28 13:32N 31°58' E 120°18'65367176.0
2014-Nov-28 13:32N 22°55' E 113°30'66356790.4
2014-Nov-28 13:31N 31°47' E 120°55'656590061.7
2014-Nov-28 13:31N 23°04' E 113°29'66326502.0
2014-Nov-28 13:29N 32°01' E 120°47'52930202.8
2014-Nov-28 13:28N 23°40' E 117°37'7 7.7
2014-Nov-28 12:33N 23°44' E 117°43'518124279.4
2014-Nov-28 12:33N 32°02' E 120°26'4398.1
2014-Nov-28 12:33N 32°00' E 120°21'649129758.2
2014-Nov-28 12:32N 23°04' E 113°30'642578240.4
2014-Nov-28 12:32N 31°05' E 121°28'661702.7
2014-Nov-28 12:30N 32°01' E 120°48'16314.7
2014-Nov-28 12:27N 31°47' E 120°55'6683027.9
2014-Nov-28 12:14N 22°54' E 113°22'668977.6
2014-Nov-28 11:33N 32°01' E 120°34'111855.4
2014-Nov-28 11:32N 32°00' E 120°21'8153.9
2014-Nov-28 11:29N 31°57' E 120°14'48439.4
2014-Nov-28 11:23N 31°42' E 121°08'65916027.2
2014-Nov-28 11:20N 23°04' E 113°30'65525927.7
2014-Nov-28 11:19N 31°47' E 120°55'67110594.1
2014-Nov-28 11:15N 22°38' E 113°41'67726508.1
2014-Nov-28 11:14N 31°57' E 120°52'2741.1
2014-Nov-28 10:33N 31°59' E 120°20'292288.6
2014-Nov-28 10:33N 31°53' E 120°54'70614035.9
2014-Nov-28 10:30N 22°06' E 113°33'322654.9
2014-Nov-28 10:29N 22°38' E 113°41'665126089.7
2014-Nov-28 10:29N 32°00' E 120°21'19839.0
2014-Nov-28 10:27N 32°01' E 120°44'671304.2
2014-Nov-28 10:24N 31°05' E 121°28'35211827.3
2014-Nov-28 10:22N 36°53' E 122°26'95027816.9
2014-Nov-28 10:20N 23°04' E 113°30'653834.4
2014-Nov-28 09:33N 32°03' E 120°26'307184173.2
2014-Nov-28 09:33N 36°52' E 122°32'95261188.6
2014-Nov-28 09:32N 23°04' E 113°30'64947669.1
2014-Nov-28 09:32N 32°00' E 120°21'33866.6
2014-Nov-28 09:29N 31°47' E 120°57'226.2
2014-Nov-28 09:26N 31°47' E 120°55'11108.0
2014-Nov-28 09:20N 31°57' E 120°52'6011454.7
2014-Nov-28 09:19N 31°05' E 121°28'0 0.0
2014-Nov-28 08:33N 31°05' E 121°28'794933.0
2014-Nov-28 08:32N 32°00' E 120°21'10748145.0
2014-Nov-28 08:32N 30°59' E 122°04'1038418.5
2014-Nov-28 08:31N 32°04' E 120°31'35939.2
2014-Nov-28 08:29N 31°45' E 121°06'910670.0
2014-Nov-28 08:29N 31°47' E 120°55'1516.2
2014-Nov-28 07:33N 31°41' E 121°12'471946.8
2014-Nov-28 07:31N 32°00' E 120°21'11595.7
2014-Nov-28 07:30N 32°02' E 120°35'735720.0
2014-Nov-28 07:29N 31°05' E 121°28'93699.2
2014-Nov-28 07:21N 31°60' E 120°00'42892.0
2014-Nov-28 07:18N 31°58' E 120°50'12171.2
2014-Nov-28 07:14N 31°47' E 120°55'2131.1
2014-Nov-28 06:33N 31°37' E 121°17'666831.9
2014-Nov-28 06:33N 31°58' E 120°03'16601.0
2014-Nov-28 06:31N 32°00' E 120°21'25427.7
2014-Nov-28 06:28N 31°58' E 120°50'72258554.2
2014-Nov-28 06:28N 31°09' E 121°52'21297.4
2014-Nov-28 06:24N 31°05' E 121°28'622100.3
2014-Nov-28 06:22N 31°58' E 120°51'6681.3
2014-Nov-28 05:33N 31°13' E 121°48'303948.4
2014-Nov-28 05:33N 31°32' E 121°21'181219.7
2014-Nov-28 05:32N 31°21' E 121°37'221572.8
2014-Nov-28 05:31N 31°00' E 121°29'8359955.4
2014-Nov-28 05:31N 32°00' E 120°21'25451.7
2014-Nov-28 05:28N 31°58' E 120°50'2224.5
2014-Nov-28 04:34N 31°58' E 120°24'35801.5
2014-Nov-28 04:34N 32°00' E 120°21'8423343.7
2014-Nov-28 04:33N 31°18' E 121°47'231381.6
2014-Nov-28 04:32N 31°29' E 121°23'404268.7
2014-Nov-28 04:32N 31°58' E 120°50'621380.7
2014-Nov-28 04:29N 31°05' E 121°28'50299.6
2014-Nov-28 04:19N 31°47' E 120°55'5065.9
2014-Nov-28 03:33N 31°05' E 121°28'2623358.8
2014-Nov-28 03:33N 31°27' E 121°44'3621380.1
2014-Nov-28 03:33N 30°59' E 121°19'833626.9
2014-Nov-28 03:32N 31°57' E 120°10'342109.1
2014-Nov-28 03:31N 31°58' E 120°50'258852.2
2014-Nov-28 03:31N 32°00' E 120°21'321557.7
2014-Nov-28 03:29N 31°47' E 120°55'3013289.4
2014-Nov-28 03:29N 31°29' E 121°23'656866.4
2014-Nov-28 03:29N 31°56' E 120°14'42846689.0
2014-Nov-28 03:28N 24°52' E 119°05'8271.1
2014-Nov-28 03:26N 24°51' E 118°56'34915920.3
2014-Nov-28 03:25N 29°53' E 122°13'46419001.9
2014-Nov-28 03:24N 37°36' E 121°22'9629439.8
2014-Nov-28 03:17N 23°04' E 113°30'649878.4
2014-Nov-28 02:33N 32°00' E 120°21'71785.8
2014-Nov-28 02:33N 31°57' E 120°15'304043.5
2014-Nov-28 02:32N 31°58' E 120°50'43736599.5
2014-Nov-28 02:32N 24°51' E 119°05'40115053.6
2014-Nov-28 02:30N 31°12' E 121°29'38440665.0
2014-Nov-28 02:30N 37°36' E 121°22'36624885.3
2014-Nov-28 02:29N 31°29' E 121°23'3319679.9
2014-Nov-28 02:27N 36°56' E 122°28'3548913.7
2014-Nov-28 02:24N 31°05' E 121°28'64330052.5
2014-Nov-28 02:23N 23°04' E 113°29'6567088.4
2014-Nov-28 02:17N 31°47' E 120°55'6914176.2
2014-Nov-28 02:08N 22°17' E 113°36'339598.6
2014-Nov-28 01:34N 24°51' E 119°05'774103136.8
2014-Nov-28 01:33N 37°35' E 121°24'339304697.8
2014-Nov-28 01:33N 31°58' E 120°50'621060.1
2014-Nov-28 01:30N 31°05' E 121°28'501042.8
2014-Nov-28 01:27N 31°47' E 120°55'9522.6
2014-Nov-28 01:26N 31°47' E 121°06'31613366.8
2014-Nov-28 01:24N 36°56' E 122°28'95446387.9
2014-Nov-28 01:23N 23°04' E 113°29'411206.7
2014-Nov-28 01:21N 22°28' E 113°49'1989.6
2014-Nov-28 01:08N 22°13' E 113°36'68358556.0
2014-Nov-28 01:08N 31°57' E 120°15'103180.9
2014-Nov-28 00:33N 30°50' E 121°47'2213150.3
2014-Nov-28 00:33N 31°05' E 121°28'8047911.7
2014-Nov-28 00:33N 31°59' E 120°19'668126504.4
2014-Nov-28 00:33N 22°28' E 113°49'67681060.8
2014-Nov-28 00:32N 31°47' E 120°55'31895394.4
2014-Nov-28 00:32N 36°55' E 122°28'953285963.4
2014-Nov-28 00:32N 23°04' E 113°29'96650388.1
2014-Nov-28 00:31N 37°41' E 121°19'34325754.9
2014-Nov-28 00:30N 32°00' E 120°21'25632.3
2014-Nov-28 00:28N 31°58' E 120°50'438143433.3
2014-Nov-28 00:28N 24°50' E 119°04'4403374.6
2014-Nov-28 00:20N 32°02' E 120°35'531056.9
2014-Nov-28 00:17N 31°29' E 121°23'4663.9
2014-Nov-27 23:33N 30°49' E 121°50'1027665.6
2014-Nov-27 23:33N 32°01' E 120°25'35966.8
2014-Nov-27 23:33N 32°00' E 120°21'64963149.2
2014-Nov-27 23:32N 23°04' E 113°29'64322250.4
2014-Nov-27 23:30N 31°05' E 121°28'251226.7
2014-Nov-27 23:29N 31°29' E 121°23'4011926.3
2014-Nov-27 23:29N 31°58' E 120°51'12110.5
2014-Nov-27 23:22N 31°47' E 120°55'6768328.3
2014-Nov-27 23:17N 22°28' E 113°49'6445753.4
2014-Nov-27 23:11N 31°06' E 120°58'39120686.6
2014-Nov-27 23:10N 24°48' E 119°03'84212169.0
2014-Nov-27 23:05N 38°41' E 121°31'474886.6
2014-Nov-27 22:33N 30°47' E 121°52'38966612.2
2014-Nov-27 22:33N 24°48' E 119°03'430119036.6
2014-Nov-27 22:33N 31°47' E 120°55'2510053.4
2014-Nov-27 22:33N 32°02' E 120°32'93225.8
2014-Nov-27 22:32N 32°00' E 120°21'619595.1
2014-Nov-27 22:32N 31°29' E 121°23'676187233.3
2014-Nov-27 22:32N 22°28' E 113°49'66011154.4
2014-Nov-27 22:28N 31°05' E 121°28'6211707.3
2014-Nov-27 22:28N 31°58' E 120°51'40715581.6
2014-Nov-27 22:26N 38°44' E 121°27'54123479.9
2014-Nov-27 22:25N 29°45' E 122°22'62318082.6
2014-Nov-27 22:23N 23°04' E 113°29'41154.7
2014-Nov-27 22:07N 22°27' E 113°46'6621177.4
2014-Nov-27 21:33N 30°44' E 121°55'928679.0
2014-Nov-27 21:33N 31°58' E 120°51'262879.1
2014-Nov-27 21:32N 32°00' E 120°21'649106205.5
2014-Nov-27 21:32N 23°04' E 113°29'65612968.7
2014-Nov-27 21:29N 31°47' E 120°55'308205.8
2014-Nov-27 21:29N 31°29' E 121°23'231907.3
2014-Nov-27 21:28N 31°46' E 121°04'251044.2
2014-Nov-27 21:27N 32°00' E 120°40'4388089.2
2014-Nov-27 21:23N 24°50' E 119°03'3962938.0
2014-Nov-27 21:15N 31°05' E 121°28'3448.8
2014-Nov-27 20:33N 30°44' E 121°59'9556704.2
2014-Nov-27 20:33N 31°58' E 120°51'6218531.9
2014-Nov-27 20:33N 31°05' E 121°28'798670.2
2014-Nov-27 20:32N 32°00' E 120°21'6144135.1
2014-Nov-27 20:32N 31°29' E 121°23'658197366.9
2014-Nov-27 20:32N 23°04' E 113°29'660131933.2
2014-Nov-27 20:32N 31°42' E 121°10'301097.3
2014-Nov-27 20:30N 32°02' E 120°44'44137792.4
2014-Nov-27 20:29N 24°50' E 119°03'42845292.6
2014-Nov-27 20:29N 31°47' E 120°55'1213.0
2014-Nov-27 19:33N 31°58' E 120°51'9515615.0
2014-Nov-27 19:33N 30°46' E 122°04'563647.6
2014-Nov-27 19:32N 31°29' E 121°23'61220686.8
2014-Nov-27 19:32N 32°00' E 120°21'792532.0
2014-Nov-27 19:30N 31°05' E 121°28'3995990.3
2014-Nov-27 19:26N 24°51' E 118°51'3125624.9
2014-Nov-27 19:23N 23°04' E 113°29'656295059.6
2014-Nov-27 19:23N 31°47' E 120°55'4284625.0
2014-Nov-27 19:17N 24°50' E 119°03'438594.5
2014-Nov-27 18:33N 31°58' E 120°51'124343.1
2014-Nov-27 18:33N 31°47' E 120°55'5045114.9
2014-Nov-27 18:33N 31°05' E 121°28'252598.4
2014-Nov-27 18:32N 31°29' E 121°23'4188444.0
2014-Nov-27 18:29N 24°50' E 119°03'3249252.4
2014-Nov-27 18:27N 22°27' E 113°46'32173.2
2014-Nov-27 18:16N 22°54' E 113°28'1074.3
2014-Nov-27 18:08N 23°04' E 113°29'6491078.7
2014-Nov-27 17:32N 32°00' E 120°21'792087.1
2014-Nov-27 17:30N 31°05' E 121°28'8616228.9
2014-Nov-27 17:29N 29°53' E 122°22'351420810.1
2014-Nov-27 17:29N 24°51' E 119°03'35017029.9
2014-Nov-27 17:28N 29°53' E 122°22'1093666.5
2014-Nov-27 17:26N 31°29' E 121°23'10918645.8
2014-Nov-27 17:26N 29°51' E 122°17'1083.5
2014-Nov-27 17:19N 29°42' E 122°12'6293917.7
2014-Nov-27 17:09N 22°27' E 113°46'67816156.8
2014-Nov-27 17:07N 31°47' E 120°55'0 0.0
2014-Nov-27 16:33N 31°47' E 120°55'131436.6
2014-Nov-27 16:32N 31°59' E 120°50'6312601.9
2014-Nov-27 16:32N 31°05' E 121°28'643165294.1
2014-Nov-27 16:32N 23°04' E 113°29'649259617.4
2014-Nov-27 16:32N 32°00' E 120°21'43510518.5
2014-Nov-27 16:29N 24°51' E 119°03'41740611.0
2014-Nov-27 16:29N 31°29' E 121°23'1071727.5
2014-Nov-27 16:25N 29°54' E 122°21'3 9.0
2014-Nov-27 16:08N 29°52' E 122°22'1622642.5
2014-Nov-27 16:04N 32°02' E 120°29'2752.6
2014-Nov-27 15:33N 31°47' E 120°55'5036084.7
2014-Nov-27 15:33N 31°05' E 121°28'241916.2
2014-Nov-27 15:32N 31°29' E 121°23'4178122.1
2014-Nov-27 15:29N 24°51' E 119°03'43568139.9
2014-Nov-27 15:29N 32°00' E 120°21'1651466.0
2014-Nov-27 15:22N 29°51' E 122°22'62717108.3
2014-Nov-27 15:20N 23°04' E 113°29'31916170.1
2014-Nov-27 15:19N 24°47' E 118°59'432561.9
2014-Nov-27 14:33N 31°47' E 120°55'35534526.1
2014-Nov-27 14:32N 37°41' E 121°19'39654827.3
2014-Nov-27 14:32N 31°05' E 121°28'7957183.9
2014-Nov-27 14:32N 32°00' E 120°21'611781.5
2014-Nov-27 14:29N 31°29' E 121°23'417136596.9
2014-Nov-27 14:29N 24°51' E 119°03'3236568.7
2014-Nov-27 14:26N 23°00' E 113°31'6605068.8
2014-Nov-27 14:18N 31°24' E 121°31'67823690.3
2014-Nov-27 14:17N 22°27' E 113°47'662913.3
2014-Nov-27 13:33N 31°05' E 121°28'39182709.6
2014-Nov-27 13:33N 37°36' E 121°26'36641222.4
2014-Nov-27 13:32N 31°29' E 121°23'66523703.8
2014-Nov-27 13:31N 22°54' E 113°31'37720259.2
2014-Nov-27 13:30N 25°45' E 119°39'648841.6
2014-Nov-27 13:29N 24°50' E 119°03'43535625.1
2014-Nov-27 13:29N 32°00' E 120°21'32960.0
2014-Nov-27 13:27N 31°47' E 120°55'3032.9
2014-Nov-27 12:33N 31°29' E 121°23'81699.1
2014-Nov-27 12:32N 31°23' E 121°29'182062.6
2014-Nov-27 12:32N 31°05' E 121°28'7318775.6
2014-Nov-27 12:31N 32°02' E 120°35'23539.3
2014-Nov-27 12:29N 31°47' E 120°55'324121.0
2014-Nov-27 12:28N 32°00' E 120°21'4355190.5
2014-Nov-27 12:23N 24°50' E 119°03'4312535.8
2014-Nov-27 12:13N 31°48' E 121°06'913.5
2014-Nov-27 11:33N 31°47' E 120°55'301909.8
2014-Nov-27 11:33N 31°29' E 121°23'612540.7
2014-Nov-27 11:31N 32°00' E 120°21'43514380.8
2014-Nov-27 11:29N 24°50' E 119°03'41124257.6
2014-Nov-27 11:28N 31°21' E 121°27'161180.0
2014-Nov-27 11:27N 31°05' E 121°28'0 0.0
2014-Nov-27 10:33N 31°05' E 121°28'255892.0
2014-Nov-27 10:33N 31°29' E 121°23'612185.1
2014-Nov-27 10:31N 32°00' E 120°21'32114662.0
2014-Nov-27 10:31N 31°47' E 120°55'37358.6
2014-Nov-27 10:25N 31°21' E 121°27'41117409.1
2014-Nov-27 10:23N 24°50' E 119°03'3331244.5
2014-Nov-27 10:07N 22°54' E 113°22'3 5.4
2014-Nov-27 09:33N 22°55' E 113°26'658338285.9
2014-Nov-27 09:33N 31°59' E 120°21'121212.8
2014-Nov-27 09:33N 32°02' E 120°35'537937.6
2014-Nov-27 09:32N 31°29' E 121°23'256803.4
2014-Nov-27 09:32N 31°05' E 121°28'39664758.2
2014-Nov-27 09:32N 24°50' E 119°03'439175683.7
2014-Nov-27 09:31N 32°00' E 120°47'511455.8
2014-Nov-27 09:29N 31°21' E 121°27'37891.6
2014-Nov-27 09:27N 31°47' E 120°55'4336231.5
2014-Nov-27 09:23N 24°46' E 118°60'8493226.2
2014-Nov-27 09:07N 38°46' E 121°26'406730.4
2014-Nov-27 08:34N 32°01' E 120°47'1527870.3
2014-Nov-27 08:33N 32°04' E 120°29'666140998.5
2014-Nov-27 08:33N 22°55' E 113°25'6542355167.2
2014-Nov-27 08:33N 31°08' E 121°27'660263946.1
2014-Nov-27 08:33N 22°28' E 113°52'37661483.8
2014-Nov-27 08:33N 26°03' E 119°30'7769736.3
2014-Nov-27 08:33N 24°50' E 119°03'41865484.8
2014-Nov-27 08:32N 31°29' E 121°23'6124265.1
2014-Nov-27 08:32N 31°59' E 120°21'65681402.8
2014-Nov-27 08:32N 22°52' E 113°32'664140523.2
2014-Nov-27 08:31N 31°47' E 120°55'37514.2
2014-Nov-27 08:27N 31°21' E 121°27'66818794.2
2014-Nov-27 08:25N 22°45' E 113°31'8135.3
2014-Nov-27 08:21N 22°52' E 113°34'6483277.9
2014-Nov-27 08:10N 31°57' E 120°10'64923127.1
2014-Nov-27 08:08N 22°53' E 113°31'97213161.3
2014-Nov-27 08:03N 36°59' E 122°45'3 6.9
2014-Nov-27 07:33N 36°57' E 122°42'34996595.6
2014-Nov-27 07:33N 31°13' E 121°30'92226.2
2014-Nov-27 07:33N 31°21' E 121°27'37133771.3
2014-Nov-27 07:33N 31°47' E 120°55'35785723.5
2014-Nov-27 07:33N 25°58' E 119°25'34749933.4
2014-Nov-27 07:32N 31°29' E 121°23'619505.2
2014-Nov-27 07:32N 31°59' E 120°21'22222.4
2014-Nov-27 07:26N 32°01' E 120°47'440105681.2
2014-Nov-27 07:26N 24°50' E 119°04'3351703.4
2014-Nov-27 07:14N 22°45' E 113°24'103349.3
2014-Nov-27 07:14N 22°53' E 113°31'9631430.9
2014-Nov-27 06:33N 36°53' E 122°35'31823813.6
2014-Nov-27 06:32N 31°47' E 120°55'3021385.2
2014-Nov-27 06:32N 31°29' E 121°23'614968.9
2014-Nov-27 06:32N 31°59' E 120°21'682456.1
2014-Nov-27 06:30N 31°21' E 121°27'521493.0
2014-Nov-27 06:28N 32°01' E 120°47'1729840.7
2014-Nov-27 06:28N 32°04' E 120°28'6735794.9
2014-Nov-27 06:21N 22°48' E 113°21'11282.3
2014-Nov-27 06:19N 22°53' E 113°31'666864.7
2014-Nov-27 05:32N 31°29' E 121°23'445498.1
2014-Nov-27 05:32N 32°01' E 120°47'548899.6
2014-Nov-27 05:32N 31°21' E 121°31'7050525.6
2014-Nov-27 05:31N 31°59' E 120°21'31220446.4
2014-Nov-27 05:31N 36°53' E 122°28'33557491.7
2014-Nov-27 05:30N 31°21' E 121°27'37509.2
2014-Nov-27 05:26N 31°47' E 120°55'66433212.8
2014-Nov-27 05:25N 22°54' E 113°28'1698.8
2014-Nov-27 05:15N 23°07' E 113°38'64911174.5
2014-Nov-27 05:12N 32°04' E 120°28'812.8
2014-Nov-27 04:33N 31°59' E 120°21'8734.0
2014-Nov-27 04:33N 32°04' E 120°28'661559.9
2014-Nov-27 04:30N 31°25' E 121°30'519216.2
2014-Nov-27 04:30N 32°01' E 120°47'43792638.0
2014-Nov-27 04:30N 24°52' E 119°07'414248694.9
2014-Nov-27 04:29N 31°29' E 121°23'433130043.6
2014-Nov-27 04:29N 38°43' E 121°36'41730655.3
2014-Nov-27 04:28N 31°47' E 120°55'6642268.0
2014-Nov-27 04:11N 22°51' E 113°34'6625307.0
2014-Nov-27 04:03N 31°21' E 121°27'68134.1
2014-Nov-27 03:33N 31°59' E 120°21'228946.3
2014-Nov-27 03:33N 32°01' E 120°47'444981.2
2014-Nov-27 03:33N 31°29' E 121°23'42829063.0
2014-Nov-27 03:32N 24°42' E 118°56'43823881.5
2014-Nov-27 03:31N 31°47' E 120°55'4266500.3
2014-Nov-27 03:27N 24°51' E 119°08'4092999.7
2014-Nov-27 03:18N 31°21' E 121°27'66409.6
2014-Nov-27 03:09N 32°04' E 120°28'402679.9
2014-Nov-27 02:33N 38°43' E 121°31'40873522.9
2014-Nov-27 02:33N 31°59' E 120°21'222609.0
2014-Nov-27 02:32N 32°01' E 120°47'169562.0
2014-Nov-27 02:32N 31°47' E 120°55'656157463.0
2014-Nov-27 02:32N 23°03' E 113°31'65998849.7
2014-Nov-27 02:32N 31°29' E 121°25'8450.1
2014-Nov-27 02:31N 31°21' E 121°27'21402.7
2014-Nov-27 02:27N 31°00' E 121°26'3962671.2
2014-Nov-27 02:18N 24°43' E 119°08'329438.2
2014-Nov-27 01:33N 23°04' E 113°25'65049764.7
2014-Nov-27 01:33N 31°59' E 120°21'623887.3
2014-Nov-27 01:32N 31°29' E 121°25'66759989.1
2014-Nov-27 01:31N 22°51' E 113°34'32913776.0
2014-Nov-27 01:30N 24°52' E 119°08'42558869.2
2014-Nov-27 01:29N 31°47' E 120°55'1619117.4
2014-Nov-27 01:29N 32°01' E 120°47'391883.0
2014-Nov-27 01:28N 31°58' E 120°02'82785.8
2014-Nov-27 01:22N 31°21' E 121°27'66532.3
2014-Nov-27 01:14N 32°04' E 120°28'6645012.4
2014-Nov-27 01:06N 22°51' E 113°34'6561199.4
2014-Nov-27 00:33N 31°59' E 120°21'323258.4
2014-Nov-27 00:33N 31°47' E 120°55'422776.1
2014-Nov-27 00:32N 31°57' E 120°08'7123187.3
2014-Nov-27 00:32N 31°29' E 121°25'66749006.1
2014-Nov-27 00:31N 22°54' E 113°28'662132486.5
2014-Nov-27 00:31N 31°21' E 121°27'22279.6
2014-Nov-27 00:26N 30°60' E 121°23'69500.3
2014-Nov-27 00:18N 32°01' E 120°47'2230.4
2014-Nov-26 23:33N 31°59' E 120°21'321440.9
2014-Nov-26 23:32N 31°47' E 120°55'301136.1
2014-Nov-26 23:30N 31°29' E 121°25'602747.6
2014-Nov-26 23:29N 32°04' E 120°28'66434159.3
2014-Nov-26 23:28N 22°51' E 113°34'65320792.0
2014-Nov-26 23:26N 31°57' E 120°16'27150.3
2014-Nov-26 23:15N 32°01' E 120°47'4564.1
2014-Nov-26 22:33N 31°29' E 121°25'6110542.1
2014-Nov-26 22:33N 31°59' E 120°21'65728503.3
2014-Nov-26 22:32N 22°55' E 113°25'66515255.4
2014-Nov-26 22:29N 32°04' E 120°28'61472.5
2014-Nov-26 22:29N 32°01' E 120°22'31132.9
2014-Nov-26 22:15N 31°47' E 120°55'16329.3
2014-Nov-26 22:12N 32°01' E 120°47'1725.8
2014-Nov-26 21:33N 32°04' E 120°28'81108.3
2014-Nov-26 21:33N 31°59' E 120°21'3116179.0
2014-Nov-26 21:33N 31°47' E 120°55'30794.6
2014-Nov-26 21:31N 31°30' E 121°25'59883.6
2014-Nov-26 21:27N 32°04' E 120°28'17377.5
2014-Nov-26 21:24N 32°01' E 120°47'68319658.6
2014-Nov-26 21:22N 22°27' E 113°53'683845.3
2014-Nov-26 20:33N 32°01' E 120°47'10463.7
2014-Nov-26 20:32N 32°01' E 120°35'124036.0
2014-Nov-26 20:32N 31°59' E 120°21'613156.4
2014-Nov-26 20:31N 31°30' E 121°25'30111.1
2014-Nov-26 20:14N 31°47' E 120°55'3145.1
2014-Nov-26 19:32N 31°59' E 120°21'66025545.9
2014-Nov-26 19:31N 22°43' E 113°40'669200828.5
2014-Nov-26 19:31N 31°30' E 121°25'4510049.9
2014-Nov-26 19:30N 32°01' E 120°47'158823.0
2014-Nov-26 19:19N 29°42' E 122°13'142101943.0
2014-Nov-26 19:19N 31°47' E 120°55'17186.5
2014-Nov-26 19:13N 32°01' E 120°45'169247.1
2014-Nov-26 18:32N 29°35' E 122°25'179107350.9
2014-Nov-26 18:32N 31°59' E 120°21'612482.7
2014-Nov-26 18:31N 31°30' E 121°25'301650.0
2014-Nov-26 18:30N 31°47' E 120°55'4733788.7
2014-Nov-26 18:30N 31°26' E 121°45'67630402.6
2014-Nov-26 18:28N 22°49' E 113°36'6724052.1
2014-Nov-26 18:18N 32°01' E 120°48'1701884.0
2014-Nov-26 18:13N 29°33' E 122°25'154235.1
2014-Nov-26 17:33N 31°47' E 120°55'153785.2
2014-Nov-26 17:33N 31°60' E 120°48'6533676.6
2014-Nov-26 17:33N 31°18' E 121°47'66963403.4
2014-Nov-26 17:33N 22°54' E 113°34'669120462.2
2014-Nov-26 17:32N 32°01' E 120°48'2320373.1
2014-Nov-26 17:32N 31°59' E 120°21'1757505.3
2014-Nov-26 17:31N 29°37' E 122°21'12314716.4
2014-Nov-26 17:30N 31°30' E 121°25'6611528.1
2014-Nov-26 17:04N 22°56' E 113°36'5 9.2
2014-Nov-26 16:34N 22°58' E 113°32'66668476.7
2014-Nov-26 16:33N 31°60' E 120°48'11114.9
2014-Nov-26 16:33N 32°01' E 120°47'158568548.0
2014-Nov-26 16:33N 29°42' E 122°14'14239333.8
2014-Nov-26 16:33N 31°47' E 120°56'322216.5
2014-Nov-26 16:32N 31°59' E 120°21'8734715.7
2014-Nov-26 16:32N 31°14' E 121°48'9422629.0
2014-Nov-26 16:31N 29°42' E 122°13'11512983.4
2014-Nov-26 16:31N 31°30' E 121°25'66616079.4
2014-Nov-26 16:28N 22°52' E 113°34'30158.5
2014-Nov-26 16:17N 22°27' E 113°53'4156.0
2014-Nov-26 15:34N 23°02' E 113°31'664298602.1
2014-Nov-26 15:33N 32°01' E 120°47'7915782.4
2014-Nov-26 15:33N 31°08' E 121°56'705443.2
2014-Nov-26 15:32N 31°52' E 120°53'91173.2
2014-Nov-26 15:32N 31°60' E 120°48'235493.3
2014-Nov-26 15:32N 31°59' E 120°21'615145.9
2014-Nov-26 15:31N 31°29' E 121°25'4546.3
2014-Nov-26 14:33N 32°01' E 120°47'1293.2
2014-Nov-26 14:33N 31°60' E 120°48'35869.6
2014-Nov-26 14:33N 31°58' E 120°51'664477828.5
2014-Nov-26 14:33N 23°04' E 113°26'64936488.4
2014-Nov-26 14:31N 31°59' E 120°21'627143.1
2014-Nov-26 14:31N 31°29' E 121°25'7011787.8
2014-Nov-26 14:07N 22°09' E 113°33'7071240.2
2014-Nov-26 13:33N 31°60' E 120°48'668114493.4
2014-Nov-26 13:33N 23°03' E 113°20'66980223.3
2014-Nov-26 13:32N 32°01' E 120°47'2790.5
2014-Nov-26 13:32N 32°00' E 120°46'211450.2
2014-Nov-26 13:31N 31°59' E 120°21'6210070.8
2014-Nov-26 13:31N 31°29' E 121°25'6772908.8
2014-Nov-26 13:17N 22°29' E 113°47'683935.9
2014-Nov-26 12:33N 32°01' E 120°47'67223729.0
2014-Nov-26 12:32N 23°03' E 113°13'66758569.3
2014-Nov-26 12:31N 31°60' E 120°39'4910376.6
2014-Nov-26 12:31N 31°29' E 121°25'629237.1
2014-Nov-26 12:30N 31°59' E 120°21'23108.2
2014-Nov-26 12:17N 31°60' E 120°48'1115.0
2014-Nov-26 11:33N 32°01' E 120°35'12381.4
2014-Nov-26 11:31N 31°59' E 120°21'222989.5
2014-Nov-26 11:31N 32°01' E 120°47'4532288.5
2014-Nov-26 11:31N 31°29' E 121°25'44705.9
2014-Nov-26 11:27N 31°60' E 120°48'67515092.1
2014-Nov-26 11:24N 23°01' E 113°10'541260.9
2014-Nov-26 11:22N 22°10' E 113°32'701874.1
2014-Nov-26 10:33N 32°03' E 120°32'66652123.0
2014-Nov-26 10:33N 22°55' E 113°27'65622720.1
2014-Nov-26 10:31N 31°59' E 120°21'6211657.8
2014-Nov-26 10:31N 31°29' E 121°25'451508.7
2014-Nov-26 10:29N 32°01' E 120°47'138.6
2014-Nov-26 10:27N 31°60' E 120°48'176999.0
2014-Nov-26 10:27N 32°04' E 120°28'792233.8
2014-Nov-26 10:25N 30°58' E 121°18'3 3.3
2014-Nov-26 09:33N 30°58' E 121°15'772849.4
2014-Nov-26 09:32N 32°04' E 120°30'9601.4
2014-Nov-26 09:31N 31°59' E 120°21'6122108.0
2014-Nov-26 09:31N 31°30' E 121°25'67912223.3
2014-Nov-26 09:27N 22°27' E 113°46'66246731.3
2014-Nov-26 09:27N 31°60' E 119°59'2591.5
2014-Nov-26 09:10N 32°04' E 120°28'17518.8
2014-Nov-26 09:09N 32°01' E 120°47'1485061.4
2014-Nov-26 09:07N 29°55' E 122°18'160287.2
2014-Nov-26 08:33N 32°04' E 120°27'373819.9
2014-Nov-26 08:33N 31°47' E 121°06'523398.0
2014-Nov-26 08:32N 31°57' E 120°06'13339.0
2014-Nov-26 08:30N 31°59' E 120°21'69260794.4
2014-Nov-26 08:29N 22°10' E 113°31'70135538.6
2014-Nov-26 08:28N 31°30' E 121°25'6597934.2
2014-Nov-26 08:23N 23°03' E 113°30'651788.3
2014-Nov-26 07:33N 32°01' E 120°24'121832.0
2014-Nov-26 07:33N 31°56' E 120°11'682017.4
2014-Nov-26 07:31N 31°30' E 121°25'6115783.5
2014-Nov-26 07:31N 31°59' E 120°21'23169.2
2014-Nov-26 07:23N 32°00' E 120°48'66244131.2
2014-Nov-26 07:22N 23°04' E 113°30'639797.5
2014-Nov-26 06:34N 31°58' E 120°06'135788.6
2014-Nov-26 06:33N 31°59' E 120°21'62485.3
2014-Nov-26 06:33N 31°56' E 120°15'651648.1
2014-Nov-26 06:31N 31°30' E 121°25'7034226.8
2014-Nov-26 06:21N 22°21' E 113°11'47246.8
2014-Nov-26 06:10N 23°04' E 113°30'6471070.2
2014-Nov-26 05:33N 31°59' E 120°21'21256.8
2014-Nov-26 05:33N 31°58' E 120°18'6485.7
2014-Nov-26 05:32N 31°57' E 120°12'190.7
2014-Nov-26 05:32N 31°56' E 120°12'675343.6
2014-Nov-26 05:31N 31°30' E 121°25'66479690.7
2014-Nov-26 05:30N 23°02' E 113°23'746.0
2014-Nov-26 05:22N 23°04' E 113°30'644802.3
2014-Nov-26 04:33N 31°57' E 120°17'650334079.7
2014-Nov-26 04:33N 23°02' E 113°22'653587428.0
2014-Nov-26 04:33N 31°59' E 120°21'13190.4
2014-Nov-26 04:33N 31°58' E 120°22'64893242.4
2014-Nov-26 04:33N 23°04' E 113°29'65922164.8
2014-Nov-26 04:31N 31°29' E 121°25'66918965.0
2014-Nov-26 04:29N 22°54' E 113°24'17231.3
2014-Nov-26 04:25N 22°44' E 113°10'66411118.1
2014-Nov-26 04:21N 31°57' E 120°04'6384536.4
2014-Nov-26 04:13N 23°04' E 113°30'648990.4
2014-Nov-26 03:33N 31°58' E 120°24'6571183091.0
2014-Nov-26 03:33N 22°55' E 113°27'658169152.0
2014-Nov-26 03:33N 32°00' E 120°22'21382.9
2014-Nov-26 03:33N 31°59' E 120°21'655589840.4
2014-Nov-26 03:33N 22°54' E 113°31'1018822.4
2014-Nov-26 03:33N 23°04' E 113°29'502909.7
2014-Nov-26 03:32N 22°14' E 113°36'69528115.5
2014-Nov-26 03:30N 31°29' E 121°25'6596911.4
2014-Nov-26 03:25N 23°04' E 113°30'1649.8
2014-Nov-26 03:06N 22°54' E 113°16'1527.0
2014-Nov-26 02:33N 23°00' E 113°31'4735.9
2014-Nov-26 02:33N 23°04' E 113°29'653470003.6
2014-Nov-26 02:33N 32°02' E 120°26'4290.9
2014-Nov-26 02:32N 31°58' E 120°24'594441.5
2014-Nov-26 02:31N 31°29' E 121°25'69317087.9
2014-Nov-26 02:29N 22°17' E 113°35'699125819.4
2014-Nov-26 02:28N 32°01' E 120°47'6622119.9
2014-Nov-26 02:10N 23°04' E 113°30'141.6
2014-Nov-26 02:09N 23°04' E 113°29'13561.1
2014-Nov-26 02:07N 23°03' E 113°15'6571161.7
2014-Nov-26 01:33N 31°58' E 120°24'82791.6
2014-Nov-26 01:33N 32°02' E 120°32'656589983.4
2014-Nov-26 01:33N 23°04' E 113°29'013.3
2014-Nov-26 01:33N 23°04' E 113°29'0166.5
2014-Nov-26 01:33N 23°04' E 113°29'65924450.7
2014-Nov-26 01:31N 31°29' E 121°25'622433.6
2014-Nov-26 01:30N 31°59' E 120°21'3143571.5
2014-Nov-26 01:24N 26°46' E 119°43'4052062.1
2014-Nov-26 01:13N 23°04' E 113°30'39642.6
2014-Nov-26 01:09N 22°28' E 113°47'6791140.1
2014-Nov-26 00:33N 32°00' E 120°37'6572365807.9
2014-Nov-26 00:33N 23°04' E 113°29'040.2
2014-Nov-26 00:33N 23°04' E 113°29'0120.5
2014-Nov-26 00:33N 23°04' E 113°30'648259286.5
2014-Nov-26 00:33N 31°58' E 120°24'2586.1
2014-Nov-26 00:32N 31°59' E 120°21'622916.0
2014-Nov-26 00:31N 31°29' E 121°25'67419102.8
2014-Nov-26 00:29N 22°30' E 113°51'65915207.0
2014-Nov-26 00:26N 32°03' E 119°57'6404410.6
2014-Nov-26 00:18N 23°04' E 113°29'0 0.5
2014-Nov-25 23:33N 23°04' E 113°29'64880493.2
2014-Nov-25 23:33N 31°58' E 120°24'2308.8
2014-Nov-25 23:32N 31°59' E 120°21'409368499.8
2014-Nov-25 23:32N 38°44' E 121°30'4051456538.2
2014-Nov-25 23:32N 32°01' E 120°47'452937.0
2014-Nov-25 23:31N 31°29' E 121°25'65910400.3
2014-Nov-25 23:27N 23°04' E 113°29'0 5.5
2014-Nov-25 23:22N 23°04' E 113°29'0 0.2
2014-Nov-25 23:21N 23°04' E 113°29'66116529.3
2014-Nov-25 23:18N 32°01' E 120°44'370493.1
2014-Nov-25 22:33N 25°58' E 119°24'366101408.2
2014-Nov-25 22:33N 23°04' E 113°29'64835912.9
2014-Nov-25 22:32N 31°58' E 120°24'21462.5
2014-Nov-25 22:32N 31°59' E 120°21'625035.9
2014-Nov-25 22:31N 31°29' E 121°25'6599963.7
2014-Nov-25 22:27N 23°04' E 113°29'113.5
2014-Nov-25 22:24N 23°04' E 113°30'081.1
2014-Nov-25 22:24N 23°04' E 113°29'0 0.1
2014-Nov-25 21:33N 23°04' E 113°29'64839564.8
2014-Nov-25 21:32N 31°58' E 120°24'36381730.9
2014-Nov-25 21:32N 25°58' E 119°25'363145351.7
2014-Nov-25 21:32N 31°59' E 120°21'628863.6
2014-Nov-25 21:31N 31°29' E 121°25'6599758.8
2014-Nov-25 21:27N 23°04' E 113°29'0 8.5
2014-Nov-25 21:24N 23°04' E 113°29'6636183.0
2014-Nov-25 21:17N 32°02' E 120°47'431517.1
2014-Nov-25 21:16N 32°03' E 119°57'63910856.6
2014-Nov-25 21:12N 23°04' E 113°30'647996.6
2014-Nov-25 20:33N 31°59' E 120°21'647776634.5
2014-Nov-25 20:33N 23°04' E 113°30'055.1
2014-Nov-25 20:33N 23°04' E 113°29'65927900.1
2014-Nov-25 20:31N 31°29' E 121°25'6589117.6
2014-Nov-25 20:27N 23°04' E 113°30'6577465.2
2014-Nov-25 20:22N 31°47' E 120°58'35811407.0
2014-Nov-25 20:20N 25°58' E 119°25'3681329.0
2014-Nov-25 20:03N 23°04' E 113°29'6481297.3
2014-Nov-25 19:33N 31°58' E 120°24'648333347.6
2014-Nov-25 19:33N 23°04' E 113°30'647388326.0
2014-Nov-25 19:33N 31°59' E 120°21'402651.7
2014-Nov-25 19:32N 31°45' E 121°05'35875763.8
2014-Nov-25 19:32N 25°58' E 119°25'34748060.3
2014-Nov-25 19:32N 31°29' E 121°25'6655453.8
2014-Nov-25 19:24N 22°53' E 113°34'1221975.3
2014-Nov-25 19:24N 23°04' E 113°30'067.1
2014-Nov-25 19:24N 23°04' E 113°29'172.6
2014-Nov-25 19:23N 23°04' E 113°29'647770.7
2014-Nov-25 18:33N 31°59' E 120°21'647332982.4
2014-Nov-25 18:33N 23°04' E 113°29'648466871.4
2014-Nov-25 18:33N 31°58' E 120°24'36325151.3
2014-Nov-25 18:32N 25°58' E 119°25'368330913.5
2014-Nov-25 18:32N 23°04' E 113°30'659124769.7
2014-Nov-25 18:32N 31°29' E 121°25'152937.0
2014-Nov-25 18:31N 31°40' E 121°13'665113947.7
2014-Nov-25 18:31N 23°02' E 113°24'690.7
2014-Nov-25 18:27N 23°04' E 113°30'6632891.8
2014-Nov-25 18:13N 32°01' E 120°47'2029.8
2014-Nov-25 17:33N 31°58' E 120°24'648583358.3
2014-Nov-25 17:33N 23°04' E 113°30'6591186776.5
2014-Nov-25 17:33N 31°35' E 121°19'5415088.9
2014-Nov-25 17:33N 31°59' E 120°21'36321809.0
2014-Nov-25 17:32N 25°58' E 119°25'37011384.7
2014-Nov-25 17:30N 32°01' E 120°47'451988.3
2014-Nov-25 17:29N 31°29' E 121°25'6598263.5
2014-Nov-25 17:24N 23°04' E 113°29'0 2.7
2014-Nov-25 17:15N 23°04' E 113°30'648933.8
2014-Nov-25 16:33N 31°58' E 120°24'64864843.2
2014-Nov-25 16:33N 23°04' E 113°29'065.0
2014-Nov-25 16:33N 23°04' E 113°30'64730657.1
2014-Nov-25 16:31N 31°59' E 120°21'619214.4
2014-Nov-25 16:31N 31°30' E 121°25'3484248.8
2014-Nov-25 16:26N 25°58' E 119°25'34714362.6
2014-Nov-25 16:25N 31°29' E 121°25'65898772.0
2014-Nov-25 16:24N 23°04' E 113°30'64113259.2
2014-Nov-25 16:21N 31°56' E 120°12'30138.6
2014-Nov-25 16:08N 32°02' E 120°47'2237.5
2014-Nov-25 15:33N 31°59' E 120°21'6472330841.0
2014-Nov-25 15:33N 23°04' E 113°29'0617.8
2014-Nov-25 15:33N 23°04' E 113°30'659107856.1
2014-Nov-25 15:33N 31°26' E 121°30'657745.8
2014-Nov-25 15:32N 31°58' E 120°24'5914214.8
2014-Nov-25 15:32N 31°29' E 121°25'698862.4
2014-Nov-25 15:31N 31°56' E 120°10'6409173.1
2014-Nov-25 15:27N 23°04' E 113°30'6632067.4
2014-Nov-25 15:08N 32°02' E 120°47'6631140.7
2014-Nov-25 14:33N 23°04' E 113°30'0645.9
2014-Nov-25 14:33N 23°04' E 113°29'647211893.0
2014-Nov-25 14:33N 31°59' E 120°21'6927433.0
2014-Nov-25 14:33N 31°25' E 121°32'81292823.3
2014-Nov-25 14:33N 31°57' E 120°04'171706.5
2014-Nov-25 14:32N 31°58' E 120°24'5917766.7
2014-Nov-25 14:32N 31°29' E 121°25'45396.9
2014-Nov-25 14:25N 32°02' E 120°47'66350760.2
2014-Nov-25 14:24N 23°04' E 113°30'6522863.5
2014-Nov-25 14:11N 31°20' E 121°25'84135.4
2014-Nov-25 13:34N 31°60' E 119°59'865535.2
2014-Nov-25 13:33N 31°25' E 121°32'6614037.9
2014-Nov-25 13:32N 31°58' E 120°24'6552358534.9
2014-Nov-25 13:32N 22°55' E 113°30'65433643.6
2014-Nov-25 13:31N 31°59' E 120°21'6812265.4
2014-Nov-25 13:31N 31°22' E 121°28'82679.1
2014-Nov-25 13:31N 31°29' E 121°25'6594061.1
2014-Nov-25 13:21N 23°04' E 113°29'0 3.6
2014-Nov-25 13:15N 23°04' E 113°30'66348688.8
2014-Nov-25 13:14N 32°02' E 120°47'153223.8
2014-Nov-25 12:33N 29°52' E 122°22'62766423.2
2014-Nov-25 12:33N 23°04' E 113°29'647145673.3
2014-Nov-25 12:33N 31°59' E 120°21'2573.0
2014-Nov-25 12:32N 31°58' E 120°24'592030.5
2014-Nov-25 12:31N 31°29' E 121°25'7127.8
2014-Nov-25 12:27N 31°25' E 121°32'522329.5
2014-Nov-25 12:26N 32°02' E 120°47'66323621.3
2014-Nov-25 12:24N 23°04' E 113°30'720.9
2014-Nov-25 12:05N 22°58' E 113°32'6521242.8
2014-Nov-25 11:34N 31°58' E 120°24'2151.5
2014-Nov-25 11:33N 31°59' E 120°21'6215836.4
2014-Nov-25 11:32N 31°29' E 121°25'6597798.5
2014-Nov-25 11:27N 23°04' E 113°30'0 6.3
2014-Nov-25 11:24N 23°04' E 113°29'65061533.2
2014-Nov-25 11:23N 31°13' E 121°30'7386.8
2014-Nov-25 10:33N 31°58' E 120°24'6621695.0
2014-Nov-25 10:33N 31°25' E 121°32'66499559.9
2014-Nov-25 10:33N 23°02' E 113°24'65122979.5
2014-Nov-25 10:31N 31°59' E 120°21'622131.9
2014-Nov-25 10:29N 31°29' E 121°25'5963.9
2014-Nov-25 09:34N 31°58' E 120°24'664870.1
2014-Nov-25 09:33N 31°25' E 121°32'698521.9
2014-Nov-25 09:32N 31°59' E 120°21'62110865.3
2014-Nov-25 09:32N 31°29' E 121°25'6594772.0
2014-Nov-25 09:24N 23°04' E 113°29'6152870.8
2014-Nov-25 09:11N 29°43' E 122°12'1821819.8
2014-Nov-25 09:05N 32°04' E 119°57'2444.8
2014-Nov-25 08:33N 31°58' E 120°24'64875301.2
2014-Nov-25 08:33N 23°04' E 113°29'65962407.7
2014-Nov-25 08:32N 31°29' E 121°25'6215817.7
2014-Nov-25 08:32N 31°59' E 120°21'694968.8
2014-Nov-25 08:31N 31°24' E 121°31'6971.5
2014-Nov-25 07:33N 31°59' E 120°21'22872.4
2014-Nov-25 07:33N 31°58' E 120°24'6578580.0
2014-Nov-25 07:33N 31°21' E 121°27'8129.3
2014-Nov-25 07:29N 31°29' E 121°25'82286.5
2014-Nov-25 07:12N 32°03' E 119°57'640328914.6
2014-Nov-25 07:12N 23°04' E 113°29'6481010.1
2014-Nov-25 06:33N 31°58' E 120°24'2539.4
2014-Nov-25 06:33N 31°59' E 120°21'6881266.2
2014-Nov-25 06:33N 31°21' E 121°27'7466920.4
2014-Nov-25 06:33N 31°57' E 120°11'695484.0
2014-Nov-25 06:32N 31°29' E 121°25'66829687.3
2014-Nov-25 06:31N 23°03' E 113°14'6468046.8
2014-Nov-25 06:26N 31°58' E 120°02'63817268.9
2014-Nov-25 06:24N 23°04' E 113°29'3682889.2
2014-Nov-25 06:16N 25°58' E 119°26'7748841.7
2014-Nov-25 06:11N 38°44' E 121°31'443704.2
2014-Nov-25 05:33N 31°21' E 121°27'6612377887.9
2014-Nov-25 05:33N 23°02' E 113°21'653180826.8
2014-Nov-25 05:33N 31°59' E 120°21'1283.3
2014-Nov-25 05:33N 31°58' E 120°22'647332996.5
2014-Nov-25 05:33N 23°04' E 113°29'65981782.2
2014-Nov-25 05:32N 31°29' E 121°25'6755249.4
2014-Nov-25 05:25N 22°27' E 113°53'3701087.9
2014-Nov-25 05:04N 25°58' E 119°26'341663.2
2014-Nov-25 04:33N 31°21' E 121°27'655294597.8
2014-Nov-25 04:33N 23°04' E 113°28'65944759.3
2014-Nov-25 04:32N 31°29' E 121°25'613877.7
2014-Nov-25 04:31N 31°59' E 120°21'8057255.7
2014-Nov-25 04:31N 30°59' E 121°23'795924.4
2014-Nov-25 04:31N 31°58' E 120°22'668240601.2
2014-Nov-25 04:30N 22°26' E 113°53'37010251.1
2014-Nov-25 04:28N 25°58' E 119°26'36140633.0
2014-Nov-25 04:28N 31°57' E 120°10'6409853.4
2014-Nov-25 04:24N 23°04' E 113°29'11104.1
2014-Nov-25 04:18N 22°55' E 113°36'652885.9
2014-Nov-25 03:33N 31°58' E 120°22'651106603.6
2014-Nov-25 03:33N 22°57' E 113°32'651781739.0
2014-Nov-25 03:33N 31°59' E 120°21'6881262.3
2014-Nov-25 03:33N 31°21' E 121°27'81116.1
2014-Nov-25 03:32N 31°29' E 121°25'6616961.9
2014-Nov-25 03:32N 31°57' E 120°14'6424587.2
2014-Nov-25 03:24N 23°04' E 113°29'36814107.6
2014-Nov-25 03:22N 25°58' E 119°26'3474905.9
2014-Nov-25 03:18N 31°30' E 121°22'8214072.2
2014-Nov-25 03:18N 32°05' E 119°55'25823.6
2014-Nov-25 03:16N 32°02' E 120°25'5577.8
2014-Nov-25 02:33N 31°33' E 121°19'565905.1
2014-Nov-25 02:33N 31°59' E 120°21'3962.1
2014-Nov-25 02:33N 31°58' E 120°18'312011.8
2014-Nov-25 02:33N 31°58' E 120°22'61219383.8
2014-Nov-25 02:33N 31°29' E 121°25'85006.5
2014-Nov-25 02:33N 31°21' E 121°27'56397.4
2014-Nov-25 02:24N 31°60' E 120°39'66624470.1
2014-Nov-25 02:22N 22°49' E 113°36'370121234.3
2014-Nov-25 02:22N 25°58' E 119°26'4014387.1
2014-Nov-25 02:17N 22°30' E 113°10'7004190.7
2014-Nov-25 02:07N 31°60' E 120°47'1222.3
2014-Nov-25 01:34N 32°01' E 120°32'4221473.2
2014-Nov-25 01:33N 31°39' E 121°13'4814502.2
2014-Nov-25 01:33N 31°58' E 120°21'615927.8
2014-Nov-25 01:33N 31°29' E 121°25'8517.2
2014-Nov-25 01:32N 31°21' E 121°27'6812193.5
2014-Nov-25 01:31N 31°59' E 120°21'65910271.9
2014-Nov-25 01:27N 22°44' E 113°40'23384.1
2014-Nov-25 01:24N 23°04' E 113°29'36813394.2
2014-Nov-25 01:22N 25°58' E 119°26'40148112.4
2014-Nov-25 01:22N 22°30' E 113°10'3521772.3
2014-Nov-25 01:10N 24°39' E 119°07'421693.5
2014-Nov-25 00:33N 31°21' E 121°27'296548.2
2014-Nov-25 00:33N 31°44' E 121°06'43587044.0
2014-Nov-25 00:33N 24°41' E 119°08'426102121.0
2014-Nov-25 00:33N 31°29' E 121°25'3484686.6
2014-Nov-25 00:28N 25°58' E 119°26'3682049.4
2014-Nov-25 00:17N 23°04' E 113°29'10286084.5
2014-Nov-25 00:07N 38°44' E 121°33'10271816.6
2014-Nov-24 23:33N 23°04' E 113°30'657591045.0
2014-Nov-24 23:33N 31°47' E 120°58'292860.9
2014-Nov-24 23:33N 31°29' E 121°25'67326917.6
2014-Nov-24 23:31N 22°34' E 113°47'1049198748.7
2014-Nov-24 23:31N 38°44' E 121°31'443531217.6
2014-Nov-24 23:31N 31°21' E 121°27'2014758.7
2014-Nov-24 23:31N 31°08' E 121°10'35089930.4
2014-Nov-24 23:30N 36°51' E 122°29'6724847.6
2014-Nov-24 23:22N 25°58' E 119°26'368452.1
2014-Nov-24 22:33N 23°04' E 113°30'654235515.7
2014-Nov-24 22:33N 31°21' E 121°27'34039503.5
2014-Nov-24 22:33N 25°58' E 119°27'67525066.3
2014-Nov-24 22:31N 36°56' E 122°28'33015054.6
2014-Nov-24 22:30N 31°29' E 121°25'36220.9
2014-Nov-24 22:20N 31°53' E 120°53'4356.2
2014-Nov-24 21:33N 31°21' E 121°27'654261684.1
2014-Nov-24 21:33N 23°04' E 113°30'65969725.2
2014-Nov-24 21:33N 31°29' E 121°25'55639.4
2014-Nov-24 21:28N 32°01' E 120°32'1541.4
2014-Nov-24 21:06N 31°60' E 120°49'5091.0
2014-Nov-24 20:33N 31°21' E 121°27'8147.8
2014-Nov-24 20:30N 31°29' E 121°25'6587183.4
2014-Nov-24 20:24N 23°04' E 113°30'6543574.6
2014-Nov-24 20:13N 32°01' E 120°32'6190.0
2014-Nov-24 19:32N 31°21' E 121°27'8200.0
2014-Nov-24 19:30N 31°29' E 121°25'67830499.8
2014-Nov-24 19:29N 22°29' E 113°46'68325076.7
2014-Nov-24 19:27N 31°60' E 120°46'6612723.4
2014-Nov-24 19:12N 23°04' E 113°30'6541012.1
2014-Nov-24 18:34N 31°21' E 121°27'654181165.9
2014-Nov-24 18:33N 23°04' E 113°30'65894822.3
2014-Nov-24 18:33N 31°29' E 121°25'204064.0
2014-Nov-24 18:33N 31°44' E 121°07'6804278.9
2014-Nov-24 18:23N 22°29' E 113°46'3946.4
2014-Nov-24 17:33N 23°04' E 113°30'659107757.0
2014-Nov-24 17:33N 31°29' E 121°25'8283.9
2014-Nov-24 17:31N 31°21' E 121°27'6721522.6
2014-Nov-24 17:05N 22°24' E 113°54'6771283.1
2014-Nov-24 16:33N 31°29' E 121°25'82333.9
2014-Nov-24 16:33N 31°21' E 121°27'6683158.8
2014-Nov-24 16:20N 22°32' E 113°51'38211.6
2014-Nov-24 16:09N 23°04' E 113°30'0 0.0
2014-Nov-24 15:33N 23°04' E 113°30'659148168.2
2014-Nov-24 15:33N 31°29' E 121°25'828961.1
2014-Nov-24 15:33N 31°21' E 121°27'668114470.4
2014-Nov-24 15:33N 22°32' E 113°51'375771.9
2014-Nov-24 15:04N 26°04' E 119°31'334662.6
2014-Nov-24 14:33N 31°22' E 121°28'4795.5
2014-Nov-24 14:33N 31°26' E 121°30'6697790.7
2014-Nov-24 14:28N 22°55' E 113°25'10104.1
2014-Nov-24 14:22N 23°04' E 113°30'657805.0
2014-Nov-24 13:33N 31°23' E 121°30'217.6
2014-Nov-24 13:26N 31°22' E 121°28'65524545.3
2014-Nov-24 13:24N 23°04' E 113°30'655768.6
2014-Nov-24 12:33N 31°18' E 121°34'6460.3
2014-Nov-24 12:32N 31°22' E 121°28'8 8.0
2014-Nov-24 11:33N 31°14' E 121°30'1901.1
2014-Nov-24 11:33N 31°15' E 121°30'7279.3
2014-Nov-24 11:32N 31°22' E 121°28'6605190.3
2014-Nov-24 11:24N 22°53' E 113°34'3211624.3
2014-Nov-24 11:24N 22°30' E 113°10'39205.4
2014-Nov-24 11:13N 23°04' E 113°30'5076.0
2014-Nov-24 10:33N 22°15' E 113°36'690248465.2
2014-Nov-24 10:33N 31°22' E 121°28'656472122.2
2014-Nov-24 10:33N 23°02' E 113°31'64686078.0
2014-Nov-24 10:33N 31°08' E 121°28'34232435.5
2014-Nov-24 10:32N 36°47' E 122°30'9586595.1
2014-Nov-24 10:23N 22°54' E 113°22'1265.4
2014-Nov-24 10:12N 23°04' E 113°30'3734732.1
2014-Nov-24 10:08N 25°45' E 119°39'332583.9
2014-Nov-24 09:34N 31°03' E 121°29'6506551.3
2014-Nov-24 09:28N 22°55' E 113°28'66315600.7
2014-Nov-24 09:25N 31°22' E 121°28'65558905.3
2014-Nov-24 09:24N 23°04' E 113°30'655757.1
2014-Nov-24 08:32N 31°22' E 121°28'19816.2
2014-Nov-24 08:31N 31°03' E 121°28'21208.1
2014-Nov-24 08:25N 30°50' E 121°48'64410725.2
2014-Nov-24 08:21N 23°04' E 113°30'1178.6
2014-Nov-24 08:13N 23°03' E 113°18'5247103.6
2014-Nov-24 08:13N 22°14' E 113°35'99030211.4
2014-Nov-24 08:11N 36°48' E 122°29'6 8.9
2014-Nov-24 07:32N 36°54' E 122°28'35447234.1
2014-Nov-24 07:31N 31°03' E 121°28'191365.5
2014-Nov-24 07:30N 31°22' E 121°28'6554429.0
2014-Nov-24 07:21N 23°04' E 113°30'336.6
2014-Nov-24 07:17N 23°05' E 113°27'381361.4
2014-Nov-24 07:15N 22°30' E 113°10'6515103.2
2014-Nov-24 07:07N 29°42' E 122°12'6217985.6
2014-Nov-24 07:03N 22°54' E 113°30'6631276.8
2014-Nov-24 06:32N 31°22' E 121°28'662794476.2
2014-Nov-24 06:32N 22°52' E 113°33'649116759.5
2014-Nov-24 06:31N 31°03' E 121°28'6422549.4
2014-Nov-24 06:16N 23°04' E 113°29'65914288.7
2014-Nov-24 06:13N 31°46' E 121°02'69724598.2
2014-Nov-24 06:12N 22°30' E 113°10'6519369.6
2014-Nov-24 06:08N 29°42' E 122°12'107179.6
2014-Nov-24 05:32N 31°22' E 121°28'65560447.3
2014-Nov-24 05:31N 23°04' E 113°29'391345.7
2014-Nov-24 05:29N 22°30' E 113°10'67936492.1
2014-Nov-24 05:28N 31°03' E 121°28'912477.1
2014-Nov-24 05:26N 29°41' E 122°14'131416.7
2014-Nov-24 05:07N 31°41' E 121°11'2441.2
2014-Nov-24 04:33N 31°23' E 121°31'37879999.8
2014-Nov-24 04:33N 37°41' E 121°53'39820779.8
2014-Nov-24 04:31N 31°03' E 121°28'922399.5
2014-Nov-24 04:29N 29°43' E 122°21'62747055.9
2014-Nov-24 04:28N 23°02' E 113°23'62329.3
2014-Nov-24 04:28N 23°04' E 113°29'391109.0
2014-Nov-24 04:26N 22°30' E 113°10'6988206.7
2014-Nov-24 04:21N 31°36' E 121°17'1619.3
2014-Nov-24 03:33N 31°25' E 121°30'43934360.9
2014-Nov-24 03:32N 38°44' E 121°33'46163842.2
2014-Nov-24 03:31N 31°03' E 121°28'641209885.3
2014-Nov-24 03:31N 23°04' E 113°30'113.2
2014-Nov-24 03:28N 23°04' E 113°29'12438.6
2014-Nov-24 03:27N 22°54' E 113°35'27209.7
2014-Nov-24 03:19N 22°31' E 113°51'6237402.4
2014-Nov-24 03:14N 29°43' E 122°12'624921.1
2014-Nov-24 02:33N 22°27' E 113°54'67473570.2
2014-Nov-24 02:32N 31°27' E 121°28'43741415.7
2014-Nov-24 02:32N 38°44' E 121°30'46175451.2
2014-Nov-24 02:31N 31°03' E 121°28'2712323.8
2014-Nov-24 02:31N 31°30' E 121°22'33011209.9
2014-Nov-24 02:30N 36°55' E 122°28'95339449.5
2014-Nov-24 02:28N 23°04' E 113°29'66314547.4
2014-Nov-24 02:25N 32°01' E 120°47'6626463.4
2014-Nov-24 02:19N 23°04' E 113°30'1037.4
2014-Nov-24 02:03N 23°03' E 113°19'6651356.3
2014-Nov-24 01:33N 31°30' E 121°23'674404329.2
2014-Nov-24 01:33N 22°28' E 113°54'65621273.2
2014-Nov-24 01:32N 31°03' E 121°28'64292394.4
2014-Nov-24 01:31N 23°04' E 113°29'102727179.3
2014-Nov-24 01:29N 38°46' E 121°25'12129081.9
2014-Nov-24 01:29N 36°55' E 122°28'9536106.1
2014-Nov-24 01:19N 23°04' E 113°30'6573130.6
2014-Nov-24 01:07N 31°30' E 121°22'221455.2
2014-Nov-24 01:06N 31°10' E 121°09'2647.4
2014-Nov-24 00:33N 31°35' E 121°17'675405080.4
2014-Nov-24 00:33N 22°28' E 113°54'65626533.3
2014-Nov-24 00:32N 31°03' E 121°28'641109941.5
2014-Nov-24 00:31N 23°04' E 113°30'95335023.0
2014-Nov-24 00:30N 36°56' E 122°28'33084855.7
2014-Nov-24 00:29N 31°30' E 121°22'1 1.1
2014-Nov-23 23:33N 31°30' E 121°23'32623934.5
2014-Nov-23 23:33N 36°52' E 122°28'95040236.4
2014-Nov-23 23:31N 23°04' E 113°30'641461754.1
2014-Nov-23 23:31N 31°03' E 121°28'401372.7
2014-Nov-23 23:29N 31°41' E 121°11'67815838.0
2014-Nov-23 23:27N 22°27' E 113°52'54707.2
2014-Nov-23 23:27N 22°29' E 113°47'68437600.5
2014-Nov-23 22:33N 33°28' W 117°42'61211469070.7
2014-Nov-23 22:32N 31°30' E 121°23'212844.6
2014-Nov-23 22:32N 31°44' E 121°06'65948433.9
2014-Nov-23 22:31N 23°04' E 113°30'6411154369.6
2014-Nov-23 22:31N 31°03' E 121°28'64931989.6
2014-Nov-23 22:30N 22°52' E 113°33'0 0.9
2014-Nov-23 22:15N 22°51' E 113°33'68409779.6
2014-Nov-23 21:33N 33°28' W 117°42'68391367816.5
2014-Nov-23 21:32N 22°27' E 113°52'65731984.6
2014-Nov-23 21:31N 31°03' E 121°28'64931137.0
2014-Nov-23 21:30N 22°52' E 113°33'66643601.0
2014-Nov-23 21:29N 31°30' E 121°23'6585781.2
2014-Nov-23 21:22N 23°04' E 113°30'134713.3
2014-Nov-23 21:22N 22°51' E 113°33'66751078.3
2014-Nov-23 21:21N 31°45' E 121°03'6807944.8
2014-Nov-23 21:16N 22°28' E 113°46'655910.8
2014-Nov-23 20:33N 31°10' E 121°09'6432314490.1
2014-Nov-23 20:33N 22°52' E 113°33'64922894.7
2014-Nov-23 20:31N 31°03' E 121°28'281256.3
2014-Nov-23 20:30N 31°30' E 121°23'6667203.0
2014-Nov-23 20:24N 22°51' E 113°33'66719679.5
2014-Nov-23 20:22N 31°45' E 121°03'471975.7
2014-Nov-23 20:21N 31°56' E 120°09'4583459.6
2014-Nov-23 20:13N 24°26' E 118°32'459675.2
2014-Nov-23 19:32N 31°57' E 120°06'885777.0
2014-Nov-23 19:31N 31°03' E 121°28'641329822.1
2014-Nov-23 19:31N 23°04' E 113°30'393829.9
2014-Nov-23 19:31N 22°28' E 113°46'272592.5
2014-Nov-23 19:30N 22°52' E 113°33'0 4.5
2014-Nov-23 19:27N 22°51' E 113°33'66740692.6
2014-Nov-23 19:26N 31°45' E 121°03'41912568.8
2014-Nov-23 19:24N 38°44' E 121°27'4545483.4
2014-Nov-23 19:19N 31°10' E 121°09'64944921.1
2014-Nov-23 19:18N 22°32' E 113°51'649868.7
2014-Nov-23 18:33N 31°10' E 121°09'45418370.8
2014-Nov-23 18:32N 38°44' E 121°29'46148818.5
2014-Nov-23 18:31N 31°03' E 121°28'641256528.3
2014-Nov-23 18:31N 23°04' E 113°30'65913100.7
2014-Nov-23 18:28N 31°45' E 121°03'23884.9
2014-Nov-23 18:27N 31°30' E 121°23'32631700.0
2014-Nov-23 18:26N 36°50' E 122°37'3196561.3
2014-Nov-23 18:23N 31°59' E 120°00'6559313.7
2014-Nov-23 18:19N 22°32' E 113°51'263344.1
2014-Nov-23 17:33N 24°20' E 118°13'784352839.7
2014-Nov-23 17:33N 36°52' E 122°32'34826119.6
2014-Nov-23 17:32N 31°10' E 121°09'9514815.8
2014-Nov-23 17:32N 29°56' E 122°17'7916801.1
2014-Nov-23 17:31N 31°03' E 121°28'641177596.5
2014-Nov-23 17:31N 23°04' E 113°30'659118561.3
2014-Nov-23 17:31N 31°45' E 121°03'235143.3
2014-Nov-23 17:31N 31°30' E 121°23'812314.5
2014-Nov-23 17:29N 32°03' E 119°56'88260.7
2014-Nov-23 17:08N 31°21' E 121°27'351821.2
2014-Nov-23 17:07N 30°50' E 121°46'433765.2
2014-Nov-23 16:33N 24°24' E 118°06'4381575373.4
2014-Nov-23 16:33N 31°10' E 121°09'3710161.1
2014-Nov-23 16:33N 30°51' E 121°46'64330870.8
2014-Nov-23 16:32N 23°04' E 113°29'642144342.2
2014-Nov-23 16:31N 31°03' E 121°28'64916563.8
2014-Nov-23 16:29N 22°51' E 113°33'66722434.7
2014-Nov-23 16:27N 31°45' E 121°03'4207910.7
2014-Nov-23 16:24N 38°44' E 121°38'473555.0
2014-Nov-23 15:33N 30°51' E 121°46'650390029.5
2014-Nov-23 15:33N 22°52' E 113°33'26178212.0
2014-Nov-23 15:33N 24°25' E 117°59'43922927.4
2014-Nov-23 15:32N 31°03' E 121°28'642288699.3
2014-Nov-23 15:31N 23°04' E 113°29'658296293.1
2014-Nov-23 15:31N 31°24' E 121°31'231535.0
2014-Nov-23 15:30N 31°10' E 121°09'5176040.5
2014-Nov-23 15:25N 22°37' E 120°06'502576.7
2014-Nov-23 14:33N 30°51' E 121°46'19823.2
2014-Nov-23 14:32N 31°03' E 121°28'642104982.3
2014-Nov-23 14:31N 23°04' E 113°29'65824664.3
2014-Nov-23 14:30N 31°46' E 120°59'55141322.3
2014-Nov-23 14:29N 22°37' E 120°14'37014016.6
2014-Nov-23 14:27N 22°52' E 113°33'64311874.5
2014-Nov-23 14:24N 31°10' E 121°09'23261.6
2014-Nov-23 14:19N 31°24' E 121°31'6647945.8
2014-Nov-23 14:14N 23°02' E 113°22'6644302.3
2014-Nov-23 14:04N 31°30' E 121°23'4483.6
2014-Nov-23 13:33N 30°51' E 121°46'646258577.9
2014-Nov-23 13:33N 23°03' E 113°25'8664.9
2014-Nov-23 13:32N 22°56' E 113°30'64789586.8
2014-Nov-23 13:32N 31°03' E 121°28'28833.1
2014-Nov-23 13:30N 31°30' E 121°23'23376.2
2014-Nov-23 13:26N 31°10' E 121°09'239229.0
2014-Nov-23 13:26N 31°24' E 121°31'6582110.9
2014-Nov-23 13:07N 23°04' E 113°29'1 1.0
2014-Nov-23 12:33N 23°04' E 113°29'12046.8
2014-Nov-23 12:33N 23°03' E 113°30'659215595.4
2014-Nov-23 12:33N 31°24' E 121°31'366481.7
2014-Nov-23 12:33N 30°51' E 121°46'374129.0
2014-Nov-23 12:32N 31°10' E 121°09'181529.8
2014-Nov-23 12:32N 31°03' E 121°28'285833.1
2014-Nov-23 12:31N 31°30' E 121°23'6592577.1
2014-Nov-23 12:16N 23°04' E 113°29'659921.8
2014-Nov-23 11:33N 31°30' E 121°23'447213.2
2014-Nov-23 11:33N 30°50' E 121°45'648291712.1
2014-Nov-23 11:33N 23°02' E 113°22'664199242.6
2014-Nov-23 11:33N 31°27' E 121°27'241899.0
2014-Nov-23 11:32N 31°03' E 121°28'18190.1
2014-Nov-23 11:26N 31°10' E 121°09'69493.2
2014-Nov-23 11:18N 31°57' E 120°09'32321.7
2014-Nov-23 11:12N 32°00' E 120°47'6628633.1
2014-Nov-23 11:07N 23°04' E 113°29'6431139.9
2014-Nov-23 10:33N 31°57' E 120°15'10215263.2
2014-Nov-23 10:33N 30°50' E 121°45'442034.5
2014-Nov-23 10:32N 31°30' E 121°23'467179.4
2014-Nov-23 10:31N 32°00' E 120°42'6915582.0
2014-Nov-23 10:31N 31°03' E 121°28'21287.3
2014-Nov-23 10:26N 31°09' E 121°52'67478216.8
2014-Nov-23 10:26N 22°30' E 113°51'67438489.2
2014-Nov-23 10:25N 31°32' E 121°21'65831596.6
2014-Nov-23 10:24N 23°04' E 113°29'102730314.5
2014-Nov-23 10:22N 38°44' E 121°33'434540.7
2014-Nov-23 09:33N 31°30' E 121°23'2279870.8
2014-Nov-23 09:33N 31°18' E 121°45'7114256.9
2014-Nov-23 09:33N 31°60' E 120°37'9017142.9
2014-Nov-23 09:33N 30°50' E 121°45'9935661.4
2014-Nov-23 09:33N 31°60' E 120°22'672605041.9
2014-Nov-23 09:33N 22°27' E 113°46'66156638.5
2014-Nov-23 09:32N 31°03' E 121°28'4424984.3
2014-Nov-23 09:27N 24°25' E 117°52'4686037.4
2014-Nov-23 09:22N 31°37' E 121°15'6595419.1
2014-Nov-23 09:15N 23°04' E 113°29'63814726.7
2014-Nov-23 09:12N 31°58' E 120°03'95147.5
2014-Nov-23 08:33N 31°23' E 121°47'7343936.7
2014-Nov-23 08:33N 32°01' E 120°33'936233.2
2014-Nov-23 08:32N 30°50' E 121°45'192561.6
2014-Nov-23 08:32N 31°03' E 121°28'761058.8
2014-Nov-23 08:28N 32°02' E 120°32'679610733.4
2014-Nov-23 08:28N 22°27' E 113°47'66472448.8
2014-Nov-23 08:27N 31°57' E 120°10'652702.7
2014-Nov-23 08:26N 31°17' E 121°09'67824656.3
2014-Nov-23 08:24N 22°30' E 113°10'397300.9
2014-Nov-23 08:24N 23°04' E 113°29'2544940.6
2014-Nov-23 08:21N 24°25' E 117°52'477605.9
2014-Nov-23 07:33N 32°01' E 120°31'124160.9
2014-Nov-23 07:33N 31°58' E 120°18'684492127.8
2014-Nov-23 07:33N 22°30' E 113°10'680143988.8
2014-Nov-23 07:33N 30°50' E 121°45'3691327444.9
2014-Nov-23 07:33N 36°56' E 122°38'35828646.0
2014-Nov-23 07:32N 31°03' E 121°28'64214346.0
2014-Nov-23 07:29N 23°04' E 113°29'65710016.7
2014-Nov-23 07:25N 31°22' E 121°30'6779087.9
2014-Nov-23 07:21N 22°27' E 113°47'25439802.3
2014-Nov-23 07:21N 24°25' E 117°52'2511171.5
2014-Nov-23 07:08N 22°55' E 113°36'98322824.4
2014-Nov-23 07:05N 37°38' E 121°55'345655.2
2014-Nov-23 06:34N 32°01' E 120°25'58151.5
2014-Nov-23 06:33N 32°01' E 120°31'30726349.0
2014-Nov-23 06:33N 36°53' E 122°29'3641311753.4
2014-Nov-23 06:33N 30°50' E 121°45'434372.9
2014-Nov-23 06:32N 31°17' E 121°06'2310513.8
2014-Nov-23 06:32N 31°03' E 121°28'647122638.3
2014-Nov-23 06:32N 23°02' E 113°22'151495.9
2014-Nov-23 06:31N 22°55' E 113°36'318818.5
2014-Nov-23 06:08N 24°37' E 119°05'3197665.5
2014-Nov-23 06:05N 22°27' E 113°47'6781269.3
2014-Nov-23 05:33N 32°01' E 120°31'448806846.6
2014-Nov-23 05:33N 24°39' E 119°06'695411.1
2014-Nov-23 05:33N 24°25' E 117°52'437224819.1
2014-Nov-23 05:32N 30°50' E 121°45'193824.6
2014-Nov-23 05:32N 31°03' E 121°28'661158580.1
2014-Nov-23 05:32N 22°27' E 113°47'67950930.8
2014-Nov-23 05:31N 32°01' E 120°34'3068231.3
2014-Nov-23 05:29N 36°53' E 122°26'3443078.1
2014-Nov-23 05:22N 31°17' E 121°02'1041106.9
2014-Nov-23 05:16N 29°55' E 122°17'891750.6
2014-Nov-23 05:13N 31°14' E 121°30'653102284.2
2014-Nov-23 05:13N 22°55' E 113°36'657985.1
2014-Nov-23 04:33N 32°02' E 120°26'47653574.2
2014-Nov-23 04:33N 24°25' E 117°52'44275718.8
2014-Nov-23 04:32N 31°03' E 121°28'3546334.2
2014-Nov-23 04:29N 36°53' E 122°26'31536625.9
2014-Nov-23 04:28N 31°45' E 121°05'657268.2
2014-Nov-23 04:28N 30°50' E 121°45'671297.0
2014-Nov-23 04:25N 29°50' E 122°19'62814964.9
2014-Nov-23 04:22N 22°55' E 113°33'665299310.7
2014-Nov-23 04:22N 32°00' E 120°42'64251.4
2014-Nov-23 04:07N 31°09' E 121°28'6471162.7
2014-Nov-23 03:33N 23°00' E 113°32'64980593.3
2014-Nov-23 03:33N 31°59' E 120°21'47289437.3
2014-Nov-23 03:32N 24°25' E 117°52'446229208.8
2014-Nov-23 03:32N 31°08' E 121°28'51883.5
2014-Nov-23 03:32N 31°03' E 121°28'29961.2
2014-Nov-23 03:30N 31°27' E 121°47'68656154.7
2014-Nov-23 03:30N 22°54' E 113°15'96620704.6
2014-Nov-23 03:27N 36°54' E 122°26'36510431.4
2014-Nov-23 03:25N 30°50' E 121°45'3673690.4
2014-Nov-23 03:19N 36°56' E 122°28'31995816.3
2014-Nov-23 03:19N 31°44' E 121°06'1241344.6
2014-Nov-23 03:13N 29°56' E 122°17'88133.1
2014-Nov-23 02:33N 31°20' E 121°48'33438824.3
2014-Nov-23 02:33N 36°52' E 122°33'318127157.6
2014-Nov-23 02:33N 31°56' E 120°14'16052365.8
2014-Nov-23 02:33N 29°56' E 122°17'7916806.5
2014-Nov-23 02:32N 31°03' E 121°28'484027.4
2014-Nov-23 02:32N 31°46' E 121°03'665304.0
2014-Nov-23 02:31N 30°50' E 121°45'65484110.6
2014-Nov-23 02:30N 22°54' E 113°22'10344.5
2014-Nov-23 02:29N 23°03' E 113°18'45873.2
2014-Nov-23 02:25N 22°28' E 113°48'67311109.4
2014-Nov-23 02:22N 31°17' E 121°34'6957747.2
2014-Nov-23 02:16N 22°19' E 113°20'50336.6
2014-Nov-23 02:08N 23°06' E 113°37'6551149.5
2014-Nov-23 01:33N 31°16' E 121°46'183040.2
2014-Nov-23 01:33N 31°07' E 121°28'141238.8
2014-Nov-23 01:32N 31°20' E 121°33'1821117.3
2014-Nov-23 01:32N 31°03' E 121°28'64919640.9
2014-Nov-23 01:30N 22°54' E 113°30'65053183.7
2014-Nov-23 01:30N 30°50' E 121°45'6432371.5
2014-Nov-23 01:13N 23°02' E 113°31'49408.5
2014-Nov-23 01:06N 22°13' E 113°35'6971282.3
2014-Nov-23 00:33N 31°10' E 121°52'668218763.5
2014-Nov-23 00:33N 22°53' E 113°30'650123199.1
2014-Nov-23 00:33N 30°50' E 121°46'201811.7
2014-Nov-23 00:32N 31°03' E 121°28'67752952.7
2014-Nov-23 00:32N 22°14' E 113°36'67935969.9
2014-Nov-23 00:30N 31°07' E 121°28'6453383.2
2014-Nov-23 00:19N 23°02' E 113°31'911.4
2014-Nov-22 23:33N 22°53' E 113°30'647258779.8
2014-Nov-22 23:33N 32°01' E 119°58'9322428.3
2014-Nov-22 23:33N 31°07' E 121°28'4481.0
2014-Nov-22 23:32N 31°03' E 121°28'263746.8
2014-Nov-22 23:32N 31°06' E 121°59'212138.7
2014-Nov-22 23:31N 30°46' E 121°53'6449830.7
2014-Nov-22 23:27N 23°02' E 113°31'44884.3
2014-Nov-22 23:24N 22°17' E 113°35'678798.8
2014-Nov-22 22:33N 30°44' E 121°60'12675407.5
2014-Nov-22 22:33N 31°58' E 120°02'9023059.7
2014-Nov-22 22:33N 31°07' E 121°28'372.4
2014-Nov-22 22:31N 31°04' E 121°28'6435523.6
2014-Nov-22 22:24N 23°02' E 113°31'6594804.0
2014-Nov-22 22:16N 31°60' E 120°41'103146.1
2014-Nov-22 21:33N 30°46' E 122°05'1068478.7
2014-Nov-22 21:33N 31°60' E 120°36'657181867.5
2014-Nov-22 21:32N 23°02' E 113°31'644193087.3
2014-Nov-22 21:32N 31°06' E 121°28'1113.3
2014-Nov-22 21:31N 31°07' E 121°28'853144.1
2014-Nov-22 21:30N 31°57' E 120°07'3711063.9
2014-Nov-22 21:09N 38°00' E 121°38'413697.6
2014-Nov-22 20:33N 31°07' E 121°28'7215286.5
2014-Nov-22 20:33N 32°01' E 120°31'729316.1
2014-Nov-22 20:33N 31°07' E 121°28'8022219.1
2014-Nov-22 20:32N 31°56' E 120°13'6 6.0
2014-Nov-22 19:33N 31°59' E 120°20'7538717.2
2014-Nov-22 19:33N 31°11' E 121°28'4583.4
2014-Nov-22 19:33N 31°07' E 121°28'7332918.7
2014-Nov-22 19:33N 32°01' E 120°30'4 3.8
2014-Nov-22 18:33N 32°02' E 120°26'76136510.3
2014-Nov-22 18:33N 31°07' E 121°28'72398.8
2014-Nov-22 18:33N 31°14' E 121°29'692946.1
2014-Nov-22 18:32N 32°01' E 120°30'4053585.3
2014-Nov-22 18:25N 38°44' E 121°27'4642007.1
2014-Nov-22 18:11N 31°01' E 122°07'3454.3
2014-Nov-22 17:34N 31°07' E 121°28'457822547.2
2014-Nov-22 17:33N 38°44' E 121°30'4061461288.1
2014-Nov-22 17:33N 32°01' E 120°33'2172.2
2014-Nov-22 17:33N 32°01' E 120°30'693672.2
2014-Nov-22 17:32N 31°18' E 121°34'291031.6
2014-Nov-22 17:30N 31°03' E 122°03'6801757.1
2014-Nov-22 17:07N 22°48' E 113°20'6791222.7
2014-Nov-22 16:33N 31°06' E 121°57'9323925.7
2014-Nov-22 16:33N 32°02' E 120°30'7413946.1
2014-Nov-22 16:33N 31°07' E 121°28'14188.6
2014-Nov-22 16:28N 31°21' E 121°31'4435955.2
2014-Nov-22 16:24N 38°44' E 121°35'10489599.1
2014-Nov-22 16:17N 22°45' E 113°24'662894.8
2014-Nov-22 15:33N 31°07' E 121°28'7614435.2
2014-Nov-22 15:33N 32°00' E 120°24'703439.3
2014-Nov-22 15:32N 31°21' E 121°31'67210744.3
2014-Nov-22 15:28N 22°44' E 113°30'6713232.1
2014-Nov-22 15:15N 30°50' E 122°08'116163.4
2014-Nov-22 14:33N 31°57' E 120°17'786710.2
2014-Nov-22 14:32N 31°07' E 121°28'142519.3
2014-Nov-22 14:32N 31°21' E 121°31'1414.4
2014-Nov-22 13:33N 31°07' E 121°28'14520.2
2014-Nov-22 13:32N 31°21' E 121°31'462.8
2014-Nov-22 13:28N 31°24' E 121°31'66516744.1
2014-Nov-22 13:26N 23°03' E 113°19'18715.2
2014-Nov-22 13:24N 22°57' E 113°37'48242.8
2014-Nov-22 13:13N 22°10' E 113°27'6881040.1
2014-Nov-22 12:33N 31°07' E 121°28'64640103.0
2014-Nov-22 12:32N 23°04' E 113°26'658169210.0
2014-Nov-22 12:32N 31°21' E 121°31'462.2
2014-Nov-22 12:28N 31°24' E 121°31'658717.9
2014-Nov-22 11:33N 23°04' E 113°30'644579560.8
2014-Nov-22 11:33N 31°07' E 121°28'142084.8
2014-Nov-22 11:33N 31°21' E 121°30'44541.8
2014-Nov-22 11:33N 31°25' E 121°30'79826.3
2014-Nov-22 11:27N 31°58' E 120°05'66076592.1
2014-Nov-22 11:26N 22°27' E 113°53'6813001.6
2014-Nov-22 11:13N 31°58' E 120°51'6621003.5
2014-Nov-22 10:33N 23°04' E 113°30'65778850.3
2014-Nov-22 10:33N 31°23' E 121°30'5315796.1
2014-Nov-22 10:33N 32°00' E 120°47'21017.5
2014-Nov-22 10:32N 32°00' E 120°49'423971.7
2014-Nov-22 10:32N 31°30' E 121°23'232183.7
2014-Nov-22 10:31N 31°07' E 121°28'832227.3
2014-Nov-22 10:29N 31°57' E 120°10'4136114.6
2014-Nov-22 10:25N 38°44' E 121°32'106915038.1
2014-Nov-22 10:21N 22°17' E 113°36'45358.3
2014-Nov-22 10:13N 23°02' E 113°31'6601000.2
2014-Nov-22 09:33N 31°24' E 121°32'72260935.1
2014-Nov-22 09:33N 31°57' E 120°16'64345410.4
2014-Nov-22 09:33N 23°04' E 113°30'644178330.0
2014-Nov-22 09:32N 31°07' E 121°28'2952518.9
2014-Nov-22 09:32N 31°35' E 121°18'42938636.4
2014-Nov-22 09:32N 38°44' E 121°29'102890266.3
2014-Nov-22 09:31N 23°02' E 113°31'6649054.3
2014-Nov-22 09:27N 31°58' E 120°51'1237.3
2014-Nov-22 09:06N 31°60' E 120°37'3 5.1
2014-Nov-22 08:33N 32°01' E 120°33'3823086.5
2014-Nov-22 08:33N 31°40' E 121°12'46166568.1
2014-Nov-22 08:33N 31°60' E 120°22'63113482.1
2014-Nov-22 08:33N 31°28' E 121°27'65922155.5
2014-Nov-22 08:32N 23°04' E 113°30'337.1
2014-Nov-22 08:27N 23°02' E 113°31'6456656.1
2014-Nov-22 08:22N 31°07' E 121°28'68633821.6
2014-Nov-22 08:20N 22°10' E 113°31'6848855.3
2014-Nov-22 08:16N 31°58' E 120°02'638900.7
2014-Nov-22 07:33N 23°04' E 113°30'65949416.6
2014-Nov-22 07:32N 31°43' E 121°06'201500.9
2014-Nov-22 07:32N 31°30' E 121°24'66417982.5
2014-Nov-22 07:29N 23°03' E 113°21'650585146.2
2014-Nov-22 07:29N 31°07' E 121°28'645692.2
2014-Nov-22 06:33N 23°02' E 113°31'3186.2
2014-Nov-22 06:33N 23°04' E 113°29'65946485.5
2014-Nov-22 06:32N 31°30' E 121°24'6736440.9
2014-Nov-22 06:25N 22°38' E 113°41'67336169.5
2014-Nov-22 06:24N 31°09' E 121°53'67912041.8
2014-Nov-22 06:21N 22°27' E 113°47'1360.5
2014-Nov-22 06:08N 22°14' E 113°42'65211177.6
2014-Nov-22 06:04N 29°49' E 122°22'6261222.2
2014-Nov-22 05:33N 23°02' E 113°31'662476319.7
2014-Nov-22 05:33N 31°14' E 121°47'66199076.4
2014-Nov-22 05:33N 23°04' E 113°29'289216.0
2014-Nov-22 05:33N 22°38' E 113°41'6732421192.0
2014-Nov-22 05:33N 31°30' E 121°23'48756549.8
2014-Nov-22 05:32N 39°04' E 117°48'1029148232.9
2014-Nov-22 05:32N 22°16' E 113°48'10659213.7
2014-Nov-22 05:25N 38°43' E 121°30'10352953.5
2014-Nov-22 05:04N 22°53' E 113°31'6721318.8
2014-Nov-22 04:33N 31°19' E 121°48'214621.8
2014-Nov-22 04:33N 31°07' E 121°28'235616.6
2014-Nov-22 04:33N 31°30' E 121°23'66732029.5
2014-Nov-22 04:31N 22°55' E 113°27'661158536.0
2014-Nov-22 04:31N 32°01' E 120°25'651123415.2
2014-Nov-22 04:31N 23°04' E 113°29'3141.5
2014-Nov-22 04:30N 23°02' E 113°31'65656188.7
2014-Nov-22 04:29N 31°22' E 121°27'4969308.0
2014-Nov-22 04:26N 39°04' E 117°47'102311612.6
2014-Nov-22 04:21N 22°30' E 113°10'68636857.4
2014-Nov-22 04:19N 31°57' E 120°24'671127132.3
2014-Nov-22 04:19N 22°27' E 113°47'669873.4
2014-Nov-22 03:33N 31°57' E 120°18'445800582.7
2014-Nov-22 03:33N 39°05' E 117°46'985197071.1
2014-Nov-22 03:33N 23°04' E 113°29'658263351.8
2014-Nov-22 03:33N 31°30' E 121°23'2238943.7
2014-Nov-22 03:33N 31°25' E 121°48'783991.7
2014-Nov-22 03:32N 31°57' E 120°24'64921045.9
2014-Nov-22 03:30N 23°02' E 113°31'65621070.3
2014-Nov-22 03:28N 31°21' E 121°27'69222451.5
2014-Nov-22 03:26N 22°30' E 113°10'692791.1
2014-Nov-22 02:33N 31°21' E 121°27'654147258.7
2014-Nov-22 02:33N 23°04' E 113°29'65884648.8
2014-Nov-22 02:33N 31°30' E 121°23'22666.4
2014-Nov-22 02:31N 31°45' E 121°03'697228099.7
2014-Nov-22 02:31N 22°30' E 113°10'686102909.1
2014-Nov-22 02:30N 31°57' E 120°24'67711835.0
2014-Nov-22 02:27N 22°19' E 113°48'464985.7
2014-Nov-22 02:26N 23°02' E 113°31'3 3.0
2014-Nov-22 01:33N 23°04' E 113°29'65494245.6
2014-Nov-22 01:32N 31°21' E 121°27'93358.5
2014-Nov-22 01:32N 31°30' E 121°23'6793314.7
2014-Nov-22 01:20N 22°27' E 113°47'12331.2
2014-Nov-22 01:18N 22°16' E 113°43'33574.1
2014-Nov-22 01:14N 22°30' E 113°10'701100936.1
2014-Nov-22 01:14N 32°01' E 120°47'353.2
2014-Nov-22 01:11N 31°59' E 120°50'6199.0
2014-Nov-22 00:33N 31°07' E 121°28'141781.6
2014-Nov-22 00:33N 31°21' E 121°27'916802.7
2014-Nov-22 00:33N 31°30' E 121°23'67826812.5
2014-Nov-22 00:31N 22°28' E 113°47'391576.3
2014-Nov-22 00:30N 23°04' E 113°29'645386900.8
2014-Nov-22 00:30N 31°58' E 120°17'684615634.6
2014-Nov-22 00:30N 22°12' E 113°40'32797.1
2014-Nov-22 00:27N 22°30' E 113°10'696776.8
2014-Nov-21 23:33N 31°32' E 121°21'658148148.0
2014-Nov-21 23:33N 23°04' E 113°29'66329453.6
2014-Nov-21 23:32N 32°01' E 120°47'7018671.5
2014-Nov-21 23:27N 22°30' E 113°10'6928307.0
2014-Nov-21 23:22N 31°21' E 121°27'1417.6
2014-Nov-21 22:33N 31°07' E 121°28'64474812.0
2014-Nov-21 22:32N 23°04' E 113°29'65965920.5
2014-Nov-21 22:32N 31°35' E 121°18'16259.4
2014-Nov-21 22:28N 31°22' E 121°28'66992.6
2014-Nov-21 22:24N 32°02' E 120°26'653774.1
2014-Nov-21 21:33N 23°04' E 113°29'659197844.2
2014-Nov-21 21:33N 31°39' E 121°14'373509.6
2014-Nov-21 21:33N 31°60' E 120°38'682707.0
2014-Nov-21 21:31N 31°07' E 121°28'644667.6
2014-Nov-21 20:33N 23°04' E 113°29'644289894.4
2014-Nov-21 20:33N 31°07' E 121°28'387635.4
2014-Nov-21 20:33N 31°42' E 121°09'373712.9
2014-Nov-21 20:32N 32°01' E 120°32'66943018.2
2014-Nov-21 20:31N 22°45' E 113°33'28106.0
2014-Nov-21 20:15N 22°24' E 113°54'680977.1
2014-Nov-21 19:33N 31°44' E 121°05'6591187009.8
2014-Nov-21 19:33N 23°04' E 113°29'65423558.3
2014-Nov-21 19:32N 32°01' E 120°31'735709.9
2014-Nov-21 19:31N 31°07' E 121°28'4573303.4
2014-Nov-21 19:23N 38°44' E 121°30'10271241.5
2014-Nov-21 18:33N 23°04' E 113°29'659790840.7
2014-Nov-21 18:33N 31°45' E 121°03'321501.1
2014-Nov-21 18:32N 32°01' E 120°31'1603916.8
2014-Nov-21 18:29N 29°50' E 122°18'63078172.6
2014-Nov-21 18:29N 22°47' E 113°38'1494.6
2014-Nov-21 18:20N 22°35' E 113°46'6745931.3
2014-Nov-21 18:13N 31°40' E 121°12'3 4.9
2014-Nov-21 17:33N 31°42' E 121°09'659197739.0
2014-Nov-21 17:33N 23°04' E 113°29'659124868.7
2014-Nov-21 17:33N 31°45' E 121°03'66537383.2
2014-Nov-21 17:32N 22°54' E 113°35'660132085.3
2014-Nov-21 17:32N 32°01' E 120°31'40669645.6
2014-Nov-21 17:31N 38°44' E 121°35'10281064.6
2014-Nov-21 16:33N 23°04' E 113°29'659169473.1
2014-Nov-21 16:33N 31°45' E 121°03'419188699.5
2014-Nov-21 16:33N 38°44' E 121°34'42028018.7
2014-Nov-21 16:32N 31°44' E 121°05'344895.5
2014-Nov-21 16:32N 32°01' E 120°31'1603916.6
2014-Nov-21 16:29N 29°50' E 122°18'624670.1
2014-Nov-21 15:33N 23°04' E 113°29'659215686.6
2014-Nov-21 15:33N 31°45' E 121°03'67517992.3
2014-Nov-21 15:31N 22°44' E 113°30'67117621.8
2014-Nov-21 15:29N 32°01' E 120°31'654710.2
2014-Nov-21 14:33N 23°04' E 113°29'659395425.4
2014-Nov-21 14:33N 31°45' E 121°04'419100652.5
2014-Nov-21 14:33N 38°44' E 121°31'40617813.8
2014-Nov-21 14:32N 32°01' E 120°31'73661.5
2014-Nov-21 14:25N 31°07' E 121°28'6443118.5
2014-Nov-21 14:13N 23°03' E 113°30'1 1.6
2014-Nov-21 13:33N 23°04' E 113°29'65938273.1
2014-Nov-21 13:32N 31°46' E 121°03'322801.2
2014-Nov-21 13:32N 32°01' E 120°31'674606379.9
2014-Nov-21 13:31N 22°47' E 113°19'38844.8
2014-Nov-21 13:29N 22°26' E 113°53'66010293.3
2014-Nov-21 13:25N 31°07' E 121°28'4571283.7
2014-Nov-21 13:04N 38°44' E 121°28'10302042.2
2014-Nov-21 12:33N 23°02' E 113°24'1030195121.9
2014-Nov-21 12:33N 38°44' E 121°29'418188191.3
2014-Nov-21 12:33N 31°47' E 120°57'473162.2
2014-Nov-21 12:32N 31°07' E 121°28'652138145.7
2014-Nov-21 12:32N 22°54' E 113°28'100035636.6
2014-Nov-21 12:30N 37°55' E 121°50'36015075.1
2014-Nov-21 12:29N 32°01' E 120°31'6514462.6
2014-Nov-21 12:20N 23°04' E 113°36'651842.4
2014-Nov-21 11:33N 32°01' E 120°30'2240124.8
2014-Nov-21 11:33N 31°51' E 120°54'66022013.0
2014-Nov-21 11:32N 22°58' E 113°34'64662849.8
2014-Nov-21 11:31N 31°07' E 121°28'7014867.2
2014-Nov-21 11:31N 31°52' E 120°25'1562653.6
2014-Nov-21 11:27N 29°50' E 122°18'6549976.8
2014-Nov-21 11:23N 22°14' E 113°36'107250761.1
2014-Nov-21 11:22N 38°44' E 121°33'408504.3
2014-Nov-21 10:34N 32°00' E 120°24'5480.1
2014-Nov-21 10:33N 32°02' E 120°29'203128.2
2014-Nov-21 10:33N 31°56' E 120°52'698125572.8
2014-Nov-21 10:32N 22°16' E 113°36'12737.5
2014-Nov-21 10:31N 22°16' E 113°49'1067174602.7
2014-Nov-21 10:31N 38°45' E 121°36'10306968.0
2014-Nov-21 10:22N 23°03' E 113°30'99131026.5
2014-Nov-21 10:20N 37°58' E 121°45'3692320.9
2014-Nov-21 10:11N 31°58' E 120°01'6761090.4
2014-Nov-21 09:33N 22°13' E 113°42'687824140.8
2014-Nov-21 09:33N 31°59' E 120°22'42814.1
2014-Nov-21 09:33N 31°57' E 120°18'263499.2
2014-Nov-21 09:33N 31°60' E 120°49'18308.8
2014-Nov-21 09:29N 32°04' E 120°28'65517734.8
2014-Nov-21 09:27N 23°04' E 113°30'102617925.3
2014-Nov-21 09:24N 38°43' E 121°30'4055656.4
2014-Nov-21 09:19N 32°00' E 120°33'307216.6
2014-Nov-21 09:19N 32°01' E 119°58'67528949.1
2014-Nov-21 09:18N 22°18' E 113°35'681925.2
2014-Nov-21 08:33N 31°57' E 120°17'12980.3
2014-Nov-21 08:33N 32°04' E 120°28'635658.0
2014-Nov-21 08:32N 31°06' E 120°56'581043.9
2014-Nov-21 08:29N 32°00' E 120°33'65522452.8
2014-Nov-21 08:27N 23°04' E 113°30'12303.3
2014-Nov-21 08:25N 23°03' E 113°16'556581.2
2014-Nov-21 08:24N 22°11' E 113°33'10755180.5
2014-Nov-21 08:12N 38°43' E 121°33'45614275.7
2014-Nov-21 08:10N 31°07' E 121°28'80133.4
2014-Nov-21 07:34N 31°56' E 120°13'8012562.3
2014-Nov-21 07:33N 31°07' E 121°28'6512343117.4
2014-Nov-21 07:33N 23°03' E 113°19'263105109.4
2014-Nov-21 07:33N 24°25' E 117°52'47714803.9
2014-Nov-21 07:31N 32°00' E 120°33'69320294.6
2014-Nov-21 07:29N 22°30' E 113°10'391149.2
2014-Nov-21 07:27N 23°04' E 113°30'62623240.5
2014-Nov-21 07:25N 31°04' E 121°01'83353.8
2014-Nov-21 07:11N 32°06' E 119°56'27471.1
2014-Nov-21 07:08N 32°04' E 120°28'0 0.7
2014-Nov-21 06:33N 32°04' E 120°28'287746.0
2014-Nov-21 06:33N 32°03' E 119°55'33916.7
2014-Nov-21 06:31N 32°00' E 120°33'3644020.3
2014-Nov-21 06:26N 38°01' E 121°37'9905739.9
2014-Nov-21 06:15N 23°04' E 113°30'6444673.8
2014-Nov-21 06:07N 31°07' E 121°28'64716071.3
2014-Nov-21 06:04N 22°55' E 113°36'6471195.7
2014-Nov-21 05:32N 31°07' E 121°28'784507.3
2014-Nov-21 05:31N 32°02' E 120°24'690155326.6
2014-Nov-21 05:31N 22°30' E 113°10'69317579.1
2014-Nov-21 05:28N 32°00' E 120°33'65529106.9
2014-Nov-21 05:27N 23°04' E 113°30'66210643.8
2014-Nov-21 05:23N 31°60' E 120°49'661319.3
2014-Nov-21 05:20N 30°58' E 121°15'953672.0
2014-Nov-21 05:19N 32°03' E 119°55'6603085.2
2014-Nov-21 05:06N 22°27' E 113°53'6441193.3
2014-Nov-21 04:33N 30°57' E 121°13'6291.9
2014-Nov-21 04:32N 30°59' E 121°20'11594.5
2014-Nov-21 04:31N 31°07' E 121°28'719794.7
2014-Nov-21 04:31N 32°00' E 120°33'13554.7
2014-Nov-21 04:29N 31°60' E 120°49'70121021.0
2014-Nov-21 04:27N 22°30' E 113°10'102922316.3
2014-Nov-21 04:25N 37°58' E 121°44'36215879.7
2014-Nov-21 04:23N 32°02' E 120°24'47712707.9
2014-Nov-21 04:21N 24°25' E 117°52'2531727.6
2014-Nov-21 04:12N 23°04' E 113°30'631978.1
2014-Nov-21 03:33N 30°58' E 121°18'71241.1
2014-Nov-21 03:33N 31°00' E 121°26'685947.2
2014-Nov-21 03:32N 31°60' E 120°49'638049.5
2014-Nov-21 03:32N 31°07' E 121°28'713441.2
2014-Nov-21 03:31N 32°00' E 120°33'6555850.3
2014-Nov-21 03:24N 23°04' E 113°30'3915450.3
2014-Nov-21 03:24N 22°30' E 113°10'3415284.1
2014-Nov-21 03:24N 23°02' E 113°21'668343775.3
2014-Nov-21 03:24N 32°01' E 120°47'6678635.3
2014-Nov-21 03:19N 22°55' E 113°36'64334566.9
2014-Nov-21 03:18N 32°03' E 119°55'25114.3
2014-Nov-21 03:05N 32°02' E 120°24'66341143.3
2014-Nov-21 03:04N 22°48' E 113°35'631151320.6
2014-Nov-21 03:04N 29°51' E 122°17'535962156.0
2014-Nov-21 03:04N 38°44' E 121°33'406810.2
2014-Nov-21 02:34N 32°00' E 120°33'7489090.1
2014-Nov-21 02:33N 30°59' E 121°23'8057559.0
2014-Nov-21 02:33N 32°01' E 120°23'204896.0
2014-Nov-21 02:33N 32°01' E 120°47'63226751.2
2014-Nov-21 02:33N 31°25' E 121°48'66989244.3
2014-Nov-21 02:33N 23°05' E 113°27'64552754.3
2014-Nov-21 02:32N 31°07' E 121°28'650390223.5
2014-Nov-21 02:32N 23°03' E 113°20'3216.2
2014-Nov-21 02:31N 23°02' E 113°24'431881.4
2014-Nov-21 02:30N 22°29' E 113°53'68076506.8
2014-Nov-21 02:29N 31°60' E 120°48'4065575.4
2014-Nov-21 02:25N 38°44' E 121°32'1066255729.2
2014-Nov-21 02:24N 22°30' E 113°10'261069.6
2014-Nov-21 02:23N 22°17' E 113°35'103210987.1
2014-Nov-21 02:17N 37°56' E 121°50'361493.6
2014-Nov-21 01:33N 32°00' E 120°33'7466795.2
2014-Nov-21 01:33N 30°59' E 121°23'916323.5
2014-Nov-21 01:33N 31°07' E 121°28'207057.9
2014-Nov-21 01:33N 31°19' E 121°47'664477780.9
2014-Nov-21 01:33N 23°04' E 113°29'64555251.4
2014-Nov-21 01:32N 31°57' E 120°18'256093.8
2014-Nov-21 01:32N 32°01' E 120°47'1824.9
2014-Nov-21 01:32N 31°60' E 120°48'67024346.0
2014-Nov-21 01:30N 23°04' E 113°16'20957.9
2014-Nov-21 01:29N 22°54' E 113°35'103446524.1
2014-Nov-21 01:28N 38°44' E 121°29'106521536.3
2014-Nov-21 01:25N 22°30' E 113°10'3869257.0
2014-Nov-21 01:25N 23°04' E 113°29'47412.5
2014-Nov-21 01:18N 22°17' E 113°35'47936.0
2014-Nov-21 01:15N 23°04' E 113°30'11203.2
2014-Nov-21 01:12N 22°55' E 113°36'2515052.8
2014-Nov-21 01:09N 24°25' E 117°52'477808.5
2014-Nov-21 00:33N 32°00' E 120°33'7426718.1
2014-Nov-21 00:33N 30°59' E 121°23'2623717.7
2014-Nov-21 00:33N 31°13' E 121°49'45971777.4
2014-Nov-21 00:33N 24°25' E 117°52'25130142.7
2014-Nov-21 00:32N 22°55' E 113°36'666199911.2
2014-Nov-21 00:32N 31°60' E 120°48'684273441.5
2014-Nov-21 00:32N 22°24' E 113°54'68474637.4
2014-Nov-21 00:31N 32°01' E 120°47'64851.6
2014-Nov-21 00:27N 31°07' E 121°28'822899.2
2014-Nov-21 00:25N 31°56' E 120°10'19275.3
2014-Nov-21 00:21N 32°00' E 120°32'69295877.7
2014-Nov-21 00:21N 22°30' E 113°10'26404.2
2014-Nov-21 00:17N 22°17' E 113°35'47721.1
2014-Nov-21 00:13N 23°04' E 113°29'157.9
2014-Nov-21 00:12N 23°03' E 113°30'6368450.9
2014-Nov-21 00:07N 30°60' E 121°24'6361145360.4
2014-Nov-21 00:07N 23°04' E 113°29'6351133.9
2014-Nov-20 23:33N 30°59' E 121°23'6935434.5
2014-Nov-20 23:33N 32°00' E 120°46'105311.7
2014-Nov-20 23:33N 32°00' E 120°33'124706.9
2014-Nov-20 23:33N 32°01' E 120°47'66746169.0
2014-Nov-20 23:32N 22°55' E 113°36'665478573.7
2014-Nov-20 23:32N 31°07' E 121°57'257458.6
2014-Nov-20 23:32N 31°07' E 121°28'64445470.9
2014-Nov-20 23:31N 23°04' E 113°29'65419296.3
2014-Nov-20 23:29N 32°02' E 120°29'65430977.0
2014-Nov-20 23:28N 23°04' E 113°29'41264.7
2014-Nov-20 23:18N 22°26' E 113°47'403390.1
2014-Nov-20 23:18N 23°03' E 113°30'635862.2
2014-Nov-20 22:33N 30°59' E 121°23'7121176.4
2014-Nov-20 22:33N 31°60' E 120°40'73733.5
2014-Nov-20 22:33N 32°01' E 120°31'98118068.8
2014-Nov-20 22:33N 31°03' E 122°05'66620147.7
2014-Nov-20 22:31N 22°55' E 113°36'667400131.1
2014-Nov-20 22:31N 32°01' E 120°47'643722.0
2014-Nov-20 22:30N 31°07' E 121°28'678221788.6
2014-Nov-20 22:30N 22°17' E 113°35'471643.9
2014-Nov-20 22:28N 23°04' E 113°29'9819629.9
2014-Nov-20 22:28N 23°04' E 115°16'60015880.7
2014-Nov-20 22:26N 31°59' E 120°22'791460.5
2014-Nov-20 22:22N 31°05' E 121°28'6137.6
2014-Nov-20 22:20N 30°59' E 121°24'65629882.2
2014-Nov-20 22:18N 22°26' E 113°47'655877.1
2014-Nov-20 21:34N 30°59' E 121°23'69247557.3
2014-Nov-20 21:34N 32°01' E 120°47'138028.9
2014-Nov-20 21:33N 32°01' E 120°31'3920.0
2014-Nov-20 21:33N 32°01' E 120°35'65720032.2
2014-Nov-20 21:31N 23°04' E 113°29'471820.5
2014-Nov-20 21:30N 22°17' E 113°35'67610354.5
2014-Nov-20 21:26N 31°05' E 121°28'64658110.7
2014-Nov-20 21:25N 22°55' E 113°36'1170.4
2014-Nov-20 21:16N 23°04' E 113°29'635899.8
2014-Nov-20 20:33N 30°59' E 121°23'692720.2
2014-Nov-20 20:32N 32°01' E 120°47'645244.2
2014-Nov-20 20:31N 31°07' E 121°28'644772957.9
2014-Nov-20 20:31N 23°04' E 113°29'64216882.1
2014-Nov-20 20:29N 31°05' E 121°28'676162220.3
2014-Nov-20 20:29N 22°17' E 113°35'4821761.3
2014-Nov-20 20:28N 23°03' E 113°18'66133051.2
2014-Nov-20 20:27N 32°01' E 120°31'341.4
2014-Nov-20 20:23N 32°04' E 120°31'676152019.2
2014-Nov-20 20:22N 22°48' E 113°19'65715670.8
2014-Nov-20 20:20N 32°03' E 119°55'6392375.0
2014-Nov-20 20:04N 23°04' E 113°29'6351259.4
2014-Nov-20 19:33N 30°59' E 121°23'8460203.0
2014-Nov-20 19:33N 29°51' E 122°18'152109386.3
2014-Nov-20 19:33N 32°01' E 120°47'6411541.8
2014-Nov-20 19:33N 31°07' E 121°28'64419487.3
2014-Nov-20 19:31N 23°04' E 113°29'65435695.4
2014-Nov-20 19:30N 32°01' E 120°31'65421222.4
2014-Nov-20 19:28N 23°04' E 113°29'65624605.6
2014-Nov-20 19:26N 32°04' E 120°30'783633.9
2014-Nov-20 19:25N 31°05' E 121°28'6422775.6
2014-Nov-20 19:11N 23°04' E 113°30'463695.0
2014-Nov-20 19:11N 22°17' E 113°35'291203.7
2014-Nov-20 19:09N 22°45' E 113°24'6811147.6
2014-Nov-20 18:33N 32°01' E 120°47'6935390.7
2014-Nov-20 18:33N 30°59' E 121°23'7627187.8
2014-Nov-20 18:33N 32°01' E 120°31'4930.9
2014-Nov-20 18:33N 32°04' E 120°30'65621475.6
2014-Nov-20 18:31N 23°04' E 113°29'471793.6
2014-Nov-20 18:30N 22°17' E 113°35'27240.7
2014-Nov-20 18:23N 22°44' E 113°28'1393.0
2014-Nov-20 18:14N 22°55' E 113°36'646154952.3
2014-Nov-20 18:14N 31°05' E 121°28'443113880.3
2014-Nov-20 18:14N 24°25' E 117°52'2532198.5
2014-Nov-20 18:07N 23°03' E 113°30'131.5
2014-Nov-20 18:04N 23°04' E 113°29'6351244.3
2014-Nov-20 17:33N 30°59' E 121°23'767552.2
2014-Nov-20 17:33N 32°01' E 120°31'4567.5
2014-Nov-20 17:32N 32°04' E 120°30'152184.7
2014-Nov-20 17:32N 32°01' E 120°47'48291240.9
2014-Nov-20 17:32N 24°24' E 117°56'2714976.6
2014-Nov-20 17:28N 22°17' E 113°35'476244.2
2014-Nov-20 17:28N 23°04' E 113°29'194647.6
2014-Nov-20 17:28N 22°45' E 113°33'65745489.9
2014-Nov-20 17:27N 31°07' E 121°28'6497537.8
2014-Nov-20 17:22N 22°54' E 113°35'1046.4
2014-Nov-20 17:08N 23°03' E 113°30'6361096.9
2014-Nov-20 16:33N 30°59' E 121°23'8015068.3
2014-Nov-20 16:33N 32°04' E 120°29'42882.9
2014-Nov-20 16:33N 32°01' E 120°31'131605.8
2014-Nov-20 16:33N 32°01' E 120°47'47935173.0
2014-Nov-20 16:32N 24°25' E 118°02'26221945.7
2014-Nov-20 16:31N 23°04' E 113°29'471738.3
2014-Nov-20 16:29N 22°17' E 113°35'46864.1
2014-Nov-20 16:26N 23°03' E 113°30'1 5.6
2014-Nov-20 16:11N 23°04' E 113°29'1 0.9
2014-Nov-20 15:33N 23°04' E 113°30'6352286248.5
2014-Nov-20 15:33N 30°59' E 121°23'8012013.5
2014-Nov-20 15:33N 32°02' E 120°25'64227.9
2014-Nov-20 15:33N 32°01' E 120°31'47590066.6
2014-Nov-20 15:33N 24°23' E 118°08'443132787.3
2014-Nov-20 15:32N 31°09' E 121°27'647232816.8
2014-Nov-20 15:32N 23°00' E 113°31'31109.1
2014-Nov-20 15:32N 23°03' E 113°30'236.0
2014-Nov-20 15:29N 23°03' E 113°32'63614953.4
2014-Nov-20 15:27N 30°59' E 121°24'6709030.9
2014-Nov-20 15:22N 22°17' E 113°35'69915631.7
2014-Nov-20 15:20N 32°01' E 120°47'2329.3
2014-Nov-20 14:33N 31°59' E 120°21'8057353.0
2014-Nov-20 14:33N 30°59' E 121°23'1554212.1
2014-Nov-20 14:33N 31°13' E 121°30'698326.2
2014-Nov-20 14:33N 32°01' E 120°31'480144120.5
2014-Nov-20 14:33N 24°17' E 118°10'446133821.1
2014-Nov-20 14:32N 31°07' E 121°28'64924073.6
2014-Nov-20 14:31N 22°55' E 113°33'3179.8
2014-Nov-20 14:30N 22°53' E 113°31'6718358.7
2014-Nov-20 14:25N 32°01' E 120°47'66291729.8
2014-Nov-20 14:25N 23°04' E 113°30'471257.1
2014-Nov-20 14:22N 22°17' E 113°35'46335.7
2014-Nov-20 14:14N 23°03' E 113°30'663979.9
2014-Nov-20 13:33N 32°01' E 120°47'6911790.3
2014-Nov-20 13:33N 30°59' E 121°23'7513585.9
2014-Nov-20 13:33N 32°01' E 120°31'141967.9
2014-Nov-20 13:32N 31°56' E 120°16'794371.0
2014-Nov-20 13:31N 31°07' E 121°28'65212829.4
2014-Nov-20 13:28N 23°03' E 113°17'12192.0
2014-Nov-20 13:24N 23°04' E 113°30'262235827.8
2014-Nov-20 13:24N 24°13' E 118°06'2622657.1
2014-Nov-20 13:18N 23°03' E 113°30'461260.7
2014-Nov-20 13:16N 22°17' E 113°35'38221.2
2014-Nov-20 13:06N 22°54' E 113°22'6471199.5
2014-Nov-20 12:34N 30°59' E 121°23'8425193.1
2014-Nov-20 12:33N 31°56' E 120°10'64372333.0
2014-Nov-20 12:33N 23°03' E 113°25'658592087.5
2014-Nov-20 12:33N 32°01' E 120°31'722403.1
2014-Nov-20 12:31N 31°07' E 121°28'644110476.1
2014-Nov-20 12:31N 23°03' E 113°30'4319478.6
2014-Nov-20 12:30N 22°26' E 113°53'19524.0
2014-Nov-20 12:28N 22°17' E 113°35'6997649.4
2014-Nov-20 12:23N 32°01' E 120°47'68417704.3
2014-Nov-20 12:20N 22°25' E 113°53'6748986.7
2014-Nov-20 12:16N 31°21' E 121°32'4722779.2
2014-Nov-20 12:06N 24°08' E 118°00'449833.0
2014-Nov-20 11:33N 30°59' E 121°23'8928976.4
2014-Nov-20 11:33N 31°57' E 120°04'63885048.1
2014-Nov-20 11:33N 23°04' E 113°29'644231898.3
2014-Nov-20 11:33N 31°07' E 121°28'72129773.2
2014-Nov-20 11:33N 32°01' E 120°31'639421.1
2014-Nov-20 11:32N 31°22' E 121°30'6779442.7
2014-Nov-20 11:28N 22°26' E 113°47'40707.7
2014-Nov-20 11:24N 23°03' E 113°30'40236.6
2014-Nov-20 11:14N 22°29' E 113°52'3169184.8
2014-Nov-20 11:12N 24°44' E 119°04'3359509.2
2014-Nov-20 11:10N 22°17' E 113°35'6691092.8
2014-Nov-20 10:34N 30°59' E 121°23'9315968.2
2014-Nov-20 10:33N 31°59' E 119°59'637104295.3
2014-Nov-20 10:33N 23°04' E 113°29'65473616.9
2014-Nov-20 10:32N 32°01' E 120°31'7219965.1
2014-Nov-20 10:32N 31°07' E 121°28'660237456.0
2014-Nov-20 10:32N 22°27' E 113°53'20417.0
2014-Nov-20 10:29N 22°17' E 113°35'9507.5
2014-Nov-20 10:28N 22°17' E 113°44'6888546.9
2014-Nov-20 10:23N 31°27' E 121°28'6586303.3
2014-Nov-20 10:17N 23°04' E 113°30'1 5.6
2014-Nov-20 10:06N 23°03' E 113°30'6361160.3
2014-Nov-20 09:34N 30°59' E 121°23'63595265.8
2014-Nov-20 09:33N 23°04' E 113°30'39139644.8
2014-Nov-20 09:33N 22°29' E 113°47'67552862.7
2014-Nov-20 09:32N 32°01' E 120°31'696357800.3
2014-Nov-20 09:32N 22°11' E 113°38'68119312.1
2014-Nov-20 09:30N 32°03' E 119°56'5015477.4
2014-Nov-20 09:25N 23°55' E 117°48'2432002.6
2014-Nov-20 09:17N 23°03' E 113°30'46374.2
2014-Nov-20 09:10N 22°17' E 113°35'133711406.6
2014-Nov-20 09:03N 00°01' E 114°12'19043881.4
2014-Nov-20 08:34N 30°59' E 121°23'677348119.7
2014-Nov-20 08:33N 22°10' E 113°31'5410830.1
2014-Nov-20 08:33N 23°04' E 113°30'65439919.3
2014-Nov-20 08:32N 32°01' E 120°31'727421.4
2014-Nov-20 08:32N 31°07' E 121°28'9911084.8
2014-Nov-20 08:31N 32°06' E 119°55'6417231.4
2014-Nov-20 08:26N 23°03' E 113°30'46733.5
2014-Nov-20 08:22N 22°17' E 113°35'69917355.8
2014-Nov-20 08:20N 32°01' E 120°47'6623097.3
2014-Nov-20 08:07N 23°04' E 113°30'6351146.0
2014-Nov-20 07:33N 30°59' E 121°23'728690.9
2014-Nov-20 07:33N 31°52' E 120°25'7015802.3
2014-Nov-20 07:33N 31°07' E 121°28'644144888.5
2014-Nov-20 07:32N 23°04' E 113°30'654117762.7
2014-Nov-20 07:32N 32°01' E 120°31'516168988.9
2014-Nov-20 07:32N 23°47' E 117°39'23341913.4
2014-Nov-20 07:32N 23°03' E 113°30'13466.6
2014-Nov-20 07:30N 23°04' E 113°16'13746.9
2014-Nov-20 07:29N 23°04' E 113°30'39543.4
2014-Nov-20 07:25N 22°30' E 113°10'26551.9
2014-Nov-20 07:22N 22°17' E 113°35'69946605.9
2014-Nov-20 07:21N 32°01' E 120°47'86566.7
2014-Nov-20 07:12N 31°03' E 122°03'3554.1
2014-Nov-20 06:33N 30°59' E 121°23'91166.6
2014-Nov-20 06:33N 31°07' E 121°28'644231816.9
2014-Nov-20 06:33N 23°04' E 113°30'65444438.4
2014-Nov-20 06:32N 32°01' E 120°31'522187952.6
2014-Nov-20 06:32N 23°42' E 117°36'2294764.7
2014-Nov-20 06:29N 23°04' E 113°30'4712030.9
2014-Nov-20 06:29N 22°17' E 113°35'46891.7
2014-Nov-20 06:26N 23°03' E 113°30'38176.2
2014-Nov-20 06:13N 22°30' E 113°10'69826435.5
2014-Nov-20 06:11N 31°09' E 121°52'531152.3
2014-Nov-20 06:08N 31°44' E 121°06'4781.4
2014-Nov-20 05:33N 30°60' E 121°25'637114571.2
2014-Nov-20 05:33N 23°04' E 113°30'95159030.1
2014-Nov-20 05:32N 36°54' E 122°26'30858329.0
2014-Nov-20 05:32N 32°01' E 120°31'801242.5
2014-Nov-20 05:28N 31°14' E 121°47'66116070.4
2014-Nov-20 05:25N 23°03' E 113°30'111.6
2014-Nov-20 05:19N 23°04' E 113°29'64417702.1
2014-Nov-20 05:17N 31°07' E 121°28'6825301.4
2014-Nov-20 05:09N 22°30' E 113°10'70112369.3
2014-Nov-20 05:06N 32°01' E 120°47'69127.7
2014-Nov-20 04:33N 31°02' E 121°29'2340542.6
2014-Nov-20 04:33N 31°18' E 121°47'772812.2
2014-Nov-20 04:32N 32°01' E 120°31'65457462.7
2014-Nov-20 04:31N 23°04' E 113°29'129.7
2014-Nov-20 04:30N 23°04' E 113°30'38684.8
2014-Nov-20 04:27N 22°31' E 113°10'37921.7
2014-Nov-20 04:24N 23°03' E 113°30'6442691.5
2014-Nov-20 04:10N 31°07' E 121°28'651167437.7
2014-Nov-20 04:10N 22°51' E 113°34'41441.7
2014-Nov-20 04:04N 22°10' E 113°31'7091384.2
2014-Nov-20 03:33N 31°24' E 121°47'233210.5
2014-Nov-20 03:33N 31°08' E 121°27'648333233.0
2014-Nov-20 03:33N 22°55' E 113°36'64739498.2
2014-Nov-20 03:32N 31°07' E 121°28'644331167.0
2014-Nov-20 03:32N 23°04' E 113°30'654785079.1
2014-Nov-20 03:32N 32°01' E 120°31'30858304.2
2014-Nov-20 03:31N 36°54' E 122°26'9606778.2
2014-Nov-20 03:23N 22°54' E 113°28'9118.6
2014-Nov-20 03:18N 23°03' E 113°30'6633469.8
2014-Nov-20 03:07N 32°01' E 120°47'66314547.6
2014-Nov-20 03:04N 23°04' E 113°29'6471268.4
2014-Nov-20 02:34N 31°11' E 121°28'24868.4
2014-Nov-20 02:32N 31°28' E 121°47'7218506.8
2014-Nov-20 02:32N 32°01' E 120°31'654181179.2
2014-Nov-20 02:31N 23°04' E 113°30'644144892.5
2014-Nov-20 02:31N 31°07' E 121°28'644210829.6
2014-Nov-20 02:31N 23°04' E 113°29'951263369.0
2014-Nov-20 02:31N 36°54' E 122°26'952131756.0
2014-Nov-20 02:30N 23°03' E 113°30'38343.4
2014-Nov-20 02:24N 22°30' E 113°10'27438.4
2014-Nov-20 02:20N 22°09' E 113°28'1078129372.8
2014-Nov-20 02:20N 38°44' E 121°30'40414850.0
2014-Nov-20 02:18N 32°01' E 120°47'66818366.9
2014-Nov-20 02:16N 23°02' E 113°21'660935.9
2014-Nov-20 01:33N 32°01' E 120°31'6817455.7
2014-Nov-20 01:33N 31°15' E 121°30'68975124.9
2014-Nov-20 01:33N 22°30' E 113°10'385730.9
2014-Nov-20 01:32N 23°05' E 113°27'102690069.8
2014-Nov-20 01:32N 38°44' E 121°29'405486570.5
2014-Nov-20 01:31N 32°01' E 120°31'691177760.8
2014-Nov-20 01:31N 22°17' E 113°35'4114769.2
2014-Nov-20 01:31N 22°58' E 113°30'63039.9
2014-Nov-20 01:31N 23°04' E 113°29'951244559.7
2014-Nov-20 01:31N 36°54' E 122°26'35074095.7
2014-Nov-20 01:30N 31°07' E 121°28'641877.5
2014-Nov-20 01:28N 32°01' E 120°47'706158841.0
2014-Nov-20 01:28N 22°11' E 113°32'706774.9
2014-Nov-20 00:33N 32°01' E 120°47'672604394.7
2014-Nov-20 00:33N 22°55' E 113°27'667141230.2
2014-Nov-20 00:33N 31°46' E 121°00'295762.4
2014-Nov-20 00:33N 32°01' E 120°31'724825.9
2014-Nov-20 00:32N 31°07' E 121°28'727639.7
2014-Nov-20 00:31N 32°01' E 120°31'30828405.3
2014-Nov-20 00:31N 36°54' E 122°26'30626225.1
2014-Nov-20 00:30N 32°04' E 120°27'65526784.3
2014-Nov-20 00:29N 23°04' E 113°29'3877.2
2014-Nov-20 00:28N 23°01' E 113°31'3607.3
2014-Nov-20 00:28N 23°04' E 113°29'501001.3
2014-Nov-20 00:25N 22°14' E 113°36'973.3
2014-Nov-20 00:18N 22°09' E 113°29'271016.2
2014-Nov-20 00:16N 22°30' E 113°10'27451.3
2014-Nov-20 00:13N 22°11' E 113°32'7061083.8
2014-Nov-19 23:34N 32°01' E 120°47'30564492.6
2014-Nov-19 23:33N 36°54' E 122°27'961123575.0
2014-Nov-19 23:33N 22°54' E 113°28'665342200.8
2014-Nov-19 23:33N 31°59' E 120°38'141273.8
2014-Nov-19 23:32N 31°60' E 120°22'7014881.2
2014-Nov-19 23:32N 31°21' E 121°31'141084.6
2014-Nov-19 23:31N 31°07' E 121°28'724340.5
2014-Nov-19 23:30N 32°01' E 120°31'65528051.3
2014-Nov-19 23:29N 23°04' E 113°29'024.5
2014-Nov-19 23:28N 23°04' E 113°29'657157755.1
2014-Nov-19 23:28N 31°50' E 120°54'69516152.7
2014-Nov-19 23:25N 22°30' E 113°10'282046.2
2014-Nov-19 23:24N 22°10' E 113°32'157.4
2014-Nov-19 23:24N 22°11' E 113°32'699838.0
2014-Nov-19 22:33N 31°24' E 121°31'5321041.9
2014-Nov-19 22:33N 32°01' E 120°47'7764.5
2014-Nov-19 22:33N 31°55' E 120°52'1762484.0
2014-Nov-19 22:33N 32°01' E 120°33'65522038.4
2014-Nov-19 22:31N 23°04' E 113°29'546058.7
2014-Nov-19 22:30N 22°10' E 113°32'69937552.7
2014-Nov-19 22:29N 32°01' E 120°31'7228966.1
2014-Nov-19 22:29N 31°07' E 121°28'64461024.1
2014-Nov-19 22:29N 23°04' E 113°29'1881256.7
2014-Nov-19 22:20N 23°18' E 116°53'550494927.0
2014-Nov-19 22:20N 31°57' E 120°17'68217178.0
2014-Nov-19 22:17N 22°30' E 113°10'67911375.2
2014-Nov-19 22:14N 31°56' E 120°13'553825.4
2014-Nov-19 21:33N 23°13' E 116°50'562144557.7
2014-Nov-19 21:33N 32°02' E 120°26'62112435.1
2014-Nov-19 21:33N 31°27' E 121°28'4843435.8
2014-Nov-19 21:33N 32°01' E 120°47'64230718.0
2014-Nov-19 21:33N 31°07' E 121°28'64418853.4
2014-Nov-19 21:31N 23°04' E 113°29'0 8.1
2014-Nov-19 21:29N 23°04' E 113°29'62425249.1
2014-Nov-19 21:27N 29°50' E 122°19'66149538.2
2014-Nov-19 21:26N 22°30' E 113°10'110248365.0
2014-Nov-19 21:25N 39°57' E 119°50'4815412.6
2014-Nov-19 21:20N 31°56' E 120°07'68432389.0
2014-Nov-19 21:18N 22°10' E 113°32'51218.9
2014-Nov-19 21:04N 23°01' E 113°31'6591284.6
2014-Nov-19 20:34N 31°31' E 121°22'249664.0
2014-Nov-19 20:33N 31°07' E 121°28'6413571.6
2014-Nov-19 20:33N 32°01' E 120°47'47416897.9
2014-Nov-19 20:31N 39°53' E 119°48'1059146662.9
2014-Nov-19 20:31N 23°04' E 113°29'64858360.8
2014-Nov-19 20:30N 31°59' E 120°22'64822232.9
2014-Nov-19 20:29N 23°04' E 113°29'6385438.9
2014-Nov-19 20:22N 31°58' E 120°03'67613297.2
2014-Nov-19 20:18N 22°30' E 113°10'289116.5
2014-Nov-19 20:18N 22°10' E 113°32'51335.7
2014-Nov-19 20:09N 23°01' E 113°31'6641117.8
2014-Nov-19 19:34N 32°01' E 120°47'70126284.5
2014-Nov-19 19:32N 22°30' E 113°10'382825.5
2014-Nov-19 19:31N 23°04' E 113°29'645122203.9
2014-Nov-19 19:31N 31°57' E 120°18'782295.1
2014-Nov-19 19:29N 31°07' E 121°28'644193237.7
2014-Nov-19 19:29N 23°04' E 113°29'6595468.0
2014-Nov-19 19:21N 31°36' E 121°17'5 5.8
2014-Nov-19 18:33N 31°39' E 121°13'3113744.6
2014-Nov-19 18:33N 32°01' E 120°47'2184.5
2014-Nov-19 18:33N 32°02' E 120°49'66423675.5
2014-Nov-19 18:31N 23°04' E 113°29'64216279.5
2014-Nov-19 18:29N 31°56' E 120°15'7947531.8
2014-Nov-19 18:28N 31°07' E 121°28'682490902.5
2014-Nov-19 18:28N 22°30' E 113°10'388043.3
2014-Nov-19 18:28N 22°16' E 113°49'511184.6
2014-Nov-19 18:26N 23°04' E 113°29'542508.4
2014-Nov-19 18:24N 22°10' E 113°32'68422189.1
2014-Nov-19 18:22N 32°03' E 119°55'677826.4
2014-Nov-19 17:33N 22°30' E 113°10'381003.1
2014-Nov-19 17:31N 23°04' E 113°29'531931.2
2014-Nov-19 17:29N 22°13' E 113°42'69915070.6
2014-Nov-19 17:27N 32°01' E 120°47'6423091.7
2014-Nov-19 17:26N 31°07' E 121°28'64446376.7
2014-Nov-19 17:26N 23°04' E 113°29'542508.9
2014-Nov-19 17:24N 22°10' E 113°32'6857851.9
2014-Nov-19 17:19N 31°56' E 120°11'661866.8
2014-Nov-19 16:33N 22°26' E 113°53'63929501.2
2014-Nov-19 16:32N 29°46' E 122°29'62946201.7
2014-Nov-19 16:31N 23°04' E 113°29'543728.8
2014-Nov-19 16:30N 22°10' E 113°32'541875.1
2014-Nov-19 16:29N 23°04' E 113°29'66310746.9
2014-Nov-19 16:25N 32°01' E 120°47'70111845.9
2014-Nov-19 16:21N 22°30' E 113°10'3845.8
2014-Nov-19 15:31N 23°04' E 113°29'383737.4
2014-Nov-19 15:30N 22°30' E 113°10'38476.5
2014-Nov-19 15:26N 23°04' E 113°29'94710895.7
2014-Nov-19 15:20N 36°50' E 122°25'346437.9
2014-Nov-19 14:33N 31°07' E 121°28'18935.8
2014-Nov-19 14:32N 31°25' E 121°31'65912228.9
2014-Nov-19 14:29N 23°04' E 113°29'6639899.7
2014-Nov-19 14:25N 32°01' E 120°47'70131151.1
2014-Nov-19 14:23N 22°30' E 113°10'38591.0
2014-Nov-19 14:19N 23°04' E 113°29'6536889.2
2014-Nov-19 14:14N 32°02' E 120°26'6977274.4
2014-Nov-19 14:08N 22°10' E 113°32'7111243.8
2014-Nov-19 13:34N 31°28' E 121°47'7831362.5
2014-Nov-19 13:33N 31°59' E 120°22'21773.6
2014-Nov-19 13:32N 32°01' E 120°47'66317672.5
2014-Nov-19 13:29N 23°04' E 113°29'0 1.6
2014-Nov-19 13:19N 23°04' E 113°29'64412335.1
2014-Nov-19 13:16N 31°07' E 121°28'6855043.3
2014-Nov-19 13:08N 22°10' E 113°32'7071209.9
2014-Nov-19 12:33N 31°21' E 121°48'70794291.1
2014-Nov-19 12:32N 22°09' E 113°32'68579599.4
2014-Nov-19 12:32N 31°07' E 121°28'64412466.8
2014-Nov-19 12:29N 23°04' E 113°29'10881.8
2014-Nov-19 12:28N 22°57' E 113°37'6654776.6
2014-Nov-19 12:20N 32°01' E 120°47'6634385.5
2014-Nov-19 12:11N 23°04' E 113°29'6621062.7
2014-Nov-19 11:33N 31°17' E 121°46'70142065.4
2014-Nov-19 11:32N 22°11' E 113°32'535930.0
2014-Nov-19 11:32N 23°04' E 113°29'66319085.8
2014-Nov-19 11:30N 32°01' E 120°47'643250.7
2014-Nov-19 11:28N 31°07' E 121°28'64457955.1
2014-Nov-19 11:28N 23°04' E 113°30'654720.1
2014-Nov-19 10:33N 32°01' E 120°31'85153105.9
2014-Nov-19 10:33N 31°10' E 121°52'66124274.5
2014-Nov-19 10:32N 23°04' E 113°29'644231902.1
2014-Nov-19 10:31N 31°07' E 121°28'6534629.1
2014-Nov-19 10:23N 22°47' E 113°36'36146.3
2014-Nov-19 10:08N 22°11' E 113°32'7011199.1
2014-Nov-19 09:33N 31°07' E 121°58'66224319.5
2014-Nov-19 09:32N 23°04' E 113°29'64438651.9
2014-Nov-19 09:31N 31°07' E 121°28'7210391.9
2014-Nov-19 09:30N 32°01' E 120°31'65414814.0
2014-Nov-19 09:28N 23°04' E 113°30'54227.1
2014-Nov-19 09:13N 22°11' E 113°34'7051058.4
2014-Nov-19 08:33N 32°01' E 120°47'5613348.8
2014-Nov-19 08:33N 31°21' E 121°32'14914.4
2014-Nov-19 08:32N 31°07' E 121°28'7237168.9
2014-Nov-19 08:32N 32°01' E 120°31'65471380.8
2014-Nov-19 08:32N 23°04' E 113°29'5416259.8
2014-Nov-19 08:31N 22°10' E 113°31'371114.8
2014-Nov-19 08:29N 22°18' E 114°09'35672.4
2014-Nov-19 08:26N 22°11' E 113°32'53293.8
2014-Nov-19 08:16N 23°04' E 113°30'652929.7
2014-Nov-19 07:34N 31°15' E 121°31'6701206009.9
2014-Nov-19 07:33N 22°28' E 113°47'221042.8
2014-Nov-19 07:32N 22°11' E 113°32'535124.9
2014-Nov-19 07:32N 23°04' E 113°29'64334036.7
2014-Nov-19 07:30N 30°51' E 121°46'65131239.6
2014-Nov-19 07:29N 23°04' E 113°17'65254568.6
2014-Nov-19 07:29N 31°07' E 121°28'66592113.9
2014-Nov-19 07:28N 22°26' E 113°45'404695.3
2014-Nov-19 07:28N 23°04' E 113°30'638208945.1
2014-Nov-19 07:27N 32°03' E 119°55'6403601.1
2014-Nov-19 07:17N 23°01' E 113°31'645893.7
2014-Nov-19 06:33N 30°50' E 121°49'284313.7
2014-Nov-19 06:33N 31°11' E 121°28'64727711.0
2014-Nov-19 06:32N 23°04' E 113°29'64455214.0
2014-Nov-19 06:31N 31°07' E 121°28'724565.0
2014-Nov-19 06:30N 31°55' E 120°25'4115685.7
2014-Nov-19 06:26N 38°43' E 121°30'106218930.0
2014-Nov-19 06:22N 22°20' E 113°41'9317.6
2014-Nov-19 06:21N 22°28' E 113°47'6628963.8
2014-Nov-19 06:16N 32°03' E 119°55'63871824.3
2014-Nov-19 06:16N 23°04' E 113°30'315.6
2014-Nov-19 06:05N 23°01' E 113°31'4688.5
2014-Nov-19 05:33N 22°16' E 113°39'675221060.8
2014-Nov-19 05:33N 30°48' E 121°51'125149880.5
2014-Nov-19 05:33N 32°03' E 119°55'407209130.2
2014-Nov-19 05:33N 38°42' E 121°31'409735471.1
2014-Nov-19 05:33N 31°58' E 120°23'6487064.6
2014-Nov-19 05:28N 23°04' E 113°30'6399199.6
2014-Nov-19 05:23N 31°57' E 120°06'663149178.1
2014-Nov-19 05:23N 22°27' E 113°47'414751.4
2014-Nov-19 05:23N 23°04' E 113°29'331.0
2014-Nov-19 05:17N 23°01' E 113°31'10278697.0
2014-Nov-19 05:09N 38°42' E 121°29'478791.6
2014-Nov-19 04:33N 30°45' E 121°54'11313529.2
2014-Nov-19 04:33N 31°57' E 120°12'433103829.5
2014-Nov-19 04:33N 38°55' E 117°55'43316576.2
2014-Nov-19 04:31N 32°01' E 120°31'696131918.0
2014-Nov-19 04:31N 22°10' E 113°37'1072428898.6
2014-Nov-19 04:30N 38°42' E 121°30'10541897187.4
2014-Nov-19 04:30N 22°27' E 113°47'68527414.2
2014-Nov-19 04:29N 32°01' E 120°47'6634252.4
2014-Nov-19 04:20N 23°04' E 113°29'43399.4
2014-Nov-19 04:13N 22°27' E 113°53'434685.8
2014-Nov-19 04:13N 23°04' E 113°30'331.0
2014-Nov-19 04:07N 23°01' E 113°31'6641185.9
2014-Nov-19 03:33N 32°01' E 120°47'708364164.7
2014-Nov-19 03:33N 22°09' E 113°30'5549597.3
2014-Nov-19 03:33N 23°05' E 113°28'636381307.6
2014-Nov-19 03:33N 30°59' E 121°22'37134043.0
2014-Nov-19 03:33N 30°57' E 122°06'153266.8
2014-Nov-19 03:33N 30°44' E 121°58'1072918.6
2014-Nov-19 03:31N 32°01' E 120°31'678174257.2
2014-Nov-19 03:30N 22°27' E 113°47'36448.6
2014-Nov-19 03:26N 23°00' E 113°32'15621.8
2014-Nov-19 03:24N 23°04' E 113°16'1255.0
2014-Nov-19 03:11N 23°04' E 113°29'6631068.9
2014-Nov-19 02:33N 32°01' E 120°47'10045030.9
2014-Nov-19 02:33N 30°45' E 122°03'7159.4
2014-Nov-19 02:31N 30°51' E 122°08'1091076.1
2014-Nov-19 02:25N 32°01' E 120°32'661139875.8
2014-Nov-19 02:24N 23°03' E 113°19'9337.2
2014-Nov-19 02:23N 23°04' E 113°29'6658340.1
2014-Nov-19 02:18N 32°02' E 120°50'61934.4
2014-Nov-19 02:14N 31°10' E 121°28'4059.3
2014-Nov-19 01:33N 30°49' E 122°08'109393063.6
2014-Nov-19 01:33N 32°01' E 120°32'65522023.0
2014-Nov-19 01:32N 23°04' E 113°29'66528160.2
2014-Nov-19 01:30N 32°02' E 120°50'68663360.3
2014-Nov-19 01:30N 22°24' E 113°54'6684781.4
2014-Nov-19 01:21N 31°13' E 121°30'4486044.9
2014-Nov-19 01:17N 38°42' E 121°29'107635856.9
2014-Nov-19 01:15N 22°09' E 113°28'68915023.4
2014-Nov-19 01:12N 31°08' E 121°27'4544788.4
2014-Nov-19 01:06N 38°42' E 121°30'40612933.2
2014-Nov-19 01:05N 32°03' E 119°55'4485.6
2014-Nov-19 00:33N 32°01' E 120°47'9738754.2
2014-Nov-19 00:33N 30°55' E 122°10'698167573.8
2014-Nov-19 00:33N 22°11' E 113°34'532235.8
2014-Nov-19 00:32N 23°04' E 113°29'66541993.0
2014-Nov-19 00:31N 32°02' E 120°50'3 2.7
2014-Nov-18 23:33N 32°01' E 120°47'93335330.7
2014-Nov-18 23:33N 30°59' E 122°09'9282781.0
2014-Nov-18 23:33N 32°02' E 120°50'70666895.9
2014-Nov-18 23:33N 22°12' E 113°34'43560.3
2014-Nov-18 23:28N 22°54' E 113°22'12127.5
2014-Nov-18 23:23N 23°04' E 113°29'6576495.4
2014-Nov-18 23:17N 31°21' E 121°33'2433.1
2014-Nov-18 22:33N 31°17' E 121°05'4733549.7
2014-Nov-18 22:33N 32°01' E 120°47'672241993.3
2014-Nov-18 22:33N 22°55' E 113°26'432679.3
2014-Nov-18 22:32N 22°12' E 113°34'700503835.1
2014-Nov-18 22:32N 31°02' E 122°05'66388389.7
2014-Nov-18 22:32N 23°04' E 113°29'65630280.7
2014-Nov-18 22:30N 31°22' E 121°30'102603.8
2014-Nov-18 22:20N 29°49' E 122°20'163208.7
2014-Nov-18 21:33N 31°58' E 120°23'690207014.4
2014-Nov-18 21:33N 22°12' E 113°34'4225265.8
2014-Nov-18 21:33N 22°54' E 113°30'304495.9
2014-Nov-18 21:33N 22°29' E 113°49'67597158.4
2014-Nov-18 21:32N 31°24' E 121°31'535747.8
2014-Nov-18 21:32N 32°01' E 120°47'239.5
2014-Nov-18 21:29N 31°60' E 120°49'821041.2
2014-Nov-18 21:24N 31°05' E 122°00'6766071.8
2014-Nov-18 21:18N 22°27' E 113°53'2330.8
2014-Nov-18 20:33N 22°12' E 113°34'686617847.2
2014-Nov-18 20:33N 31°57' E 120°17'653130500.5
2014-Nov-18 20:33N 22°52' E 113°33'66657096.0
2014-Nov-18 20:32N 31°27' E 121°28'659148240.0
2014-Nov-18 20:32N 23°04' E 113°29'6165328.7
2014-Nov-18 20:25N 29°41' E 122°15'1875253.0
2014-Nov-18 20:23N 32°03' E 119°55'4454.2
2014-Nov-18 19:33N 32°01' E 120°47'70497498.5
2014-Nov-18 19:33N 22°12' E 113°34'68216146.2
2014-Nov-18 19:30N 32°03' E 119°55'827785.5
2014-Nov-18 19:30N 31°30' E 121°23'6736732.1
2014-Nov-18 19:24N 22°33' E 113°48'6246929.9
2014-Nov-18 19:18N 29°42' E 122°12'6154767.9
2014-Nov-18 19:11N 23°04' E 113°29'12155.3
2014-Nov-18 19:06N 22°54' E 113°22'4461.6
2014-Nov-18 18:23N 22°12' E 113°34'534508.7
2014-Nov-18 18:23N 23°04' E 113°29'61813652.0
2014-Nov-18 18:20N 29°36' E 122°22'1400.7
2014-Nov-18 18:20N 29°36' E 122°22'54815300.0
2014-Nov-18 18:18N 38°43' E 121°35'4044187.9
2014-Nov-18 18:12N 32°01' E 120°47'67911204.8
2014-Nov-18 18:08N 22°54' E 113°15'463080.6
2014-Nov-18 18:07N 22°11' E 113°32'  

Dump ship's entire track history